<?xml version="1.0"?>
<gpx creator="GPS Visualizer http://www.gpsvisualizer.com/" version="1.0" xmlns="http://www.topografix.com/GPX/1/0" xmlns:xsi="http://www.w3.org/2001/XMLSchema-instance" xsi:schemaLocation="http://www.topografix.com/GPX/1/0 http://www.topografix.com/GPX/1/0/gpx.xsd">
<trk>
  <name>Sp&#229;r 001</name>
  <trkseg>
    <trkpt lat="57.83420803" lon="11.857392015">
      <ele>37.63</ele>
      <time>2013-03-29T09:10:42Z</time>
    </trkpt>
    <trkpt lat="57.834218005" lon="11.85735899">
      <ele>37.63</ele>
      <time>2013-03-29T09:10:43Z</time>
    </trkpt>
    <trkpt lat="57.83439897" lon="11.856951965">
      <ele>38.59</ele>
      <time>2013-03-29T09:10:56Z</time>
    </trkpt>
    <trkpt lat="57.834550012" lon="11.856606966">
      <ele>38.11</ele>
      <time>2013-03-29T09:11:05Z</time>
    </trkpt>
    <trkpt lat="57.83472796" lon="11.856214022">
      <ele>38.59</ele>
      <time>2013-03-29T09:11:14Z</time>
    </trkpt>
    <trkpt lat="57.834929042" lon="11.855584038">
      <ele>37.63</ele>
      <time>2013-03-29T09:11:25Z</time>
    </trkpt>
    <trkpt lat="57.835265994" lon="11.855230993">
      <ele>37.15</ele>
      <time>2013-03-29T09:11:35Z</time>
    </trkpt>
    <trkpt lat="57.835494988" lon="11.854871996">
      <ele>37.63</ele>
      <time>2013-03-29T09:11:43Z</time>
    </trkpt>
    <trkpt lat="57.835533964" lon="11.85471802">
      <ele>38.11</ele>
      <time>2013-03-29T09:11:45Z</time>
    </trkpt>
    <trkpt lat="57.835547961" lon="11.854635961">
      <ele>38.11</ele>
      <time>2013-03-29T09:11:46Z</time>
    </trkpt>
    <trkpt lat="57.835582998" lon="11.854366986">
      <ele>38.59</ele>
      <time>2013-03-29T09:11:49Z</time>
    </trkpt>
    <trkpt lat="57.835589033" lon="11.854267996">
      <ele>38.59</ele>
      <time>2013-03-29T09:11:50Z</time>
    </trkpt>
    <trkpt lat="57.835591966" lon="11.854072027">
      <ele>37.63</ele>
      <time>2013-03-29T09:11:52Z</time>
    </trkpt>
    <trkpt lat="57.835593978" lon="11.853597024">
      <ele>37.63</ele>
      <time>2013-03-29T09:11:57Z</time>
    </trkpt>
    <trkpt lat="57.835591966" lon="11.853158986">
      <ele>38.11</ele>
      <time>2013-03-29T09:12:02Z</time>
    </trkpt>
    <trkpt lat="57.835598001" lon="11.853073994">
      <ele>37.15</ele>
      <time>2013-03-29T09:12:03Z</time>
    </trkpt>
    <trkpt lat="57.835602025" lon="11.85298699">
      <ele>37.63</ele>
      <time>2013-03-29T09:12:04Z</time>
    </trkpt>
    <trkpt lat="57.835679976" lon="11.852436969">
      <ele>38.11</ele>
      <time>2013-03-29T09:12:11Z</time>
    </trkpt>
    <trkpt lat="57.835700009" lon="11.85236698">
      <ele>38.59</ele>
      <time>2013-03-29T09:12:12Z</time>
    </trkpt>
    <trkpt lat="57.835723981" lon="11.852297997">
      <ele>39.07</ele>
      <time>2013-03-29T09:12:13Z</time>
    </trkpt>
    <trkpt lat="57.835777961" lon="11.85217604">
      <ele>38.59</ele>
      <time>2013-03-29T09:12:15Z</time>
    </trkpt>
    <trkpt lat="57.83602003" lon="11.851675976">
      <ele>41.95</ele>
      <time>2013-03-29T09:12:25Z</time>
    </trkpt>
    <trkpt lat="57.836080967" lon="11.851274986">
      <ele>44.84</ele>
      <time>2013-03-29T09:12:33Z</time>
    </trkpt>
    <trkpt lat="57.836142993" lon="11.850670986">
      <ele>46.28</ele>
      <time>2013-03-29T09:12:45Z</time>
    </trkpt>
    <trkpt lat="57.836211976" lon="11.85051701">
      <ele>47.72</ele>
      <time>2013-03-29T09:12:49Z</time>
    </trkpt>
    <trkpt lat="57.836288" lon="11.850550035">
      <ele>47.72</ele>
      <time>2013-03-29T09:12:52Z</time>
    </trkpt>
    <trkpt lat="57.836352959" lon="11.850651959">
      <ele>50.13</ele>
      <time>2013-03-29T09:12:56Z</time>
    </trkpt>
    <trkpt lat="57.836592011" lon="11.850936022">
      <ele>51.57</ele>
      <time>2013-03-29T09:13:09Z</time>
    </trkpt>
    <trkpt lat="57.836765014" lon="11.851184964">
      <ele>50.13</ele>
      <time>2013-03-29T09:13:18Z</time>
    </trkpt>
    <trkpt lat="57.83679896" lon="11.851244979">
      <ele>50.61</ele>
      <time>2013-03-29T09:13:20Z</time>
    </trkpt>
    <trkpt lat="57.836846989" lon="11.851280015">
      <ele>51.09</ele>
      <time>2013-03-29T09:13:30Z</time>
    </trkpt>
    <trkpt lat="57.836846989" lon="11.851280015">
      <ele>50.61</ele>
      <time>2013-03-29T09:13:36Z</time>
    </trkpt>
    <trkpt lat="57.836888982" lon="11.851294013">
      <ele>50.13</ele>
      <time>2013-03-29T09:13:40Z</time>
    </trkpt>
    <trkpt lat="57.837059973" lon="11.85142301">
      <ele>50.61</ele>
      <time>2013-03-29T09:13:48Z</time>
    </trkpt>
    <trkpt lat="57.837230964" lon="11.851535998">
      <ele>51.09</ele>
      <time>2013-03-29T09:13:56Z</time>
    </trkpt>
    <trkpt lat="57.83744202" lon="11.851609005">
      <ele>52.05</ele>
      <time>2013-03-29T09:14:05Z</time>
    </trkpt>
    <trkpt lat="57.837632038" lon="11.851902036">
      <ele>51.09</ele>
      <time>2013-03-29T09:14:11Z</time>
    </trkpt>
    <trkpt lat="57.837905958" lon="11.852176962">
      <ele>50.13</ele>
      <time>2013-03-29T09:14:20Z</time>
    </trkpt>
    <trkpt lat="57.838180969" lon="11.852110997">
      <ele>50.13</ele>
      <time>2013-03-29T09:14:28Z</time>
    </trkpt>
    <trkpt lat="57.838216005" lon="11.852114014">
      <ele>51.09</ele>
      <time>2013-03-29T09:14:29Z</time>
    </trkpt>
    <trkpt lat="57.838435024" lon="11.852376033">
      <ele>49.16</ele>
      <time>2013-03-29T09:14:38Z</time>
    </trkpt>
    <trkpt lat="57.838357994" lon="11.852574013">
      <ele>49.16</ele>
      <time>2013-03-29T09:14:42Z</time>
    </trkpt>
    <trkpt lat="57.838305021" lon="11.852957988">
      <ele>48.2</ele>
      <time>2013-03-29T09:14:50Z</time>
    </trkpt>
    <trkpt lat="57.838381967" lon="11.853014985">
      <ele>47.24</ele>
      <time>2013-03-29T09:14:52Z</time>
    </trkpt>
    <trkpt lat="57.83859998" lon="11.853271974">
      <ele>46.76</ele>
      <time>2013-03-29T09:14:58Z</time>
    </trkpt>
    <trkpt lat="57.838725038" lon="11.853619991">
      <ele>45.8</ele>
      <time>2013-03-29T09:15:06Z</time>
    </trkpt>
    <trkpt lat="57.838727972" lon="11.853646981">
      <ele>46.28</ele>
      <time>2013-03-29T09:15:07Z</time>
    </trkpt>
    <trkpt lat="57.838662006" lon="11.853869017">
      <ele>47.72</ele>
      <time>2013-03-29T09:15:15Z</time>
    </trkpt>
    <trkpt lat="57.838607021" lon="11.853934983">
      <ele>46.76</ele>
      <time>2013-03-29T09:15:19Z</time>
    </trkpt>
    <trkpt lat="57.838577013" lon="11.854006983">
      <ele>49.16</ele>
      <time>2013-03-29T09:15:24Z</time>
    </trkpt>
    <trkpt lat="57.838566033" lon="11.854175963">
      <ele>50.61</ele>
      <time>2013-03-29T09:15:29Z</time>
    </trkpt>
    <trkpt lat="57.838553041" lon="11.854713997">
      <ele>50.61</ele>
      <time>2013-03-29T09:15:37Z</time>
    </trkpt>
    <trkpt lat="57.838607021" lon="11.855114987">
      <ele>48.68</ele>
      <time>2013-03-29T09:15:43Z</time>
    </trkpt>
    <trkpt lat="57.838643985" lon="11.855452023">
      <ele>48.2</ele>
      <time>2013-03-29T09:15:49Z</time>
    </trkpt>
    <trkpt lat="57.83863401" lon="11.855782019">
      <ele>46.28</ele>
      <time>2013-03-29T09:15:57Z</time>
    </trkpt>
    <trkpt lat="57.838579025" lon="11.856015036">
      <ele>45.8</ele>
      <time>2013-03-29T09:16:03Z</time>
    </trkpt>
    <trkpt lat="57.838627975" lon="11.856191978">
      <ele>47.24</ele>
      <time>2013-03-29T09:16:07Z</time>
    </trkpt>
    <trkpt lat="57.838836014" lon="11.856519962">
      <ele>45.32</ele>
      <time>2013-03-29T09:16:16Z</time>
    </trkpt>
    <trkpt lat="57.838964006" lon="11.856864961">
      <ele>42.92</ele>
      <time>2013-03-29T09:16:22Z</time>
    </trkpt>
    <trkpt lat="57.839103984" lon="11.857024971">
      <ele>41.47</ele>
      <time>2013-03-29T09:16:27Z</time>
    </trkpt>
    <trkpt lat="57.839179002" lon="11.857224964">
      <ele>41.95</ele>
      <time>2013-03-29T09:16:34Z</time>
    </trkpt>
    <trkpt lat="57.839329038" lon="11.857468961">
      <ele>41.47</ele>
      <time>2013-03-29T09:16:44Z</time>
    </trkpt>
    <trkpt lat="57.839424005" lon="11.857726034">
      <ele>43.4</ele>
      <time>2013-03-29T09:16:52Z</time>
    </trkpt>
    <trkpt lat="57.839447977" lon="11.857761992">
      <ele>43.88</ele>
      <time>2013-03-29T09:16:54Z</time>
    </trkpt>
    <trkpt lat="57.839557026" lon="11.857808009">
      <ele>45.32</ele>
      <time>2013-03-29T09:16:59Z</time>
    </trkpt>
    <trkpt lat="57.839642018" lon="11.857909011">
      <ele>47.24</ele>
      <time>2013-03-29T09:17:05Z</time>
    </trkpt>
    <trkpt lat="57.839795994" lon="11.857966008">
      <ele>48.2</ele>
      <time>2013-03-29T09:17:15Z</time>
    </trkpt>
    <trkpt lat="57.839833964" lon="11.85798604">
      <ele>49.16</ele>
      <time>2013-03-29T09:17:20Z</time>
    </trkpt>
    <trkpt lat="57.839872018" lon="11.858048989">
      <ele>50.13</ele>
      <time>2013-03-29T09:17:24Z</time>
    </trkpt>
    <trkpt lat="57.839905964" lon="11.858101962">
      <ele>50.61</ele>
      <time>2013-03-29T09:17:37Z</time>
    </trkpt>
    <trkpt lat="57.839905964" lon="11.858102968">
      <ele>51.57</ele>
      <time>2013-03-29T09:18:53Z</time>
    </trkpt>
    <trkpt lat="57.839903031" lon="11.858103974">
      <ele>51.57</ele>
      <time>2013-03-29T09:19:45Z</time>
    </trkpt>
    <trkpt lat="57.839974025" lon="11.858152002">
      <ele>52.05</ele>
      <time>2013-03-29T09:19:49Z</time>
    </trkpt>
    <trkpt lat="57.840063963" lon="11.858262978">
      <ele>53.01</ele>
      <time>2013-03-29T09:19:55Z</time>
    </trkpt>
    <trkpt lat="57.84023202" lon="11.858262978">
      <ele>48.68</ele>
      <time>2013-03-29T09:20:00Z</time>
    </trkpt>
    <trkpt lat="57.840274014" lon="11.858271025">
      <ele>49.16</ele>
      <time>2013-03-29T09:20:01Z</time>
    </trkpt>
    <trkpt lat="57.840354983" lon="11.858311007">
      <ele>48.68</ele>
      <time>2013-03-29T09:20:03Z</time>
    </trkpt>
    <trkpt lat="57.840417009" lon="11.858340008">
      <ele>47.72</ele>
      <time>2013-03-29T09:20:05Z</time>
    </trkpt>
    <trkpt lat="57.84040804" lon="11.858018981">
      <ele>46.76</ele>
      <time>2013-03-29T09:20:11Z</time>
    </trkpt>
    <trkpt lat="57.840358" lon="11.857856959">
      <ele>47.72</ele>
      <time>2013-03-29T09:20:14Z</time>
    </trkpt>
    <trkpt lat="57.840359006" lon="11.857692003">
      <ele>47.24</ele>
      <time>2013-03-29T09:20:18Z</time>
    </trkpt>
    <trkpt lat="57.840154991" lon="11.857482959">
      <ele>46.28</ele>
      <time>2013-03-29T09:20:26Z</time>
    </trkpt>
    <trkpt lat="57.839986011" lon="11.857397966">
      <ele>44.84</ele>
      <time>2013-03-29T09:20:31Z</time>
    </trkpt>
    <trkpt lat="57.839923985" lon="11.857454041">
      <ele>46.76</ele>
      <time>2013-03-29T09:20:34Z</time>
    </trkpt>
    <trkpt lat="57.839890961" lon="11.857571974">
      <ele>48.68</ele>
      <time>2013-03-29T09:20:38Z</time>
    </trkpt>
    <trkpt lat="57.83989599" lon="11.857651016">
      <ele>48.68</ele>
      <time>2013-03-29T09:20:41Z</time>
    </trkpt>
    <trkpt lat="57.839881992" lon="11.857713964">
      <ele>49.16</ele>
      <time>2013-03-29T09:20:44Z</time>
    </trkpt>
    <trkpt lat="57.839771016" lon="11.85807799">
      <ele>49.65</ele>
      <time>2013-03-29T09:20:54Z</time>
    </trkpt>
    <trkpt lat="57.839762969" lon="11.858118977">
      <ele>49.16</ele>
      <time>2013-03-29T09:20:55Z</time>
    </trkpt>
    <trkpt lat="57.839660961" lon="11.858292986">
      <ele>50.13</ele>
      <time>2013-03-29T09:21:00Z</time>
    </trkpt>
    <trkpt lat="57.83950598" lon="11.858825991">
      <ele>49.16</ele>
      <time>2013-03-29T09:21:11Z</time>
    </trkpt>
    <trkpt lat="57.839501034" lon="11.858869996">
      <ele>49.16</ele>
      <time>2013-03-29T09:21:12Z</time>
    </trkpt>
    <trkpt lat="57.839456024" lon="11.858991031">
      <ele>48.68</ele>
      <time>2013-03-29T09:21:15Z</time>
    </trkpt>
    <trkpt lat="57.839398021" lon="11.859443989">
      <ele>50.61</ele>
      <time>2013-03-29T09:21:25Z</time>
    </trkpt>
    <trkpt lat="57.839413024" lon="11.859839028">
      <ele>50.13</ele>
      <time>2013-03-29T09:21:34Z</time>
    </trkpt>
    <trkpt lat="57.839421993" lon="11.860177992">
      <ele>47.72</ele>
      <time>2013-03-29T09:21:40Z</time>
    </trkpt>
    <trkpt lat="57.83957798" lon="11.860457025">
      <ele>49.16</ele>
      <time>2013-03-29T09:21:49Z</time>
    </trkpt>
    <trkpt lat="57.839611005" lon="11.860622987">
      <ele>48.2</ele>
      <time>2013-03-29T09:21:53Z</time>
    </trkpt>
    <trkpt lat="57.839402966" lon="11.860948959">
      <ele>47.24</ele>
      <time>2013-03-29T09:22:04Z</time>
    </trkpt>
    <trkpt lat="57.839359967" lon="11.860997993">
      <ele>48.2</ele>
      <time>2013-03-29T09:22:06Z</time>
    </trkpt>
    <trkpt lat="57.839105995" lon="11.86101702">
      <ele>48.2</ele>
      <time>2013-03-29T09:22:16Z</time>
    </trkpt>
    <trkpt lat="57.83891296" lon="11.86097201">
      <ele>48.68</ele>
      <time>2013-03-29T09:22:24Z</time>
    </trkpt>
    <trkpt lat="57.838637028" lon="11.86113596">
      <ele>47.72</ele>
      <time>2013-03-29T09:22:32Z</time>
    </trkpt>
    <trkpt lat="57.838549018" lon="11.861265963">
      <ele>48.2</ele>
      <time>2013-03-29T09:22:35Z</time>
    </trkpt>
    <trkpt lat="57.83842002" lon="11.861503003">
      <ele>45.32</ele>
      <time>2013-03-29T09:22:39Z</time>
    </trkpt>
    <trkpt lat="57.838380039" lon="11.861569975">
      <ele>45.32</ele>
      <time>2013-03-29T09:22:40Z</time>
    </trkpt>
    <trkpt lat="57.838345002" lon="11.861650022">
      <ele>44.84</ele>
      <time>2013-03-29T09:22:41Z</time>
    </trkpt>
    <trkpt lat="57.838316001" lon="11.861729985">
      <ele>44.84</ele>
      <time>2013-03-29T09:22:42Z</time>
    </trkpt>
    <trkpt lat="57.838284988" lon="11.86179704">
      <ele>44.84</ele>
      <time>2013-03-29T09:22:43Z</time>
    </trkpt>
    <trkpt lat="57.838254981" lon="11.861865018">
      <ele>44.84</ele>
      <time>2013-03-29T09:22:44Z</time>
    </trkpt>
    <trkpt lat="57.838223968" lon="11.861932995">
      <ele>43.88</ele>
      <time>2013-03-29T09:22:45Z</time>
    </trkpt>
    <trkpt lat="57.838188009" lon="11.861989992">
      <ele>43.88</ele>
      <time>2013-03-29T09:22:46Z</time>
    </trkpt>
    <trkpt lat="57.838153979" lon="11.862036008">
      <ele>44.36</ele>
      <time>2013-03-29T09:22:47Z</time>
    </trkpt>
    <trkpt lat="57.83812196" lon="11.862080013">
      <ele>43.88</ele>
      <time>2013-03-29T09:22:48Z</time>
    </trkpt>
    <trkpt lat="57.838089019" lon="11.862119995">
      <ele>43.4</ele>
      <time>2013-03-29T09:22:49Z</time>
    </trkpt>
    <trkpt lat="57.838057" lon="11.862165006">
      <ele>43.88</ele>
      <time>2013-03-29T09:22:50Z</time>
    </trkpt>
    <trkpt lat="57.837854996" lon="11.862565996">
      <ele>42.44</ele>
      <time>2013-03-29T09:22:57Z</time>
    </trkpt>
    <trkpt lat="57.837753994" lon="11.862863973">
      <ele>39.55</ele>
      <time>2013-03-29T09:23:01Z</time>
    </trkpt>
    <trkpt lat="57.837738991" lon="11.862890041">
      <ele>39.07</ele>
      <time>2013-03-29T09:23:02Z</time>
    </trkpt>
    <trkpt lat="57.837607982" lon="11.862913007">
      <ele>38.11</ele>
      <time>2013-03-29T09:23:07Z</time>
    </trkpt>
    <trkpt lat="57.837523995" lon="11.86283296">
      <ele>35.71</ele>
      <time>2013-03-29T09:23:10Z</time>
    </trkpt>
    <trkpt lat="57.837460963" lon="11.862786021">
      <ele>35.71</ele>
      <time>2013-03-29T09:23:12Z</time>
    </trkpt>
    <trkpt lat="57.837331966" lon="11.862662975">
      <ele>35.71</ele>
      <time>2013-03-29T09:23:15Z</time>
    </trkpt>
    <trkpt lat="57.837036001" lon="11.862359969">
      <ele>35.23</ele>
      <time>2013-03-29T09:23:23Z</time>
    </trkpt>
    <trkpt lat="57.836970035" lon="11.862298027">
      <ele>35.71</ele>
      <time>2013-03-29T09:23:25Z</time>
    </trkpt>
    <trkpt lat="57.836867021" lon="11.862154026">
      <ele>35.71</ele>
      <time>2013-03-29T09:23:28Z</time>
    </trkpt>
    <trkpt lat="57.836718997" lon="11.862039026">
      <ele>36.19</ele>
      <time>2013-03-29T09:23:32Z</time>
    </trkpt>
    <trkpt lat="57.836577008" lon="11.86181196">
      <ele>36.19</ele>
      <time>2013-03-29T09:23:38Z</time>
    </trkpt>
    <trkpt lat="57.836567033" lon="11.861673994">
      <ele>37.15</ele>
      <time>2013-03-29T09:23:43Z</time>
    </trkpt>
    <trkpt lat="57.83642496" lon="11.861716993">
      <ele>37.15</ele>
      <time>2013-03-29T09:23:51Z</time>
    </trkpt>
    <trkpt lat="57.836343991" lon="11.861762004">
      <ele>38.11</ele>
      <time>2013-03-29T09:23:54Z</time>
    </trkpt>
    <trkpt lat="57.836274002" lon="11.86185102">
      <ele>38.59</ele>
      <time>2013-03-29T09:23:58Z</time>
    </trkpt>
    <trkpt lat="57.836241983" lon="11.861910028">
      <ele>38.59</ele>
      <time>2013-03-29T09:24:00Z</time>
    </trkpt>
    <trkpt lat="57.836089013" lon="11.861877004">
      <ele>40.51</ele>
      <time>2013-03-29T09:24:08Z</time>
    </trkpt>
    <trkpt lat="57.836022042" lon="11.861865018">
      <ele>41.95</ele>
      <time>2013-03-29T09:24:15Z</time>
    </trkpt>
    <trkpt lat="57.835984994" lon="11.861811038">
      <ele>42.92</ele>
      <time>2013-03-29T09:24:24Z</time>
    </trkpt>
    <trkpt lat="57.83598097" lon="11.861793017">
      <ele>42.92</ele>
      <time>2013-03-29T09:24:25Z</time>
    </trkpt>
    <trkpt lat="57.835955992" lon="11.861722022">
      <ele>43.88</ele>
      <time>2013-03-29T09:24:31Z</time>
    </trkpt>
    <trkpt lat="57.835922968" lon="11.861663014">
      <ele>46.28</ele>
      <time>2013-03-29T09:24:39Z</time>
    </trkpt>
    <trkpt lat="57.835868988" lon="11.861568969">
      <ele>48.2</ele>
      <time>2013-03-29T09:24:50Z</time>
    </trkpt>
    <trkpt lat="57.835806962" lon="11.861460004">
      <ele>50.13</ele>
      <time>2013-03-29T09:24:59Z</time>
    </trkpt>
    <trkpt lat="57.835787013" lon="11.861435026">
      <ele>50.13</ele>
      <time>2013-03-29T09:25:01Z</time>
    </trkpt>
    <trkpt lat="57.835690035" lon="11.861343998">
      <ele>52.05</ele>
      <time>2013-03-29T09:25:10Z</time>
    </trkpt>
    <trkpt lat="57.835660027" lon="11.861328995">
      <ele>52.05</ele>
      <time>2013-03-29T09:25:21Z</time>
    </trkpt>
    <trkpt lat="57.835659022" lon="11.861327989">
      <ele>52.05</ele>
      <time>2013-03-29T09:27:14Z</time>
    </trkpt>
    <trkpt lat="57.835642006" lon="11.861310974">
      <ele>52.53</ele>
      <time>2013-03-29T09:27:26Z</time>
    </trkpt>
    <trkpt lat="57.835475961" lon="11.861034036">
      <ele>53.97</ele>
      <time>2013-03-29T09:27:37Z</time>
    </trkpt>
    <trkpt lat="57.835300025" lon="11.86080697">
      <ele>55.89</ele>
      <time>2013-03-29T09:27:46Z</time>
    </trkpt>
    <trkpt lat="57.835231964" lon="11.860807976">
      <ele>57.34</ele>
      <time>2013-03-29T09:27:50Z</time>
    </trkpt>
    <trkpt lat="57.835186031" lon="11.860780986">
      <ele>57.34</ele>
      <time>2013-03-29T09:27:53Z</time>
    </trkpt>
    <trkpt lat="57.835098021" lon="11.860427018">
      <ele>58.3</ele>
      <time>2013-03-29T09:28:04Z</time>
    </trkpt>
    <trkpt lat="57.835097015" lon="11.860397011">
      <ele>59.74</ele>
      <time>2013-03-29T09:28:05Z</time>
    </trkpt>
    <trkpt lat="57.835088968" lon="11.860303972">
      <ele>61.18</ele>
      <time>2013-03-29T09:28:09Z</time>
    </trkpt>
    <trkpt lat="57.835120987" lon="11.860062992">
      <ele>60.7</ele>
      <time>2013-03-29T09:28:18Z</time>
    </trkpt>
    <trkpt lat="57.835182007" lon="11.859886972">
      <ele>62.14</ele>
      <time>2013-03-29T09:28:28Z</time>
    </trkpt>
    <trkpt lat="57.835187037" lon="11.859866017">
      <ele>61.66</ele>
      <time>2013-03-29T09:28:46Z</time>
    </trkpt>
    <trkpt lat="57.835188964" lon="11.859863">
      <ele>62.62</ele>
      <time>2013-03-29T09:29:13Z</time>
    </trkpt>
    <trkpt lat="57.835185025" lon="11.859646998">
      <ele>61.66</ele>
      <time>2013-03-29T09:29:20Z</time>
    </trkpt>
    <trkpt lat="57.835187037" lon="11.859596036">
      <ele>61.18</ele>
      <time>2013-03-29T09:29:22Z</time>
    </trkpt>
    <trkpt lat="57.835220983" lon="11.859507021">
      <ele>62.14</ele>
      <time>2013-03-29T09:29:30Z</time>
    </trkpt>
    <trkpt lat="57.835253002" lon="11.859368971">
      <ele>64.07</ele>
      <time>2013-03-29T09:29:34Z</time>
    </trkpt>
    <trkpt lat="57.835320979" lon="11.85912204">
      <ele>64.07</ele>
      <time>2013-03-29T09:29:44Z</time>
    </trkpt>
    <trkpt lat="57.835418964" lon="11.85912204">
      <ele>65.51</ele>
      <time>2013-03-29T09:29:50Z</time>
    </trkpt>
    <trkpt lat="57.835451989" lon="11.859167973">
      <ele>65.99</ele>
      <time>2013-03-29T09:29:52Z</time>
    </trkpt>
    <trkpt lat="57.835514015" lon="11.859192029">
      <ele>65.03</ele>
      <time>2013-03-29T09:29:57Z</time>
    </trkpt>
    <trkpt lat="57.835561959" lon="11.859353967">
      <ele>64.55</ele>
      <time>2013-03-29T09:30:03Z</time>
    </trkpt>
    <trkpt lat="57.835622979" lon="11.859464021">
      <ele>62.14</ele>
      <time>2013-03-29T09:30:07Z</time>
    </trkpt>
    <trkpt lat="57.83563002" lon="11.859596958">
      <ele>62.62</ele>
      <time>2013-03-29T09:30:11Z</time>
    </trkpt>
    <trkpt lat="57.835633038" lon="11.859702989">
      <ele>63.1</ele>
      <time>2013-03-29T09:30:21Z</time>
    </trkpt>
    <trkpt lat="57.835629014" lon="11.85979804">
      <ele>62.62</ele>
      <time>2013-03-29T09:30:31Z</time>
    </trkpt>
    <trkpt lat="57.835627003" lon="11.859908011">
      <ele>62.14</ele>
      <time>2013-03-29T09:30:36Z</time>
    </trkpt>
    <trkpt lat="57.83566799" lon="11.860055029">
      <ele>61.18</ele>
      <time>2013-03-29T09:30:42Z</time>
    </trkpt>
    <trkpt lat="57.83570596" lon="11.860047989">
      <ele>60.22</ele>
      <time>2013-03-29T09:30:45Z</time>
    </trkpt>
    <trkpt lat="57.835750971" lon="11.860080007">
      <ele>59.74</ele>
      <time>2013-03-29T09:30:47Z</time>
    </trkpt>
    <trkpt lat="57.835837975" lon="11.860148991">
      <ele>57.82</ele>
      <time>2013-03-29T09:30:50Z</time>
    </trkpt>
    <trkpt lat="57.835890027" lon="11.860183021">
      <ele>56.37</ele>
      <time>2013-03-29T09:30:52Z</time>
    </trkpt>
    <trkpt lat="57.835938977" lon="11.860260973">
      <ele>54.93</ele>
      <time>2013-03-29T09:30:55Z</time>
    </trkpt>
    <trkpt lat="57.835977031" lon="11.86028704">
      <ele>54.93</ele>
      <time>2013-03-29T09:30:58Z</time>
    </trkpt>
    <trkpt lat="57.836094964" lon="11.860212022">
      <ele>51.57</ele>
      <time>2013-03-29T09:31:05Z</time>
    </trkpt>
    <trkpt lat="57.836127989" lon="11.860203976">
      <ele>50.61</ele>
      <time>2013-03-29T09:31:07Z</time>
    </trkpt>
    <trkpt lat="57.836151039" lon="11.860139016">
      <ele>51.09</ele>
      <time>2013-03-29T09:31:11Z</time>
    </trkpt>
    <trkpt lat="57.836151039" lon="11.860041032">
      <ele>52.53</ele>
      <time>2013-03-29T09:31:21Z</time>
    </trkpt>
    <trkpt lat="57.836181968" lon="11.860020999">
      <ele>52.05</ele>
      <time>2013-03-29T09:31:33Z</time>
    </trkpt>
    <trkpt lat="57.836186998" lon="11.860003984">
      <ele>51.57</ele>
      <time>2013-03-29T09:31:40Z</time>
    </trkpt>
    <trkpt lat="57.836217005" lon="11.859918991">
      <ele>52.05</ele>
      <time>2013-03-29T09:31:44Z</time>
    </trkpt>
    <trkpt lat="57.836268973" lon="11.859461004">
      <ele>55.41</ele>
      <time>2013-03-29T09:31:54Z</time>
    </trkpt>
    <trkpt lat="57.83625003" lon="11.859147018">
      <ele>55.89</ele>
      <time>2013-03-29T09:32:02Z</time>
    </trkpt>
    <trkpt lat="57.836235026" lon="11.859063031">
      <ele>56.37</ele>
      <time>2013-03-29T09:32:04Z</time>
    </trkpt>
    <trkpt lat="57.836214993" lon="11.858839989">
      <ele>56.37</ele>
      <time>2013-03-29T09:32:10Z</time>
    </trkpt>
    <trkpt lat="57.836330999" lon="11.858550981">
      <ele>53.97</ele>
      <time>2013-03-29T09:32:17Z</time>
    </trkpt>
    <trkpt lat="57.836338961" lon="11.858329028">
      <ele>52.53</ele>
      <time>2013-03-29T09:32:21Z</time>
    </trkpt>
    <trkpt lat="57.836208036" lon="11.858174969">
      <ele>51.09</ele>
      <time>2013-03-29T09:32:25Z</time>
    </trkpt>
    <trkpt lat="57.835984994" lon="11.858038008">
      <ele>53.49</ele>
      <time>2013-03-29T09:32:33Z</time>
    </trkpt>
    <trkpt lat="57.835831018" lon="11.857809015">
      <ele>54.93</ele>
      <time>2013-03-29T09:32:41Z</time>
    </trkpt>
    <trkpt lat="57.835763041" lon="11.857701978">
      <ele>54.93</ele>
      <time>2013-03-29T09:32:44Z</time>
    </trkpt>
    <trkpt lat="57.835725993" lon="11.857653027">
      <ele>54.93</ele>
      <time>2013-03-29T09:32:48Z</time>
    </trkpt>
    <trkpt lat="57.835586015" lon="11.857586978">
      <ele>56.37</ele>
      <time>2013-03-29T09:32:55Z</time>
    </trkpt>
    <trkpt lat="57.83541603" lon="11.857482959">
      <ele>56.37</ele>
      <time>2013-03-29T09:33:02Z</time>
    </trkpt>
    <trkpt lat="57.835274041" lon="11.857383968">
      <ele>56.37</ele>
      <time>2013-03-29T09:33:09Z</time>
    </trkpt>
    <trkpt lat="57.835113024" lon="11.857251031">
      <ele>56.37</ele>
      <time>2013-03-29T09:33:16Z</time>
    </trkpt>
    <trkpt lat="57.835052004" lon="11.85726">
      <ele>56.86</ele>
      <time>2013-03-29T09:33:19Z</time>
    </trkpt>
    <trkpt lat="57.834961982" lon="11.857343987">
      <ele>55.41</ele>
      <time>2013-03-29T09:33:24Z</time>
    </trkpt>
    <trkpt lat="57.834900962" lon="11.857846985">
      <ele>54.93</ele>
      <time>2013-03-29T09:33:32Z</time>
    </trkpt>
    <trkpt lat="57.834913032" lon="11.858102968">
      <ele>56.86</ele>
      <time>2013-03-29T09:33:39Z</time>
    </trkpt>
    <trkpt lat="57.834965" lon="11.858411003">
      <ele>57.82</ele>
      <time>2013-03-29T09:33:49Z</time>
    </trkpt>
    <trkpt lat="57.834965" lon="11.858443022">
      <ele>57.82</ele>
      <time>2013-03-29T09:33:50Z</time>
    </trkpt>
    <trkpt lat="57.83493801" lon="11.858544024">
      <ele>57.82</ele>
      <time>2013-03-29T09:33:53Z</time>
    </trkpt>
    <trkpt lat="57.834929042" lon="11.858614013">
      <ele>58.3</ele>
      <time>2013-03-29T09:33:55Z</time>
    </trkpt>
    <trkpt lat="57.83494899" lon="11.858719038">
      <ele>60.22</ele>
      <time>2013-03-29T09:34:01Z</time>
    </trkpt>
    <trkpt lat="57.835049992" lon="11.858959012">
      <ele>62.62</ele>
      <time>2013-03-29T09:34:11Z</time>
    </trkpt>
    <trkpt lat="57.835083017" lon="11.859024977">
      <ele>62.62</ele>
      <time>2013-03-29T09:34:21Z</time>
    </trkpt>
    <trkpt lat="57.835107995" lon="11.859298982">
      <ele>63.1</ele>
      <time>2013-03-29T09:34:29Z</time>
    </trkpt>
    <trkpt lat="57.835138002" lon="11.859467039">
      <ele>62.62</ele>
      <time>2013-03-29T09:34:39Z</time>
    </trkpt>
    <trkpt lat="57.835136997" lon="11.859465027">
      <ele>63.1</ele>
      <time>2013-03-29T09:35:47Z</time>
    </trkpt>
    <trkpt lat="57.835133979" lon="11.859502997">
      <ele>62.14</ele>
      <time>2013-03-29T09:36:18Z</time>
    </trkpt>
    <trkpt lat="57.83513004" lon="11.859568041">
      <ele>62.62</ele>
      <time>2013-03-29T09:36:21Z</time>
    </trkpt>
    <trkpt lat="57.835136997" lon="11.859621014">
      <ele>62.14</ele>
      <time>2013-03-29T09:36:23Z</time>
    </trkpt>
    <trkpt lat="57.835146971" lon="11.859705001">
      <ele>62.62</ele>
      <time>2013-03-29T09:36:34Z</time>
    </trkpt>
    <trkpt lat="57.835142026" lon="11.859728973">
      <ele>62.62</ele>
      <time>2013-03-29T09:36:42Z</time>
    </trkpt>
    <trkpt lat="57.835085029" lon="11.859933995">
      <ele>62.62</ele>
      <time>2013-03-29T09:36:47Z</time>
    </trkpt>
    <trkpt lat="57.835088968" lon="11.860507987">
      <ele>60.7</ele>
      <time>2013-03-29T09:36:54Z</time>
    </trkpt>
    <trkpt lat="57.835115036" lon="11.860694988">
      <ele>59.26</ele>
      <time>2013-03-29T09:36:57Z</time>
    </trkpt>
    <trkpt lat="57.835196005" lon="11.860799007">
      <ele>57.82</ele>
      <time>2013-03-29T09:37:02Z</time>
    </trkpt>
    <trkpt lat="57.835272029" lon="11.860890035">
      <ele>58.3</ele>
      <time>2013-03-29T09:37:06Z</time>
    </trkpt>
    <trkpt lat="57.835336989" lon="11.860944014">
      <ele>57.34</ele>
      <time>2013-03-29T09:37:08Z</time>
    </trkpt>
    <trkpt lat="57.835621973" lon="11.861230005">
      <ele>53.97</ele>
      <time>2013-03-29T09:37:15Z</time>
    </trkpt>
    <trkpt lat="57.835728005" lon="11.861347016">
      <ele>52.53</ele>
      <time>2013-03-29T09:37:17Z</time>
    </trkpt>
    <trkpt lat="57.835862031" lon="11.861555977">
      <ele>47.72</ele>
      <time>2013-03-29T09:37:21Z</time>
    </trkpt>
    <trkpt lat="57.835780978" lon="11.861734008">
      <ele>44.84</ele>
      <time>2013-03-29T09:37:25Z</time>
    </trkpt>
    <trkpt lat="57.835621973" lon="11.86191204">
      <ele>43.88</ele>
      <time>2013-03-29T09:37:30Z</time>
    </trkpt>
    <trkpt lat="57.835309999" lon="11.861906005">
      <ele>42.92</ele>
      <time>2013-03-29T09:37:37Z</time>
    </trkpt>
    <trkpt lat="57.835231042" lon="11.861864012">
      <ele>42.92</ele>
      <time>2013-03-29T09:37:39Z</time>
    </trkpt>
    <trkpt lat="57.834917977" lon="11.861815983">
      <ele>43.88</ele>
      <time>2013-03-29T09:37:47Z</time>
    </trkpt>
    <trkpt lat="57.834650008" lon="11.861741971">
      <ele>46.28</ele>
      <time>2013-03-29T09:37:57Z</time>
    </trkpt>
    <trkpt lat="57.83432303" lon="11.861655973">
      <ele>45.32</ele>
      <time>2013-03-29T09:38:06Z</time>
    </trkpt>
    <trkpt lat="57.834284976" lon="11.86164801">
      <ele>45.32</ele>
      <time>2013-03-29T09:38:07Z</time>
    </trkpt>
    <trkpt lat="57.834253041" lon="11.861608028">
      <ele>45.32</ele>
      <time>2013-03-29T09:38:08Z</time>
    </trkpt>
    <trkpt lat="57.834229991" lon="11.861544997">
      <ele>44.84</ele>
      <time>2013-03-29T09:38:09Z</time>
    </trkpt>
    <trkpt lat="57.834207024" lon="11.86147199">
      <ele>43.88</ele>
      <time>2013-03-29T09:38:10Z</time>
    </trkpt>
    <trkpt lat="57.834179029" lon="11.861396972">
      <ele>43.88</ele>
      <time>2013-03-29T09:38:11Z</time>
    </trkpt>
    <trkpt lat="57.834144998" lon="11.861326983">
      <ele>44.36</ele>
      <time>2013-03-29T09:38:12Z</time>
    </trkpt>
    <trkpt lat="57.834106022" lon="11.861254983">
      <ele>43.4</ele>
      <time>2013-03-29T09:38:13Z</time>
    </trkpt>
    <trkpt lat="57.833977025" lon="11.86101702">
      <ele>42.92</ele>
      <time>2013-03-29T09:38:16Z</time>
    </trkpt>
    <trkpt lat="57.833939977" lon="11.860916018">
      <ele>43.4</ele>
      <time>2013-03-29T09:38:17Z</time>
    </trkpt>
    <trkpt lat="57.83390603" lon="11.860800013">
      <ele>42.44</ele>
      <time>2013-03-29T09:38:18Z</time>
    </trkpt>
    <trkpt lat="57.833877029" lon="11.860673027">
      <ele>41.47</ele>
      <time>2013-03-29T09:38:19Z</time>
    </trkpt>
    <trkpt lat="57.833856996" lon="11.860535983">
      <ele>40.99</ele>
      <time>2013-03-29T09:38:20Z</time>
    </trkpt>
    <trkpt lat="57.83384501" lon="11.860390976">
      <ele>40.51</ele>
      <time>2013-03-29T09:38:21Z</time>
    </trkpt>
    <trkpt lat="57.833839981" lon="11.860245969">
      <ele>40.03</ele>
      <time>2013-03-29T09:38:22Z</time>
    </trkpt>
    <trkpt lat="57.833840987" lon="11.860101968">
      <ele>40.51</ele>
      <time>2013-03-29T09:38:23Z</time>
    </trkpt>
    <trkpt lat="57.833849033" lon="11.859964002">
      <ele>39.55</ele>
      <time>2013-03-29T09:38:24Z</time>
    </trkpt>
    <trkpt lat="57.833861019" lon="11.859831987">
      <ele>39.55</ele>
      <time>2013-03-29T09:38:25Z</time>
    </trkpt>
    <trkpt lat="57.834011978" lon="11.858825991">
      <ele>40.51</ele>
      <time>2013-03-29T09:38:34Z</time>
    </trkpt>
    <trkpt lat="57.834094036" lon="11.858344031">
      <ele>40.99</ele>
      <time>2013-03-29T09:38:39Z</time>
    </trkpt>
    <trkpt lat="57.834195038" lon="11.857702984">
      <ele>40.51</ele>
      <time>2013-03-29T09:38:46Z</time>
    </trkpt>
    <trkpt lat="57.834197972" lon="11.857421016">
      <ele>41.47</ele>
      <time>2013-03-29T09:48:33Z</time>
    </trkpt>
    <trkpt lat="57.834191015" lon="11.857301993">
      <ele>41.47</ele>
      <time>2013-03-29T09:48:35Z</time>
    </trkpt>
    <trkpt lat="57.834118009" lon="11.85720996">
      <ele>42.44</ele>
      <time>2013-03-29T09:48:39Z</time>
    </trkpt>
    <trkpt lat="57.83399798" lon="11.857166039">
      <ele>42.92</ele>
      <time>2013-03-29T09:48:42Z</time>
    </trkpt>
    <trkpt lat="57.833948024" lon="11.857162016">
      <ele>43.4</ele>
      <time>2013-03-29T09:48:43Z</time>
    </trkpt>
    <trkpt lat="57.833898989" lon="11.857167967">
      <ele>42.92</ele>
      <time>2013-03-29T09:48:44Z</time>
    </trkpt>
    <trkpt lat="57.833778039" lon="11.857210966">
      <ele>43.88</ele>
      <time>2013-03-29T09:48:47Z</time>
    </trkpt>
    <trkpt lat="57.833674019" lon="11.857296964">
      <ele>44.84</ele>
      <time>2013-03-29T09:48:52Z</time>
    </trkpt>
    <trkpt lat="57.833629008" lon="11.857109042">
      <ele>46.28</ele>
      <time>2013-03-29T09:48:57Z</time>
    </trkpt>
    <trkpt lat="57.833595984" lon="11.857004017">
      <ele>46.76</ele>
      <time>2013-03-29T09:49:01Z</time>
    </trkpt>
    <trkpt lat="57.833577041" lon="11.856953977">
      <ele>48.2</ele>
      <time>2013-03-29T09:49:03Z</time>
    </trkpt>
    <trkpt lat="57.833536975" lon="11.856892034">
      <ele>48.68</ele>
      <time>2013-03-29T09:49:13Z</time>
    </trkpt>
    <trkpt lat="57.833477966" lon="11.856822968">
      <ele>49.16</ele>
      <time>2013-03-29T09:49:17Z</time>
    </trkpt>
    <trkpt lat="57.833437985" lon="11.856749039">
      <ele>49.65</ele>
      <time>2013-03-29T09:49:20Z</time>
    </trkpt>
    <trkpt lat="57.833323991" lon="11.856620964">
      <ele>52.05</ele>
      <time>2013-03-29T09:49:27Z</time>
    </trkpt>
    <trkpt lat="57.833199017" lon="11.856399011">
      <ele>53.49</ele>
      <time>2013-03-29T09:49:37Z</time>
    </trkpt>
    <trkpt lat="57.833069013" lon="11.856306978">
      <ele>54.45</ele>
      <time>2013-03-29T09:49:45Z</time>
    </trkpt>
    <trkpt lat="57.832935993" lon="11.856206981">
      <ele>55.89</ele>
      <time>2013-03-29T09:49:55Z</time>
    </trkpt>
    <trkpt lat="57.832818981" lon="11.856174041">
      <ele>56.86</ele>
      <time>2013-03-29T09:50:05Z</time>
    </trkpt>
    <trkpt lat="57.832643967" lon="11.856058035">
      <ele>55.89</ele>
      <time>2013-03-29T09:50:12Z</time>
    </trkpt>
    <trkpt lat="57.832603985" lon="11.85604102">
      <ele>56.37</ele>
      <time>2013-03-29T09:50:15Z</time>
    </trkpt>
    <trkpt lat="57.832533997" lon="11.855884027">
      <ele>56.86</ele>
      <time>2013-03-29T09:50:22Z</time>
    </trkpt>
    <trkpt lat="57.832426038" lon="11.855722005">
      <ele>58.3</ele>
      <time>2013-03-29T09:50:31Z</time>
    </trkpt>
    <trkpt lat="57.832417991" lon="11.855691997">
      <ele>58.3</ele>
      <time>2013-03-29T09:50:32Z</time>
    </trkpt>
    <trkpt lat="57.832389995" lon="11.855582027">
      <ele>59.74</ele>
      <time>2013-03-29T09:50:36Z</time>
    </trkpt>
    <trkpt lat="57.832370969" lon="11.855571968">
      <ele>60.7</ele>
      <time>2013-03-29T09:50:38Z</time>
    </trkpt>
    <trkpt lat="57.832357977" lon="11.855571968">
      <ele>61.18</ele>
      <time>2013-03-29T09:50:39Z</time>
    </trkpt>
    <trkpt lat="57.832330987" lon="11.855553025">
      <ele>62.14</ele>
      <time>2013-03-29T09:50:41Z</time>
    </trkpt>
    <trkpt lat="57.832196038" lon="11.855449006">
      <ele>62.62</ele>
      <time>2013-03-29T09:50:52Z</time>
    </trkpt>
    <trkpt lat="57.832157984" lon="11.855422016">
      <ele>61.66</ele>
      <time>2013-03-29T09:51:08Z</time>
    </trkpt>
    <trkpt lat="57.832145998" lon="11.855389997">
      <ele>62.62</ele>
      <time>2013-03-29T09:51:24Z</time>
    </trkpt>
    <trkpt lat="57.832099982" lon="11.855116999">
      <ele>64.07</ele>
      <time>2013-03-29T09:51:34Z</time>
    </trkpt>
    <trkpt lat="57.832082966" lon="11.854906026">
      <ele>64.07</ele>
      <time>2013-03-29T09:51:39Z</time>
    </trkpt>
    <trkpt lat="57.832034016" lon="11.854759008">
      <ele>64.07</ele>
      <time>2013-03-29T09:51:43Z</time>
    </trkpt>
    <trkpt lat="57.831958998" lon="11.854692958">
      <ele>64.55</ele>
      <time>2013-03-29T09:51:47Z</time>
    </trkpt>
    <trkpt lat="57.831732016" lon="11.854852969">
      <ele>62.62</ele>
      <time>2013-03-29T09:51:56Z</time>
    </trkpt>
    <trkpt lat="57.831627997" lon="11.854986995">
      <ele>63.1</ele>
      <time>2013-03-29T09:52:04Z</time>
    </trkpt>
    <trkpt lat="57.831620034" lon="11.855005017">
      <ele>62.62</ele>
      <time>2013-03-29T09:52:05Z</time>
    </trkpt>
    <trkpt lat="57.831463963" lon="11.854982972">
      <ele>64.07</ele>
      <time>2013-03-29T09:52:12Z</time>
    </trkpt>
    <trkpt lat="57.831314011" lon="11.854910972">
      <ele>65.51</ele>
      <time>2013-03-29T09:52:19Z</time>
    </trkpt>
    <trkpt lat="57.831195993" lon="11.854900997">
      <ele>65.99</ele>
      <time>2013-03-29T09:52:28Z</time>
    </trkpt>
    <trkpt lat="57.831017962" lon="11.85475599">
      <ele>65.03</ele>
      <time>2013-03-29T09:52:36Z</time>
    </trkpt>
    <trkpt lat="57.830801038" lon="11.854716009">
      <ele>65.03</ele>
      <time>2013-03-29T09:52:43Z</time>
    </trkpt>
    <trkpt lat="57.830529967" lon="11.854727995">
      <ele>63.1</ele>
      <time>2013-03-29T09:52:50Z</time>
    </trkpt>
    <trkpt lat="57.830350008" lon="11.854726989">
      <ele>61.66</ele>
      <time>2013-03-29T09:52:55Z</time>
    </trkpt>
    <trkpt lat="57.830273984" lon="11.854674015">
      <ele>61.18</ele>
      <time>2013-03-29T09:52:57Z</time>
    </trkpt>
    <trkpt lat="57.830115985" lon="11.854586005">
      <ele>61.18</ele>
      <time>2013-03-29T09:53:01Z</time>
    </trkpt>
    <trkpt lat="57.829975002" lon="11.854520962">
      <ele>59.26</ele>
      <time>2013-03-29T09:53:04Z</time>
    </trkpt>
    <trkpt lat="57.829750031" lon="11.854407974">
      <ele>58.78</ele>
      <time>2013-03-29T09:53:08Z</time>
    </trkpt>
    <trkpt lat="57.829578035" lon="11.854335973">
      <ele>59.26</ele>
      <time>2013-03-29T09:53:12Z</time>
    </trkpt>
    <trkpt lat="57.829464041" lon="11.854314012">
      <ele>59.74</ele>
      <time>2013-03-29T09:53:17Z</time>
    </trkpt>
    <trkpt lat="57.829376031" lon="11.854409985">
      <ele>60.22</ele>
      <time>2013-03-29T09:53:21Z</time>
    </trkpt>
    <trkpt lat="57.829306042" lon="11.854401017">
      <ele>58.78</ele>
      <time>2013-03-29T09:53:25Z</time>
    </trkpt>
    <trkpt lat="57.829288021" lon="11.854387019">
      <ele>59.26</ele>
      <time>2013-03-29T09:53:26Z</time>
    </trkpt>
    <trkpt lat="57.829205962" lon="11.85441602">
      <ele>60.22</ele>
      <time>2013-03-29T09:53:29Z</time>
    </trkpt>
    <trkpt lat="57.829113007" lon="11.854611989">
      <ele>59.26</ele>
      <time>2013-03-29T09:53:34Z</time>
    </trkpt>
    <trkpt lat="57.829069002" lon="11.854702011">
      <ele>59.74</ele>
      <time>2013-03-29T09:53:36Z</time>
    </trkpt>
    <trkpt lat="57.829037989" lon="11.854830002">
      <ele>58.78</ele>
      <time>2013-03-29T09:53:38Z</time>
    </trkpt>
    <trkpt lat="57.828921983" lon="11.855230993">
      <ele>58.78</ele>
      <time>2013-03-29T09:53:44Z</time>
    </trkpt>
    <trkpt lat="57.828823999" lon="11.855680011">
      <ele>57.82</ele>
      <time>2013-03-29T09:53:50Z</time>
    </trkpt>
    <trkpt lat="57.828749986" lon="11.856092988">
      <ele>57.82</ele>
      <time>2013-03-29T09:53:56Z</time>
    </trkpt>
    <trkpt lat="57.828679997" lon="11.856252998">
      <ele>57.34</ele>
      <time>2013-03-29T09:53:59Z</time>
    </trkpt>
    <trkpt lat="57.828534991" lon="11.856938973">
      <ele>58.78</ele>
      <time>2013-03-29T09:54:08Z</time>
    </trkpt>
    <trkpt lat="57.828529961" lon="11.857100995">
      <ele>57.82</ele>
      <time>2013-03-29T09:54:10Z</time>
    </trkpt>
    <trkpt lat="57.82848998" lon="11.857315991">
      <ele>58.3</ele>
      <time>2013-03-29T09:54:13Z</time>
    </trkpt>
    <trkpt lat="57.828383027" lon="11.857749">
      <ele>57.34</ele>
      <time>2013-03-29T09:54:20Z</time>
    </trkpt>
    <trkpt lat="57.828396019" lon="11.857822007">
      <ele>56.86</ele>
      <time>2013-03-29T09:54:21Z</time>
    </trkpt>
    <trkpt lat="57.82832603" lon="11.858045971">
      <ele>55.41</ele>
      <time>2013-03-29T09:54:25Z</time>
    </trkpt>
    <trkpt lat="57.828206001" lon="11.858202964">
      <ele>54.45</ele>
      <time>2013-03-29T09:54:28Z</time>
    </trkpt>
    <trkpt lat="57.828170964" lon="11.85855601">
      <ele>53.49</ele>
      <time>2013-03-29T09:54:33Z</time>
    </trkpt>
    <trkpt lat="57.828149004" lon="11.85879196">
      <ele>52.05</ele>
      <time>2013-03-29T09:54:36Z</time>
    </trkpt>
    <trkpt lat="57.828129977" lon="11.858854992">
      <ele>50.61</ele>
      <time>2013-03-29T09:54:37Z</time>
    </trkpt>
    <trkpt lat="57.828050014" lon="11.859017015">
      <ele>49.16</ele>
      <time>2013-03-29T09:54:40Z</time>
    </trkpt>
    <trkpt lat="57.827894026" lon="11.859277021">
      <ele>47.72</ele>
      <time>2013-03-29T09:54:44Z</time>
    </trkpt>
    <trkpt lat="57.827849016" lon="11.859348016">
      <ele>47.24</ele>
      <time>2013-03-29T09:54:45Z</time>
    </trkpt>
    <trkpt lat="57.827744996" lon="11.859619003">
      <ele>45.8</ele>
      <time>2013-03-29T09:54:48Z</time>
    </trkpt>
    <trkpt lat="57.827654975" lon="11.859991997">
      <ele>42.44</ele>
      <time>2013-03-29T09:54:52Z</time>
    </trkpt>
    <trkpt lat="57.827606024" lon="11.860262984">
      <ele>40.03</ele>
      <time>2013-03-29T09:54:55Z</time>
    </trkpt>
    <trkpt lat="57.827541986" lon="11.860515028">
      <ele>39.07</ele>
      <time>2013-03-29T09:54:58Z</time>
    </trkpt>
    <trkpt lat="57.827440985" lon="11.860678978">
      <ele>37.15</ele>
      <time>2013-03-29T09:55:01Z</time>
    </trkpt>
    <trkpt lat="57.827409972" lon="11.860776963">
      <ele>37.63</ele>
      <time>2013-03-29T09:55:07Z</time>
    </trkpt>
    <trkpt lat="57.827409972" lon="11.860776963">
      <ele>38.59</ele>
      <time>2013-03-29T09:55:29Z</time>
    </trkpt>
    <trkpt lat="57.82740796" lon="11.86079599">
      <ele>39.07</ele>
      <time>2013-03-29T09:55:57Z</time>
    </trkpt>
    <trkpt lat="57.827274017" lon="11.86062701">
      <ele>39.55</ele>
      <time>2013-03-29T09:56:04Z</time>
    </trkpt>
    <trkpt lat="57.826850982" lon="11.860178998">
      <ele>38.11</ele>
      <time>2013-03-29T09:56:13Z</time>
    </trkpt>
    <trkpt lat="57.826429959" lon="11.859743977">
      <ele>38.59</ele>
      <time>2013-03-29T09:56:21Z</time>
    </trkpt>
    <trkpt lat="57.826038022" lon="11.859265035">
      <ele>37.63</ele>
      <time>2013-03-29T09:56:29Z</time>
    </trkpt>
    <trkpt lat="57.825597972" lon="11.858633962">
      <ele>38.11</ele>
      <time>2013-03-29T09:56:38Z</time>
    </trkpt>
    <trkpt lat="57.825543992" lon="11.858569002">
      <ele>38.11</ele>
      <time>2013-03-29T09:56:39Z</time>
    </trkpt>
    <trkpt lat="57.825489007" lon="11.858492978">
      <ele>38.11</ele>
      <time>2013-03-29T09:56:40Z</time>
    </trkpt>
    <trkpt lat="57.825069996" lon="11.857651016">
      <ele>36.67</ele>
      <time>2013-03-29T09:56:48Z</time>
    </trkpt>
    <trkpt lat="57.824847037" lon="11.857219012">
      <ele>36.19</ele>
      <time>2013-03-29T09:56:52Z</time>
    </trkpt>
    <trkpt lat="57.824588036" lon="11.856936039">
      <ele>34.74</ele>
      <time>2013-03-29T09:56:56Z</time>
    </trkpt>
    <trkpt lat="57.824516036" lon="11.856899997">
      <ele>34.26</ele>
      <time>2013-03-29T09:56:57Z</time>
    </trkpt>
    <trkpt lat="57.824444035" lon="11.856881976">
      <ele>34.26</ele>
      <time>2013-03-29T09:56:58Z</time>
    </trkpt>
    <trkpt lat="57.824370023" lon="11.856876025">
      <ele>34.74</ele>
      <time>2013-03-29T09:56:59Z</time>
    </trkpt>
    <trkpt lat="57.824295005" lon="11.856876025">
      <ele>34.26</ele>
      <time>2013-03-29T09:57:00Z</time>
    </trkpt>
    <trkpt lat="57.82410197" lon="11.856853981">
      <ele>35.23</ele>
      <time>2013-03-29T09:57:03Z</time>
    </trkpt>
    <trkpt lat="57.824043967" lon="11.856826991">
      <ele>34.74</ele>
      <time>2013-03-29T09:57:04Z</time>
    </trkpt>
    <trkpt lat="57.823984958" lon="11.856793966">
      <ele>34.26</ele>
      <time>2013-03-29T09:57:05Z</time>
    </trkpt>
    <trkpt lat="57.823444996" lon="11.856334973">
      <ele>33.3</ele>
      <time>2013-03-29T09:57:14Z</time>
    </trkpt>
    <trkpt lat="57.823377019" lon="11.856301026">
      <ele>32.82</ele>
      <time>2013-03-29T09:57:15Z</time>
    </trkpt>
    <trkpt lat="57.823302001" lon="11.856280994">
      <ele>32.82</ele>
      <time>2013-03-29T09:57:16Z</time>
    </trkpt>
    <trkpt lat="57.823222959" lon="11.856286023">
      <ele>33.3</ele>
      <time>2013-03-29T09:57:17Z</time>
    </trkpt>
    <trkpt lat="57.823145008" lon="11.856318042">
      <ele>31.86</ele>
      <time>2013-03-29T09:57:18Z</time>
    </trkpt>
    <trkpt lat="57.823067978" lon="11.856366992">
      <ele>31.86</ele>
      <time>2013-03-29T09:57:19Z</time>
    </trkpt>
    <trkpt lat="57.822994972" lon="11.856421977">
      <ele>31.38</ele>
      <time>2013-03-29T09:57:20Z</time>
    </trkpt>
    <trkpt lat="57.822570009" lon="11.856718026">
      <ele>31.86</ele>
      <time>2013-03-29T09:57:26Z</time>
    </trkpt>
    <trkpt lat="57.822514018" lon="11.856796984">
      <ele>31.38</ele>
      <time>2013-03-29T09:57:27Z</time>
    </trkpt>
    <trkpt lat="57.82247697" lon="11.856899997">
      <ele>29.46</ele>
      <time>2013-03-29T09:57:28Z</time>
    </trkpt>
    <trkpt lat="57.822458027" lon="11.85700804">
      <ele>30.42</ele>
      <time>2013-03-29T09:57:29Z</time>
    </trkpt>
    <trkpt lat="57.822446041" lon="11.857117005">
      <ele>29.94</ele>
      <time>2013-03-29T09:57:30Z</time>
    </trkpt>
    <trkpt lat="57.822435983" lon="11.85723301">
      <ele>29.94</ele>
      <time>2013-03-29T09:57:31Z</time>
    </trkpt>
    <trkpt lat="57.822334981" lon="11.858270019">
      <ele>29.94</ele>
      <time>2013-03-29T09:57:40Z</time>
    </trkpt>
    <trkpt lat="57.822329029" lon="11.858508987">
      <ele>30.42</ele>
      <time>2013-03-29T09:57:42Z</time>
    </trkpt>
    <trkpt lat="57.822314026" lon="11.858738987">
      <ele>28.98</ele>
      <time>2013-03-29T09:57:44Z</time>
    </trkpt>
    <trkpt lat="57.822304973" lon="11.858849041">
      <ele>28.98</ele>
      <time>2013-03-29T09:57:45Z</time>
    </trkpt>
    <trkpt lat="57.822170025" lon="11.860017981">
      <ele>28.02</ele>
      <time>2013-03-29T09:57:56Z</time>
    </trkpt>
    <trkpt lat="57.822060976" lon="11.86049399">
      <ele>28.02</ele>
      <time>2013-03-29T09:58:01Z</time>
    </trkpt>
    <trkpt lat="57.821943965" lon="11.860822979">
      <ele>27.05</ele>
      <time>2013-03-29T09:58:05Z</time>
    </trkpt>
    <trkpt lat="57.821857966" lon="11.86108198">
      <ele>27.05</ele>
      <time>2013-03-29T09:58:08Z</time>
    </trkpt>
    <trkpt lat="57.821779009" lon="11.861418011">
      <ele>27.05</ele>
      <time>2013-03-29T09:58:12Z</time>
    </trkpt>
    <trkpt lat="57.821745984" lon="11.861472996">
      <ele>26.57</ele>
      <time>2013-03-29T09:58:13Z</time>
    </trkpt>
    <trkpt lat="57.821704997" lon="11.861500992">
      <ele>27.05</ele>
      <time>2013-03-29T09:58:14Z</time>
    </trkpt>
    <trkpt lat="57.821656968" lon="11.861497974">
      <ele>27.05</ele>
      <time>2013-03-29T09:58:15Z</time>
    </trkpt>
    <trkpt lat="57.821606006" lon="11.861480037">
      <ele>26.09</ele>
      <time>2013-03-29T09:58:16Z</time>
    </trkpt>
    <trkpt lat="57.82143401" lon="11.86141097">
      <ele>24.65</ele>
      <time>2013-03-29T09:58:19Z</time>
    </trkpt>
    <trkpt lat="57.820714004" lon="11.861150041">
      <ele>22.25</ele>
      <time>2013-03-29T09:58:31Z</time>
    </trkpt>
    <trkpt lat="57.820597999" lon="11.86110897">
      <ele>21.29</ele>
      <time>2013-03-29T09:58:33Z</time>
    </trkpt>
    <trkpt lat="57.820452992" lon="11.861079969">
      <ele>20.81</ele>
      <time>2013-03-29T09:58:36Z</time>
    </trkpt>
    <trkpt lat="57.820410999" lon="11.861095978">
      <ele>20.81</ele>
      <time>2013-03-29T09:58:37Z</time>
    </trkpt>
    <trkpt lat="57.820376968" lon="11.861141995">
      <ele>20.32</ele>
      <time>2013-03-29T09:58:38Z</time>
    </trkpt>
    <trkpt lat="57.820357019" lon="11.861213995">
      <ele>20.32</ele>
      <time>2013-03-29T09:58:39Z</time>
    </trkpt>
    <trkpt lat="57.820347967" lon="11.861305023">
      <ele>20.81</ele>
      <time>2013-03-29T09:58:40Z</time>
    </trkpt>
    <trkpt lat="57.820347967" lon="11.861402001">
      <ele>20.81</ele>
      <time>2013-03-29T09:58:41Z</time>
    </trkpt>
    <trkpt lat="57.820348972" lon="11.861500992">
      <ele>21.77</ele>
      <time>2013-03-29T09:58:42Z</time>
    </trkpt>
    <trkpt lat="57.820347967" lon="11.861959985">
      <ele>22.73</ele>
      <time>2013-03-29T09:58:47Z</time>
    </trkpt>
    <trkpt lat="57.820346039" lon="11.86203802">
      <ele>21.29</ele>
      <time>2013-03-29T09:58:48Z</time>
    </trkpt>
    <trkpt lat="57.820346961" lon="11.862191996">
      <ele>21.29</ele>
      <time>2013-03-29T09:58:50Z</time>
    </trkpt>
    <trkpt lat="57.820346039" lon="11.862268019">
      <ele>21.29</ele>
      <time>2013-03-29T09:58:51Z</time>
    </trkpt>
    <trkpt lat="57.820277978" lon="11.863450035">
      <ele>21.77</ele>
      <time>2013-03-29T09:59:06Z</time>
    </trkpt>
    <trkpt lat="57.820149986" lon="11.864441028">
      <ele>20.81</ele>
      <time>2013-03-29T09:59:18Z</time>
    </trkpt>
    <trkpt lat="57.819975978" lon="11.865047961">
      <ele>20.81</ele>
      <time>2013-03-29T09:59:28Z</time>
    </trkpt>
    <trkpt lat="57.819800964" lon="11.864961041">
      <ele>17.92</ele>
      <time>2013-03-29T10:10:26Z</time>
    </trkpt>
    <trkpt lat="57.819800964" lon="11.864961041">
      <ele>17.44</ele>
      <time>2013-03-29T10:10:38Z</time>
    </trkpt>
    <trkpt lat="57.819594014" lon="11.864932962">
      <ele>17.92</ele>
      <time>2013-03-29T10:10:46Z</time>
    </trkpt>
    <trkpt lat="57.819510028" lon="11.864914019">
      <ele>16.48</ele>
      <time>2013-03-29T10:10:48Z</time>
    </trkpt>
    <trkpt lat="57.819128986" lon="11.864801031">
      <ele>16.48</ele>
      <time>2013-03-29T10:10:59Z</time>
    </trkpt>
    <trkpt lat="57.818873003" lon="11.864724001">
      <ele>17.44</ele>
      <time>2013-03-29T10:11:06Z</time>
    </trkpt>
    <trkpt lat="57.81842499" lon="11.864586035">
      <ele>16.48</ele>
      <time>2013-03-29T10:11:19Z</time>
    </trkpt>
    <trkpt lat="57.81816096" lon="11.864487967">
      <ele>16.48</ele>
      <time>2013-03-29T10:11:27Z</time>
    </trkpt>
    <trkpt lat="57.818058031" lon="11.86443801">
      <ele>17.92</ele>
      <time>2013-03-29T10:11:33Z</time>
    </trkpt>
    <trkpt lat="57.818030035" lon="11.864490984">
      <ele>17.44</ele>
      <time>2013-03-29T10:11:36Z</time>
    </trkpt>
    <trkpt lat="57.818043027" lon="11.864607995">
      <ele>18.4</ele>
      <time>2013-03-29T10:11:41Z</time>
    </trkpt>
    <trkpt lat="57.818105975" lon="11.864823997">
      <ele>18.4</ele>
      <time>2013-03-29T10:11:47Z</time>
    </trkpt>
    <trkpt lat="57.818150986" lon="11.865137983">
      <ele>16.96</ele>
      <time>2013-03-29T10:11:54Z</time>
    </trkpt>
    <trkpt lat="57.818140006" lon="11.865235968">
      <ele>17.92</ele>
      <time>2013-03-29T10:11:56Z</time>
    </trkpt>
    <trkpt lat="57.818042021" lon="11.865527993">
      <ele>16.0</ele>
      <time>2013-03-29T10:12:04Z</time>
    </trkpt>
    <trkpt lat="57.817948982" lon="11.865724968">
      <ele>16.48</ele>
      <time>2013-03-29T10:12:10Z</time>
    </trkpt>
    <trkpt lat="57.817740021" lon="11.865843991">
      <ele>16.48</ele>
      <time>2013-03-29T10:12:20Z</time>
    </trkpt>
    <trkpt lat="57.817651005" lon="11.865953961">
      <ele>16.96</ele>
      <time>2013-03-29T10:12:24Z</time>
    </trkpt>
    <trkpt lat="57.817556038" lon="11.865944993">
      <ele>17.92</ele>
      <time>2013-03-29T10:12:28Z</time>
    </trkpt>
    <trkpt lat="57.817367027" lon="11.865967959">
      <ele>18.4</ele>
      <time>2013-03-29T10:12:37Z</time>
    </trkpt>
    <trkpt lat="57.817217996" lon="11.865971982">
      <ele>20.32</ele>
      <time>2013-03-29T10:12:46Z</time>
    </trkpt>
    <trkpt lat="57.817152031" lon="11.866042977">
      <ele>21.29</ele>
      <time>2013-03-29T10:12:51Z</time>
    </trkpt>
    <trkpt lat="57.817184972" lon="11.866296027">
      <ele>20.32</ele>
      <time>2013-03-29T10:12:58Z</time>
    </trkpt>
    <trkpt lat="57.81718296" lon="11.866312036">
      <ele>19.36</ele>
      <time>2013-03-29T10:12:59Z</time>
    </trkpt>
    <trkpt lat="57.817034014" lon="11.866455032">
      <ele>18.4</ele>
      <time>2013-03-29T10:13:06Z</time>
    </trkpt>
    <trkpt lat="57.816824969" lon="11.866431981">
      <ele>18.4</ele>
      <time>2013-03-29T10:13:14Z</time>
    </trkpt>
    <trkpt lat="57.816728996" lon="11.866403986">
      <ele>18.4</ele>
      <time>2013-03-29T10:13:18Z</time>
    </trkpt>
    <trkpt lat="57.816685997" lon="11.866383031">
      <ele>19.84</ele>
      <time>2013-03-29T10:13:27Z</time>
    </trkpt>
    <trkpt lat="57.816685997" lon="11.866383031">
      <ele>18.4</ele>
      <time>2013-03-29T10:13:30Z</time>
    </trkpt>
    <trkpt lat="57.816621959" lon="11.866253028">
      <ele>19.84</ele>
      <time>2013-03-29T10:13:38Z</time>
    </trkpt>
    <trkpt lat="57.816613996" lon="11.866189996">
      <ele>19.84</ele>
      <time>2013-03-29T10:13:41Z</time>
    </trkpt>
    <trkpt lat="57.816532021" lon="11.865639975">
      <ele>19.36</ele>
      <time>2013-03-29T10:13:51Z</time>
    </trkpt>
    <trkpt lat="57.816429008" lon="11.86519498">
      <ele>16.96</ele>
      <time>2013-03-29T10:13:58Z</time>
    </trkpt>
    <trkpt lat="57.816401012" lon="11.865080986">
      <ele>17.44</ele>
      <time>2013-03-29T10:14:09Z</time>
    </trkpt>
    <trkpt lat="57.816319959" lon="11.864649989">
      <ele>17.44</ele>
      <time>2013-03-29T10:14:18Z</time>
    </trkpt>
    <trkpt lat="57.816325994" lon="11.864549993">
      <ele>17.92</ele>
      <time>2013-03-29T10:14:22Z</time>
    </trkpt>
    <trkpt lat="57.816304034" lon="11.864419989">
      <ele>18.4</ele>
      <time>2013-03-29T10:14:27Z</time>
    </trkpt>
    <trkpt lat="57.816275032" lon="11.864259979">
      <ele>18.4</ele>
      <time>2013-03-29T10:14:32Z</time>
    </trkpt>
    <trkpt lat="57.816185011" lon="11.863754969">
      <ele>17.92</ele>
      <time>2013-03-29T10:14:42Z</time>
    </trkpt>
    <trkpt lat="57.81610203" lon="11.863218024">
      <ele>18.4</ele>
      <time>2013-03-29T10:14:50Z</time>
    </trkpt>
    <trkpt lat="57.815982001" lon="11.862975033">
      <ele>19.36</ele>
      <time>2013-03-29T10:14:57Z</time>
    </trkpt>
    <trkpt lat="57.815941013" lon="11.862836983">
      <ele>18.88</ele>
      <time>2013-03-29T10:15:00Z</time>
    </trkpt>
    <trkpt lat="57.815757031" lon="11.862699017">
      <ele>19.36</ele>
      <time>2013-03-29T10:15:07Z</time>
    </trkpt>
    <trkpt lat="57.81538303" lon="11.862798007">
      <ele>19.36</ele>
      <time>2013-03-29T10:15:15Z</time>
    </trkpt>
    <trkpt lat="57.815189995" lon="11.862921976">
      <ele>21.77</ele>
      <time>2013-03-29T10:15:24Z</time>
    </trkpt>
    <trkpt lat="57.815079018" lon="11.863136971">
      <ele>22.73</ele>
      <time>2013-03-29T10:15:33Z</time>
    </trkpt>
    <trkpt lat="57.815042976" lon="11.863278039">
      <ele>22.25</ele>
      <time>2013-03-29T10:15:37Z</time>
    </trkpt>
    <trkpt lat="57.815013975" lon="11.863500997">
      <ele>23.21</ele>
      <time>2013-03-29T10:15:43Z</time>
    </trkpt>
    <trkpt lat="57.814988997" lon="11.863417011">
      <ele>23.21</ele>
      <time>2013-03-29T10:15:48Z</time>
    </trkpt>
    <trkpt lat="57.814952033" lon="11.863253983">
      <ele>21.77</ele>
      <time>2013-03-29T10:15:55Z</time>
    </trkpt>
    <trkpt lat="57.81490501" lon="11.863157004">
      <ele>21.77</ele>
      <time>2013-03-29T10:16:03Z</time>
    </trkpt>
    <trkpt lat="57.814761009" lon="11.863009986">
      <ele>21.77</ele>
      <time>2013-03-29T10:16:12Z</time>
    </trkpt>
    <trkpt lat="57.814719016" lon="11.862995988">
      <ele>22.73</ele>
      <time>2013-03-29T10:16:14Z</time>
    </trkpt>
    <trkpt lat="57.81468004" lon="11.862973021">
      <ele>22.73</ele>
      <time>2013-03-29T10:16:16Z</time>
    </trkpt>
    <trkpt lat="57.814627988" lon="11.86300504">
      <ele>22.73</ele>
      <time>2013-03-29T10:16:20Z</time>
    </trkpt>
    <trkpt lat="57.814429002" lon="11.863119034">
      <ele>23.21</ele>
      <time>2013-03-29T10:16:25Z</time>
    </trkpt>
    <trkpt lat="57.814193973" lon="11.86340997">
      <ele>22.25</ele>
      <time>2013-03-29T10:16:33Z</time>
    </trkpt>
    <trkpt lat="57.814171007" lon="11.863469984">
      <ele>22.73</ele>
      <time>2013-03-29T10:16:34Z</time>
    </trkpt>
    <trkpt lat="57.814119039" lon="11.863582972">
      <ele>21.77</ele>
      <time>2013-03-29T10:16:36Z</time>
    </trkpt>
    <trkpt lat="57.814089032" lon="11.863654973">
      <ele>19.84</ele>
      <time>2013-03-29T10:16:38Z</time>
    </trkpt>
    <trkpt lat="57.813921981" lon="11.863820013">
      <ele>18.88</ele>
      <time>2013-03-29T10:16:46Z</time>
    </trkpt>
    <trkpt lat="57.813815027" lon="11.863864018">
      <ele>18.88</ele>
      <time>2013-03-29T10:16:55Z</time>
    </trkpt>
    <trkpt lat="57.813706985" lon="11.863996033">
      <ele>17.44</ele>
      <time>2013-03-29T10:17:07Z</time>
    </trkpt>
    <trkpt lat="57.813675972" lon="11.864014976">
      <ele>18.4</ele>
      <time>2013-03-29T10:17:11Z</time>
    </trkpt>
    <trkpt lat="57.813564995" lon="11.864133999">
      <ele>18.88</ele>
      <time>2013-03-29T10:17:16Z</time>
    </trkpt>
    <trkpt lat="57.813425018" lon="11.864186972">
      <ele>17.44</ele>
      <time>2013-03-29T10:17:19Z</time>
    </trkpt>
    <trkpt lat="57.81329602" lon="11.864217985">
      <ele>16.96</ele>
      <time>2013-03-29T10:17:22Z</time>
    </trkpt>
    <trkpt lat="57.813248998" lon="11.864160988">
      <ele>16.0</ele>
      <time>2013-03-29T10:17:24Z</time>
    </trkpt>
    <trkpt lat="57.813224019" lon="11.86409804">
      <ele>15.52</ele>
      <time>2013-03-29T10:17:25Z</time>
    </trkpt>
    <trkpt lat="57.813081024" lon="11.863885978">
      <ele>14.56</ele>
      <time>2013-03-29T10:17:29Z</time>
    </trkpt>
    <trkpt lat="57.813052023" lon="11.863858989">
      <ele>13.12</ele>
      <time>2013-03-29T10:17:30Z</time>
    </trkpt>
    <trkpt lat="57.812966025" lon="11.863753041">
      <ele>12.63</ele>
      <time>2013-03-29T10:17:37Z</time>
    </trkpt>
    <trkpt lat="57.812915985" lon="11.863714987">
      <ele>12.15</ele>
      <time>2013-03-29T10:17:42Z</time>
    </trkpt>
    <trkpt lat="57.812902993" lon="11.863654973">
      <ele>11.19</ele>
      <time>2013-03-29T10:17:45Z</time>
    </trkpt>
    <trkpt lat="57.812905004" lon="11.863021972">
      <ele>11.67</ele>
      <time>2013-03-29T10:17:58Z</time>
    </trkpt>
    <trkpt lat="57.812939035" lon="11.862765988">
      <ele>11.67</ele>
      <time>2013-03-29T10:18:03Z</time>
    </trkpt>
    <trkpt lat="57.812913973" lon="11.862635985">
      <ele>10.71</ele>
      <time>2013-03-29T10:18:05Z</time>
    </trkpt>
    <trkpt lat="57.812890001" lon="11.862572031">
      <ele>10.23</ele>
      <time>2013-03-29T10:18:06Z</time>
    </trkpt>
    <trkpt lat="57.812863011" lon="11.862517968">
      <ele>10.71</ele>
      <time>2013-03-29T10:18:07Z</time>
    </trkpt>
    <trkpt lat="57.812845996" lon="11.862463988">
      <ele>10.71</ele>
      <time>2013-03-29T10:18:08Z</time>
    </trkpt>
    <trkpt lat="57.812841972" lon="11.862406991">
      <ele>10.23</ele>
      <time>2013-03-29T10:18:09Z</time>
    </trkpt>
    <trkpt lat="57.812840967" lon="11.862343038">
      <ele>11.67</ele>
      <time>2013-03-29T10:18:10Z</time>
    </trkpt>
    <trkpt lat="57.812843984" lon="11.862279">
      <ele>10.71</ele>
      <time>2013-03-29T10:18:11Z</time>
    </trkpt>
    <trkpt lat="57.812848007" lon="11.862223009">
      <ele>11.67</ele>
      <time>2013-03-29T10:18:12Z</time>
    </trkpt>
    <trkpt lat="57.812747005" lon="11.86172504">
      <ele>12.63</ele>
      <time>2013-03-29T10:18:21Z</time>
    </trkpt>
    <trkpt lat="57.812379962" lon="11.861254983">
      <ele>12.63</ele>
      <time>2013-03-29T10:18:32Z</time>
    </trkpt>
    <trkpt lat="57.812015014" lon="11.860814011">
      <ele>12.15</ele>
      <time>2013-03-29T10:18:43Z</time>
    </trkpt>
    <trkpt lat="57.811904037" lon="11.860681996">
      <ele>11.67</ele>
      <time>2013-03-29T10:18:46Z</time>
    </trkpt>
    <trkpt lat="57.811832037" lon="11.860589962">
      <ele>11.67</ele>
      <time>2013-03-29T10:18:48Z</time>
    </trkpt>
    <trkpt lat="57.81154504" lon="11.859952016">
      <ele>13.12</ele>
      <time>2013-03-29T10:19:00Z</time>
    </trkpt>
    <trkpt lat="57.811263995" lon="11.859300993">
      <ele>11.67</ele>
      <time>2013-03-29T10:19:13Z</time>
    </trkpt>
    <trkpt lat="57.811183026" lon="11.859134026">
      <ele>12.15</ele>
      <time>2013-03-29T10:19:17Z</time>
    </trkpt>
    <trkpt lat="57.811058974" lon="11.859329995">
      <ele>14.08</ele>
      <time>2013-03-29T10:19:23Z</time>
    </trkpt>
    <trkpt lat="57.810978005" lon="11.85947299">
      <ele>13.6</ele>
      <time>2013-03-29T10:19:27Z</time>
    </trkpt>
    <trkpt lat="57.810687991" lon="11.859256988">
      <ele>14.56</ele>
      <time>2013-03-29T10:19:36Z</time>
    </trkpt>
    <trkpt lat="57.810437037" lon="11.859005028">
      <ele>13.12</ele>
      <time>2013-03-29T10:19:43Z</time>
    </trkpt>
    <trkpt lat="57.809892967" lon="11.85855601">
      <ele>14.08</ele>
      <time>2013-03-29T10:19:57Z</time>
    </trkpt>
    <trkpt lat="57.809441015" lon="11.858168012">
      <ele>15.04</ele>
      <time>2013-03-29T10:20:10Z</time>
    </trkpt>
    <trkpt lat="57.809403967" lon="11.858044965">
      <ele>13.6</ele>
      <time>2013-03-29T10:20:12Z</time>
    </trkpt>
    <trkpt lat="57.809405979" lon="11.857968019">
      <ele>13.6</ele>
      <time>2013-03-29T10:20:13Z</time>
    </trkpt>
    <trkpt lat="57.809419977" lon="11.85789803">
      <ele>13.6</ele>
      <time>2013-03-29T10:20:14Z</time>
    </trkpt>
    <trkpt lat="57.809439003" lon="11.857830975">
      <ele>13.6</ele>
      <time>2013-03-29T10:20:15Z</time>
    </trkpt>
    <trkpt lat="57.809459036" lon="11.85775998">
      <ele>14.56</ele>
      <time>2013-03-29T10:20:16Z</time>
    </trkpt>
    <trkpt lat="57.809717031" lon="11.856873007">
      <ele>14.56</ele>
      <time>2013-03-29T10:20:28Z</time>
    </trkpt>
    <trkpt lat="57.809918029" lon="11.856094999">
      <ele>14.08</ele>
      <time>2013-03-29T10:20:39Z</time>
    </trkpt>
    <trkpt lat="57.810067981" lon="11.855333">
      <ele>16.0</ele>
      <time>2013-03-29T10:20:50Z</time>
    </trkpt>
    <trkpt lat="57.81015004" lon="11.854690025">
      <ele>16.48</ele>
      <time>2013-03-29T10:21:01Z</time>
    </trkpt>
    <trkpt lat="57.809976032" lon="11.854451979">
      <ele>16.96</ele>
      <time>2013-03-29T10:21:09Z</time>
    </trkpt>
    <trkpt lat="57.809800012" lon="11.854224997">
      <ele>17.92</ele>
      <time>2013-03-29T10:21:18Z</time>
    </trkpt>
    <trkpt lat="57.809741003" lon="11.854137992">
      <ele>17.92</ele>
      <time>2013-03-29T10:21:23Z</time>
    </trkpt>
    <trkpt lat="57.809728011" lon="11.854060041">
      <ele>19.36</ele>
      <time>2013-03-29T10:21:27Z</time>
    </trkpt>
    <trkpt lat="57.809695993" lon="11.853947975">
      <ele>19.84</ele>
      <time>2013-03-29T10:21:36Z</time>
    </trkpt>
    <trkpt lat="57.809642013" lon="11.853829036">
      <ele>22.73</ele>
      <time>2013-03-29T10:21:46Z</time>
    </trkpt>
    <trkpt lat="57.809597002" lon="11.853729039">
      <ele>24.65</ele>
      <time>2013-03-29T10:21:56Z</time>
    </trkpt>
    <trkpt lat="57.809557021" lon="11.853597024">
      <ele>27.05</ele>
      <time>2013-03-29T10:22:05Z</time>
    </trkpt>
    <trkpt lat="57.809499018" lon="11.853439026">
      <ele>28.02</ele>
      <time>2013-03-29T10:22:15Z</time>
    </trkpt>
    <trkpt lat="57.809480997" lon="11.853419999">
      <ele>29.46</ele>
      <time>2013-03-29T10:22:17Z</time>
    </trkpt>
    <trkpt lat="57.809448978" lon="11.853355961">
      <ele>29.94</ele>
      <time>2013-03-29T10:22:26Z</time>
    </trkpt>
    <trkpt lat="57.809400028" lon="11.853277003">
      <ele>31.38</ele>
      <time>2013-03-29T10:22:33Z</time>
    </trkpt>
    <trkpt lat="57.809285028" lon="11.853087991">
      <ele>32.82</ele>
      <time>2013-03-29T10:22:44Z</time>
    </trkpt>
    <trkpt lat="57.809213027" lon="11.853026971">
      <ele>33.3</ele>
      <time>2013-03-29T10:22:54Z</time>
    </trkpt>
    <trkpt lat="57.809155025" lon="11.852998976">
      <ele>33.78</ele>
      <time>2013-03-29T10:23:05Z</time>
    </trkpt>
    <trkpt lat="57.809152007" lon="11.852998976">
      <ele>34.26</ele>
      <time>2013-03-29T10:23:45Z</time>
    </trkpt>
    <trkpt lat="57.809125017" lon="11.852990007">
      <ele>34.26</ele>
      <time>2013-03-29T10:24:17Z</time>
    </trkpt>
    <trkpt lat="57.808990991" lon="11.85306997">
      <ele>33.78</ele>
      <time>2013-03-29T10:24:22Z</time>
    </trkpt>
    <trkpt lat="57.808874985" lon="11.853145994">
      <ele>33.78</ele>
      <time>2013-03-29T10:24:25Z</time>
    </trkpt>
    <trkpt lat="57.808518" lon="11.853295024">
      <ele>35.23</ele>
      <time>2013-03-29T10:24:35Z</time>
    </trkpt>
    <trkpt lat="57.808291018" lon="11.853020014">
      <ele>35.71</ele>
      <time>2013-03-29T10:24:43Z</time>
    </trkpt>
    <trkpt lat="57.808118016" lon="11.852741987">
      <ele>36.67</ele>
      <time>2013-03-29T10:24:53Z</time>
    </trkpt>
    <trkpt lat="57.808094965" lon="11.852705022">
      <ele>37.15</ele>
      <time>2013-03-29T10:24:54Z</time>
    </trkpt>
    <trkpt lat="57.807921041" lon="11.852520034">
      <ele>38.59</ele>
      <time>2013-03-29T10:25:04Z</time>
    </trkpt>
    <trkpt lat="57.807679977" lon="11.852283999">
      <ele>38.59</ele>
      <time>2013-03-29T10:25:13Z</time>
    </trkpt>
    <trkpt lat="57.807603031" lon="11.852201018">
      <ele>39.07</ele>
      <time>2013-03-29T10:25:17Z</time>
    </trkpt>
    <trkpt lat="57.807487026" lon="11.852208981">
      <ele>40.51</ele>
      <time>2013-03-29T10:25:23Z</time>
    </trkpt>
    <trkpt lat="57.807235988" lon="11.852228008">
      <ele>39.07</ele>
      <time>2013-03-29T10:25:32Z</time>
    </trkpt>
    <trkpt lat="57.807042031" lon="11.85209197">
      <ele>41.47</ele>
      <time>2013-03-29T10:25:40Z</time>
    </trkpt>
    <trkpt lat="57.807020992" lon="11.852076966">
      <ele>40.99</ele>
      <time>2013-03-29T10:25:41Z</time>
    </trkpt>
    <trkpt lat="57.80674397" lon="11.851918967">
      <ele>41.95</ele>
      <time>2013-03-29T10:25:51Z</time>
    </trkpt>
    <trkpt lat="57.806557976" lon="11.851672959">
      <ele>41.47</ele>
      <time>2013-03-29T10:26:00Z</time>
    </trkpt>
    <trkpt lat="57.806526041" lon="11.851633983">
      <ele>42.44</ele>
      <time>2013-03-29T10:26:03Z</time>
    </trkpt>
    <trkpt lat="57.80636997" lon="11.851535998">
      <ele>43.4</ele>
      <time>2013-03-29T10:26:13Z</time>
    </trkpt>
    <trkpt lat="57.80627802" lon="11.851360984">
      <ele>45.32</ele>
      <time>2013-03-29T10:26:22Z</time>
    </trkpt>
    <trkpt lat="57.806172995" lon="11.851194017">
      <ele>46.76</ele>
      <time>2013-03-29T10:26:30Z</time>
    </trkpt>
    <trkpt lat="57.805994041" lon="11.850929987">
      <ele>47.72</ele>
      <time>2013-03-29T10:26:40Z</time>
    </trkpt>
    <trkpt lat="57.805792037" lon="11.850850023">
      <ele>46.28</ele>
      <time>2013-03-29T10:26:51Z</time>
    </trkpt>
    <trkpt lat="57.805792037" lon="11.850850023">
      <ele>48.2</ele>
      <time>2013-03-29T10:27:15Z</time>
    </trkpt>
    <trkpt lat="57.805767981" lon="11.850848012">
      <ele>46.76</ele>
      <time>2013-03-29T10:27:26Z</time>
    </trkpt>
    <trkpt lat="57.80557503" lon="11.850701999">
      <ele>46.28</ele>
      <time>2013-03-29T10:27:32Z</time>
    </trkpt>
    <trkpt lat="57.805507975" lon="11.850595968">
      <ele>47.24</ele>
      <time>2013-03-29T10:27:34Z</time>
    </trkpt>
    <trkpt lat="57.805476962" lon="11.850531008">
      <ele>46.76</ele>
      <time>2013-03-29T10:27:35Z</time>
    </trkpt>
    <trkpt lat="57.805441003" lon="11.850468982">
      <ele>46.76</ele>
      <time>2013-03-29T10:27:36Z</time>
    </trkpt>
    <trkpt lat="57.805398004" lon="11.850412991">
      <ele>46.28</ele>
      <time>2013-03-29T10:27:37Z</time>
    </trkpt>
    <trkpt lat="57.805347964" lon="11.850364963">
      <ele>46.76</ele>
      <time>2013-03-29T10:27:38Z</time>
    </trkpt>
    <trkpt lat="57.805132968" lon="11.850267984">
      <ele>45.32</ele>
      <time>2013-03-29T10:27:42Z</time>
    </trkpt>
    <trkpt lat="57.80484396" lon="11.84996699">
      <ele>42.92</ele>
      <time>2013-03-29T10:27:47Z</time>
    </trkpt>
    <trkpt lat="57.804699037" lon="11.849744031">
      <ele>40.03</ele>
      <time>2013-03-29T10:27:50Z</time>
    </trkpt>
    <trkpt lat="57.804527963" lon="11.849530041">
      <ele>36.67</ele>
      <time>2013-03-29T10:27:54Z</time>
    </trkpt>
    <trkpt lat="57.804430984" lon="11.849448988">
      <ele>34.74</ele>
      <time>2013-03-29T10:27:56Z</time>
    </trkpt>
    <trkpt lat="57.804383961" lon="11.849401966">
      <ele>34.26</ele>
      <time>2013-03-29T10:27:57Z</time>
    </trkpt>
    <trkpt lat="57.804196961" lon="11.849427028">
      <ele>30.9</ele>
      <time>2013-03-29T10:28:01Z</time>
    </trkpt>
    <trkpt lat="57.80403804" lon="11.849431973">
      <ele>29.94</ele>
      <time>2013-03-29T10:28:05Z</time>
    </trkpt>
    <trkpt lat="57.803951036" lon="11.849475978">
      <ele>28.98</ele>
      <time>2013-03-29T10:28:08Z</time>
    </trkpt>
    <trkpt lat="57.80381701" lon="11.849645963">
      <ele>29.94</ele>
      <time>2013-03-29T10:28:15Z</time>
    </trkpt>
    <trkpt lat="57.803768981" lon="11.849697009">
      <ele>29.46</ele>
      <time>2013-03-29T10:28:17Z</time>
    </trkpt>
    <trkpt lat="57.803721959" lon="11.84973699">
      <ele>28.98</ele>
      <time>2013-03-29T10:28:26Z</time>
    </trkpt>
    <trkpt lat="57.803715002" lon="11.84974202">
      <ele>28.98</ele>
      <time>2013-03-29T10:28:48Z</time>
    </trkpt>
    <trkpt lat="57.803718019" lon="11.849756017">
      <ele>29.46</ele>
      <time>2013-03-29T10:29:34Z</time>
    </trkpt>
    <trkpt lat="57.803721959" lon="11.849754006">
      <ele>28.98</ele>
      <time>2013-03-29T10:29:35Z</time>
    </trkpt>
    <trkpt lat="57.803749032" lon="11.849673958">
      <ele>29.46</ele>
      <time>2013-03-29T10:29:40Z</time>
    </trkpt>
    <trkpt lat="57.80376697" lon="11.849608999">
      <ele>28.98</ele>
      <time>2013-03-29T10:29:42Z</time>
    </trkpt>
    <trkpt lat="57.803793037" lon="11.849570023">
      <ele>28.02</ele>
      <time>2013-03-29T10:29:44Z</time>
    </trkpt>
    <trkpt lat="57.803822039" lon="11.849503973">
      <ele>29.94</ele>
      <time>2013-03-29T10:29:48Z</time>
    </trkpt>
    <trkpt lat="57.803825978" lon="11.849496011">
      <ele>29.94</ele>
      <time>2013-03-29T10:29:50Z</time>
    </trkpt>
    <trkpt lat="57.80385104" lon="11.849492993">
      <ele>29.94</ele>
      <time>2013-03-29T10:29:52Z</time>
    </trkpt>
    <trkpt lat="57.803906025" lon="11.849442031">
      <ele>29.94</ele>
      <time>2013-03-29T10:30:00Z</time>
    </trkpt>
    <trkpt lat="57.804031" lon="11.849412024">
      <ele>31.86</ele>
      <time>2013-03-29T10:30:08Z</time>
    </trkpt>
    <trkpt lat="57.80418003" lon="11.849516965">
      <ele>34.74</ele>
      <time>2013-03-29T10:30:15Z</time>
    </trkpt>
    <trkpt lat="57.804222023" lon="11.849510008">
      <ele>36.19</ele>
      <time>2013-03-29T10:30:18Z</time>
    </trkpt>
    <trkpt lat="57.80425203" lon="11.849519983">
      <ele>36.19</ele>
      <time>2013-03-29T10:30:21Z</time>
    </trkpt>
    <trkpt lat="57.804382034" lon="11.84962702">
      <ele>38.11</ele>
      <time>2013-03-29T10:30:32Z</time>
    </trkpt>
    <trkpt lat="57.804423021" lon="11.849670019">
      <ele>39.07</ele>
      <time>2013-03-29T10:30:46Z</time>
    </trkpt>
    <trkpt lat="57.804489993" lon="11.849732967">
      <ele>40.03</ele>
      <time>2013-03-29T10:30:52Z</time>
    </trkpt>
    <trkpt lat="57.804568028" lon="11.849829024">
      <ele>41.47</ele>
      <time>2013-03-29T10:31:01Z</time>
    </trkpt>
    <trkpt lat="57.804599963" lon="11.849871017">
      <ele>41.95</ele>
      <time>2013-03-29T10:31:04Z</time>
    </trkpt>
    <trkpt lat="57.804654026" lon="11.850006972">
      <ele>42.92</ele>
      <time>2013-03-29T10:31:12Z</time>
    </trkpt>
    <trkpt lat="57.804715969" lon="11.85010504">
      <ele>43.4</ele>
      <time>2013-03-29T10:31:21Z</time>
    </trkpt>
    <trkpt lat="57.804814959" lon="11.850161031">
      <ele>44.36</ele>
      <time>2013-03-29T10:31:29Z</time>
    </trkpt>
    <trkpt lat="57.804929959" lon="11.850225991">
      <ele>45.32</ele>
      <time>2013-03-29T10:31:38Z</time>
    </trkpt>
    <trkpt lat="57.804969018" lon="11.850239988">
      <ele>44.84</ele>
      <time>2013-03-29T10:31:41Z</time>
    </trkpt>
    <trkpt lat="57.805115031" lon="11.850408968">
      <ele>46.76</ele>
      <time>2013-03-29T10:31:52Z</time>
    </trkpt>
    <trkpt lat="57.805255009" lon="11.850623963">
      <ele>46.76</ele>
      <time>2013-03-29T10:32:01Z</time>
    </trkpt>
    <trkpt lat="57.805346036" lon="11.850711973">
      <ele>46.76</ele>
      <time>2013-03-29T10:32:07Z</time>
    </trkpt>
    <trkpt lat="57.805438992" lon="11.850711973">
      <ele>47.24</ele>
      <time>2013-03-29T10:32:16Z</time>
    </trkpt>
    <trkpt lat="57.805438992" lon="11.850711973">
      <ele>47.72</ele>
      <time>2013-03-29T10:32:53Z</time>
    </trkpt>
    <trkpt lat="57.805439997" lon="11.850709962">
      <ele>47.24</ele>
      <time>2013-03-29T10:32:57Z</time>
    </trkpt>
    <trkpt lat="57.805515015" lon="11.850316012">
      <ele>47.24</ele>
      <time>2013-03-29T10:33:06Z</time>
    </trkpt>
    <trkpt lat="57.805544017" lon="11.849607993">
      <ele>45.8</ele>
      <time>2013-03-29T10:33:14Z</time>
    </trkpt>
    <trkpt lat="57.805561032" lon="11.849517971">
      <ele>45.32</ele>
      <time>2013-03-29T10:33:15Z</time>
    </trkpt>
    <trkpt lat="57.805581987" lon="11.849439014">
      <ele>45.32</ele>
      <time>2013-03-29T10:33:16Z</time>
    </trkpt>
    <trkpt lat="57.805606965" lon="11.849385034">
      <ele>45.8</ele>
      <time>2013-03-29T10:33:17Z</time>
    </trkpt>
    <trkpt lat="57.805632027" lon="11.849344969">
      <ele>45.32</ele>
      <time>2013-03-29T10:33:18Z</time>
    </trkpt>
    <trkpt lat="57.805832019" lon="11.848882036">
      <ele>45.8</ele>
      <time>2013-03-29T10:33:28Z</time>
    </trkpt>
    <trkpt lat="57.805859009" lon="11.848754967">
      <ele>46.76</ele>
      <time>2013-03-29T10:33:31Z</time>
    </trkpt>
    <trkpt lat="57.805930004" lon="11.848737029">
      <ele>46.28</ele>
      <time>2013-03-29T10:33:35Z</time>
    </trkpt>
    <trkpt lat="57.806020025" lon="11.848858986">
      <ele>48.2</ele>
      <time>2013-03-29T10:33:40Z</time>
    </trkpt>
    <trkpt lat="57.806092026" lon="11.848901985">
      <ele>50.13</ele>
      <time>2013-03-29T10:33:44Z</time>
    </trkpt>
    <trkpt lat="57.80615204" lon="11.848930987">
      <ele>50.13</ele>
      <time>2013-03-29T10:33:52Z</time>
    </trkpt>
    <trkpt lat="57.806233009" lon="11.848948002">
      <ele>51.57</ele>
      <time>2013-03-29T10:33:58Z</time>
    </trkpt>
    <trkpt lat="57.80626704" lon="11.848932998">
      <ele>52.05</ele>
      <time>2013-03-29T10:34:01Z</time>
    </trkpt>
    <trkpt lat="57.806324959" lon="11.84896904">
      <ele>51.57</ele>
      <time>2013-03-29T10:34:05Z</time>
    </trkpt>
    <trkpt lat="57.806429984" lon="11.848845994">
      <ele>53.01</ele>
      <time>2013-03-29T10:34:14Z</time>
    </trkpt>
    <trkpt lat="57.806436019" lon="11.848827973">
      <ele>53.01</ele>
      <time>2013-03-29T10:34:15Z</time>
    </trkpt>
    <trkpt lat="57.806514977" lon="11.848576013">
      <ele>53.97</ele>
      <time>2013-03-29T10:34:27Z</time>
    </trkpt>
    <trkpt lat="57.806516988" lon="11.848566039">
      <ele>53.49</ele>
      <time>2013-03-29T10:34:28Z</time>
    </trkpt>
    <trkpt lat="57.80654096" lon="11.848394964">
      <ele>55.89</ele>
      <time>2013-03-29T10:34:36Z</time>
    </trkpt>
    <trkpt lat="57.806548001" lon="11.848346014">
      <ele>55.41</ele>
      <time>2013-03-29T10:34:44Z</time>
    </trkpt>
    <trkpt lat="57.806573985" lon="11.848285999">
      <ele>56.86</ele>
      <time>2013-03-29T10:34:52Z</time>
    </trkpt>
    <trkpt lat="57.806587983" lon="11.848292034">
      <ele>56.86</ele>
      <time>2013-03-29T10:34:54Z</time>
    </trkpt>
    <trkpt lat="57.806651015" lon="11.848249035">
      <ele>58.3</ele>
      <time>2013-03-29T10:35:03Z</time>
    </trkpt>
    <trkpt lat="57.806657972" lon="11.848250963">
      <ele>57.34</ele>
      <time>2013-03-29T10:35:24Z</time>
    </trkpt>
    <trkpt lat="57.806665013" lon="11.848211987">
      <ele>57.82</ele>
      <time>2013-03-29T10:35:26Z</time>
    </trkpt>
    <trkpt lat="57.806741036" lon="11.847943012">
      <ele>58.78</ele>
      <time>2013-03-29T10:35:36Z</time>
    </trkpt>
    <trkpt lat="57.80675604" lon="11.847724998">
      <ele>58.78</ele>
      <time>2013-03-29T10:35:41Z</time>
    </trkpt>
    <trkpt lat="57.806715975" lon="11.847528024">
      <ele>59.26</ele>
      <time>2013-03-29T10:35:48Z</time>
    </trkpt>
    <trkpt lat="57.806731984" lon="11.84732602">
      <ele>60.7</ele>
      <time>2013-03-29T10:35:55Z</time>
    </trkpt>
    <trkpt lat="57.806744976" lon="11.847156035">
      <ele>61.66</ele>
      <time>2013-03-29T10:36:00Z</time>
    </trkpt>
    <trkpt lat="57.806771966" lon="11.847027037">
      <ele>62.14</ele>
      <time>2013-03-29T10:36:05Z</time>
    </trkpt>
    <trkpt lat="57.806803985" lon="11.84686996">
      <ele>60.7</ele>
      <time>2013-03-29T10:36:10Z</time>
    </trkpt>
    <trkpt lat="57.80681002" lon="11.846808018">
      <ele>61.18</ele>
      <time>2013-03-29T10:36:12Z</time>
    </trkpt>
    <trkpt lat="57.80693097" lon="11.846760996">
      <ele>60.7</ele>
      <time>2013-03-29T10:36:18Z</time>
    </trkpt>
    <trkpt lat="57.806984028" lon="11.846610038">
      <ele>59.74</ele>
      <time>2013-03-29T10:36:23Z</time>
    </trkpt>
    <trkpt lat="57.806976987" lon="11.846319018">
      <ele>60.22</ele>
      <time>2013-03-29T10:36:28Z</time>
    </trkpt>
    <trkpt lat="57.806934994" lon="11.846031016">
      <ele>60.22</ele>
      <time>2013-03-29T10:36:37Z</time>
    </trkpt>
    <trkpt lat="57.806912027" lon="11.845950969">
      <ele>59.74</ele>
      <time>2013-03-29T10:36:41Z</time>
    </trkpt>
    <trkpt lat="57.806924013" lon="11.84557504">
      <ele>59.74</ele>
      <time>2013-03-29T10:36:50Z</time>
    </trkpt>
    <trkpt lat="57.806918984" lon="11.845145971">
      <ele>61.18</ele>
      <time>2013-03-29T10:36:59Z</time>
    </trkpt>
    <trkpt lat="57.806944968" lon="11.845022002">
      <ele>61.18</ele>
      <time>2013-03-29T10:37:03Z</time>
    </trkpt>
    <trkpt lat="57.806961983" lon="11.844844976">
      <ele>62.14</ele>
      <time>2013-03-29T10:37:11Z</time>
    </trkpt>
    <trkpt lat="57.806951003" lon="11.844775993">
      <ele>63.1</ele>
      <time>2013-03-29T10:37:14Z</time>
    </trkpt>
    <trkpt lat="57.806944968" lon="11.844594022">
      <ele>64.07</ele>
      <time>2013-03-29T10:37:22Z</time>
    </trkpt>
    <trkpt lat="57.806942035" lon="11.844562003">
      <ele>64.07</ele>
      <time>2013-03-29T10:37:23Z</time>
    </trkpt>
    <trkpt lat="57.806965001" lon="11.844461001">
      <ele>65.51</ele>
      <time>2013-03-29T10:37:31Z</time>
    </trkpt>
    <trkpt lat="57.806965001" lon="11.844461001">
      <ele>65.99</ele>
      <time>2013-03-29T10:38:07Z</time>
    </trkpt>
    <trkpt lat="57.806972964" lon="11.844428983">
      <ele>66.47</ele>
      <time>2013-03-29T10:38:10Z</time>
    </trkpt>
    <trkpt lat="57.807000959" lon="11.844193032">
      <ele>65.03</ele>
      <time>2013-03-29T10:38:18Z</time>
    </trkpt>
    <trkpt lat="57.807008" lon="11.844184985">
      <ele>65.03</ele>
      <time>2013-03-29T10:38:19Z</time>
    </trkpt>
    <trkpt lat="57.807028033" lon="11.844147015">
      <ele>65.99</ele>
      <time>2013-03-29T10:38:21Z</time>
    </trkpt>
    <trkpt lat="57.807058962" lon="11.844123965">
      <ele>65.99</ele>
      <time>2013-03-29T10:38:23Z</time>
    </trkpt>
    <trkpt lat="57.807177985" lon="11.844015">
      <ele>67.43</ele>
      <time>2013-03-29T10:38:29Z</time>
    </trkpt>
    <trkpt lat="57.807216039" lon="11.84398097">
      <ele>66.47</ele>
      <time>2013-03-29T10:38:31Z</time>
    </trkpt>
    <trkpt lat="57.80727597" lon="11.843769997">
      <ele>67.43</ele>
      <time>2013-03-29T10:38:38Z</time>
    </trkpt>
    <trkpt lat="57.807279993" lon="11.843654998">
      <ele>67.91</ele>
      <time>2013-03-29T10:38:41Z</time>
    </trkpt>
    <trkpt lat="57.80724504" lon="11.843577968">
      <ele>68.87</ele>
      <time>2013-03-29T10:38:45Z</time>
    </trkpt>
    <trkpt lat="57.807257026" lon="11.843358027">
      <ele>68.39</ele>
      <time>2013-03-29T10:38:52Z</time>
    </trkpt>
    <trkpt lat="57.807258032" lon="11.843321985">
      <ele>68.87</ele>
      <time>2013-03-29T10:38:53Z</time>
    </trkpt>
    <trkpt lat="57.807262978" lon="11.843243027">
      <ele>68.87</ele>
      <time>2013-03-29T10:38:55Z</time>
    </trkpt>
    <trkpt lat="57.807162981" lon="11.843001042">
      <ele>69.35</ele>
      <time>2013-03-29T10:39:03Z</time>
    </trkpt>
    <trkpt lat="57.807013029" lon="11.842859974">
      <ele>66.47</ele>
      <time>2013-03-29T10:39:11Z</time>
    </trkpt>
    <trkpt lat="57.806972042" lon="11.842844971">
      <ele>66.47</ele>
      <time>2013-03-29T10:39:20Z</time>
    </trkpt>
    <trkpt lat="57.806958966" lon="11.842810018">
      <ele>65.99</ele>
      <time>2013-03-29T10:39:29Z</time>
    </trkpt>
    <trkpt lat="57.806954021" lon="11.842808006">
      <ele>65.99</ele>
      <time>2013-03-29T10:39:52Z</time>
    </trkpt>
    <trkpt lat="57.806943962" lon="11.842804989">
      <ele>65.03</ele>
      <time>2013-03-29T10:40:12Z</time>
    </trkpt>
    <trkpt lat="57.806940023" lon="11.842804989">
      <ele>64.55</ele>
      <time>2013-03-29T10:40:45Z</time>
    </trkpt>
    <trkpt lat="57.806939017" lon="11.842803983">
      <ele>64.55</ele>
      <time>2013-03-29T10:41:19Z</time>
    </trkpt>
    <trkpt lat="57.806939017" lon="11.842803983">
      <ele>65.51</ele>
      <time>2013-03-29T10:41:43Z</time>
    </trkpt>
    <trkpt lat="57.80693097" lon="11.842793003">
      <ele>65.51</ele>
      <time>2013-03-29T10:42:41Z</time>
    </trkpt>
    <trkpt lat="57.80693097" lon="11.842793003">
      <ele>65.51</ele>
      <time>2013-03-29T10:43:17Z</time>
    </trkpt>
    <trkpt lat="57.806925019" lon="11.84278504">
      <ele>65.99</ele>
      <time>2013-03-29T10:45:09Z</time>
    </trkpt>
    <trkpt lat="57.806925019" lon="11.842784034">
      <ele>65.03</ele>
      <time>2013-03-29T10:46:30Z</time>
    </trkpt>
    <trkpt lat="57.806925019" lon="11.842781017">
      <ele>63.58</ele>
      <time>2013-03-29T10:47:01Z</time>
    </trkpt>
    <trkpt lat="57.806908004" lon="11.842776993">
      <ele>65.51</ele>
      <time>2013-03-29T10:47:44Z</time>
    </trkpt>
    <trkpt lat="57.806902975" lon="11.842770036">
      <ele>65.99</ele>
      <time>2013-03-29T10:47:50Z</time>
    </trkpt>
    <trkpt lat="57.806904987" lon="11.842777999">
      <ele>65.51</ele>
      <time>2013-03-29T10:48:04Z</time>
    </trkpt>
    <trkpt lat="57.806894006" lon="11.842774982">
      <ele>65.51</ele>
      <time>2013-03-29T10:48:57Z</time>
    </trkpt>
    <trkpt lat="57.806916973" lon="11.842773976">
      <ele>65.51</ele>
      <time>2013-03-29T10:49:10Z</time>
    </trkpt>
    <trkpt lat="57.806939017" lon="11.842810018">
      <ele>65.51</ele>
      <time>2013-03-29T10:49:22Z</time>
    </trkpt>
    <trkpt lat="57.806948991" lon="11.842837008">
      <ele>66.95</ele>
      <time>2013-03-29T10:49:28Z</time>
    </trkpt>
    <trkpt lat="57.80697397" lon="11.842879001">
      <ele>66.47</ele>
      <time>2013-03-29T10:49:31Z</time>
    </trkpt>
    <trkpt lat="57.806994002" lon="11.84287196">
      <ele>67.43</ele>
      <time>2013-03-29T10:49:33Z</time>
    </trkpt>
    <trkpt lat="57.807025015" lon="11.842771964">
      <ele>66.95</ele>
      <time>2013-03-29T10:49:38Z</time>
    </trkpt>
    <trkpt lat="57.806984028" lon="11.842584964">
      <ele>65.99</ele>
      <time>2013-03-29T10:49:49Z</time>
    </trkpt>
    <trkpt lat="57.806952009" lon="11.842478011">
      <ele>65.99</ele>
      <time>2013-03-29T10:49:59Z</time>
    </trkpt>
    <trkpt lat="57.806914961" lon="11.84242202">
      <ele>65.99</ele>
      <time>2013-03-29T10:50:02Z</time>
    </trkpt>
    <trkpt lat="57.806798033" lon="11.842224961">
      <ele>65.99</ele>
      <time>2013-03-29T10:50:10Z</time>
    </trkpt>
    <trkpt lat="57.806626959" lon="11.841962021">
      <ele>64.55</ele>
      <time>2013-03-29T10:50:16Z</time>
    </trkpt>
    <trkpt lat="57.806485975" lon="11.841788013">
      <ele>62.62</ele>
      <time>2013-03-29T10:50:24Z</time>
    </trkpt>
    <trkpt lat="57.806300987" lon="11.841618028">
      <ele>63.1</ele>
      <time>2013-03-29T10:50:32Z</time>
    </trkpt>
    <trkpt lat="57.80622798" lon="11.841536975">
      <ele>61.66</ele>
      <time>2013-03-29T10:50:35Z</time>
    </trkpt>
    <trkpt lat="57.806086997" lon="11.841488024">
      <ele>60.7</ele>
      <time>2013-03-29T10:50:39Z</time>
    </trkpt>
    <trkpt lat="57.805903014" lon="11.841425998">
      <ele>60.22</ele>
      <time>2013-03-29T10:50:46Z</time>
    </trkpt>
    <trkpt lat="57.805829002" lon="11.841452988">
      <ele>60.22</ele>
      <time>2013-03-29T10:50:49Z</time>
    </trkpt>
    <trkpt lat="57.805751972" lon="11.841394985">
      <ele>60.22</ele>
      <time>2013-03-29T10:50:53Z</time>
    </trkpt>
    <trkpt lat="57.805628004" lon="11.841217959">
      <ele>60.22</ele>
      <time>2013-03-29T10:50:58Z</time>
    </trkpt>
    <trkpt lat="57.80555902" lon="11.841117041">
      <ele>59.74</ele>
      <time>2013-03-29T10:51:00Z</time>
    </trkpt>
    <trkpt lat="57.805387024" lon="11.840688977">
      <ele>56.37</ele>
      <time>2013-03-29T10:51:06Z</time>
    </trkpt>
    <trkpt lat="57.805306977" lon="11.840600967">
      <ele>56.37</ele>
      <time>2013-03-29T10:51:08Z</time>
    </trkpt>
    <trkpt lat="57.805200024" lon="11.84051103">
      <ele>53.97</ele>
      <time>2013-03-29T10:51:15Z</time>
    </trkpt>
    <trkpt lat="57.805179991" lon="11.840486974">
      <ele>53.97</ele>
      <time>2013-03-29T10:51:18Z</time>
    </trkpt>
    <trkpt lat="57.805177979" lon="11.840453027">
      <ele>53.49</ele>
      <time>2013-03-29T10:51:20Z</time>
    </trkpt>
    <trkpt lat="57.805032972" lon="11.840126971">
      <ele>52.53</ele>
      <time>2013-03-29T10:51:29Z</time>
    </trkpt>
    <trkpt lat="57.804992991" lon="11.840041978">
      <ele>51.57</ele>
      <time>2013-03-29T10:51:31Z</time>
    </trkpt>
    <trkpt lat="57.804896012" lon="11.839822037">
      <ele>49.65</ele>
      <time>2013-03-29T10:51:35Z</time>
    </trkpt>
    <trkpt lat="57.804800961" lon="11.839579968">
      <ele>46.76</ele>
      <time>2013-03-29T10:51:40Z</time>
    </trkpt>
    <trkpt lat="57.804731978" lon="11.839504028">
      <ele>45.8</ele>
      <time>2013-03-29T10:51:43Z</time>
    </trkpt>
    <trkpt lat="57.804650003" lon="11.83936296">
      <ele>44.84</ele>
      <time>2013-03-29T10:51:48Z</time>
    </trkpt>
    <trkpt lat="57.804650003" lon="11.839203034">
      <ele>44.36</ele>
      <time>2013-03-29T10:51:50Z</time>
    </trkpt>
    <trkpt lat="57.80465696" lon="11.838919977">
      <ele>45.32</ele>
      <time>2013-03-29T10:51:58Z</time>
    </trkpt>
    <trkpt lat="57.804627037" lon="11.838749992">
      <ele>44.84</ele>
      <time>2013-03-29T10:52:01Z</time>
    </trkpt>
    <trkpt lat="57.804616978" lon="11.838606996">
      <ele>43.4</ele>
      <time>2013-03-29T10:52:03Z</time>
    </trkpt>
    <trkpt lat="57.804480018" lon="11.838337015">
      <ele>41.47</ele>
      <time>2013-03-29T10:52:10Z</time>
    </trkpt>
    <trkpt lat="57.804386979" lon="11.838197038">
      <ele>41.95</ele>
      <time>2013-03-29T10:52:16Z</time>
    </trkpt>
    <trkpt lat="57.804383961" lon="11.838181028">
      <ele>40.99</ele>
      <time>2013-03-29T10:52:29Z</time>
    </trkpt>
    <trkpt lat="57.804383961" lon="11.838181028">
      <ele>40.51</ele>
      <time>2013-03-29T10:52:34Z</time>
    </trkpt>
    <trkpt lat="57.804368036" lon="11.838115985">
      <ele>40.51</ele>
      <time>2013-03-29T10:52:44Z</time>
    </trkpt>
    <trkpt lat="57.804359989" lon="11.838103998">
      <ele>38.59</ele>
      <time>2013-03-29T10:53:01Z</time>
    </trkpt>
    <trkpt lat="57.804341968" lon="11.838087989">
      <ele>37.63</ele>
      <time>2013-03-29T10:53:13Z</time>
    </trkpt>
    <trkpt lat="57.804338029" lon="11.838083966">
      <ele>38.59</ele>
      <time>2013-03-29T10:53:19Z</time>
    </trkpt>
    <trkpt lat="57.804323025" lon="11.838080026">
      <ele>38.11</ele>
      <time>2013-03-29T10:53:33Z</time>
    </trkpt>
    <trkpt lat="57.804335011" lon="11.83814398">
      <ele>38.11</ele>
      <time>2013-03-29T10:53:42Z</time>
    </trkpt>
    <trkpt lat="57.804325037" lon="11.838173987">
      <ele>37.15</ele>
      <time>2013-03-29T10:53:51Z</time>
    </trkpt>
    <trkpt lat="57.804325037" lon="11.838173987">
      <ele>36.67</ele>
      <time>2013-03-29T10:54:00Z</time>
    </trkpt>
    <trkpt lat="57.804297963" lon="11.838127971">
      <ele>37.63</ele>
      <time>2013-03-29T10:54:09Z</time>
    </trkpt>
    <trkpt lat="57.804293018" lon="11.83812202">
      <ele>37.63</ele>
      <time>2013-03-29T10:54:20Z</time>
    </trkpt>
    <trkpt lat="57.80429" lon="11.838119002">
      <ele>36.67</ele>
      <time>2013-03-29T10:54:38Z</time>
    </trkpt>
    <trkpt lat="57.804268962" lon="11.838113973">
      <ele>37.15</ele>
      <time>2013-03-29T10:55:00Z</time>
    </trkpt>
    <trkpt lat="57.804233003" lon="11.83815999">
      <ele>37.63</ele>
      <time>2013-03-29T10:55:15Z</time>
    </trkpt>
    <trkpt lat="57.804241972" lon="11.838218998">
      <ele>37.15</ele>
      <time>2013-03-29T10:55:19Z</time>
    </trkpt>
    <trkpt lat="57.804281032" lon="11.838264009">
      <ele>37.15</ele>
      <time>2013-03-29T10:55:26Z</time>
    </trkpt>
    <trkpt lat="57.804281032" lon="11.838264009">
      <ele>38.11</ele>
      <time>2013-03-29T10:55:45Z</time>
    </trkpt>
    <trkpt lat="57.804284971" lon="11.83829804">
      <ele>37.63</ele>
      <time>2013-03-29T10:55:56Z</time>
    </trkpt>
    <trkpt lat="57.80423996" lon="11.838238025">
      <ele>36.67</ele>
      <time>2013-03-29T10:56:06Z</time>
    </trkpt>
    <trkpt lat="57.80425203" lon="11.838125959">
      <ele>37.63</ele>
      <time>2013-03-29T10:56:16Z</time>
    </trkpt>
    <trkpt lat="57.80425203" lon="11.838125959">
      <ele>37.15</ele>
      <time>2013-03-29T10:56:45Z</time>
    </trkpt>
    <trkpt lat="57.80425203" lon="11.838117996">
      <ele>37.63</ele>
      <time>2013-03-29T10:56:50Z</time>
    </trkpt>
    <trkpt lat="57.804254964" lon="11.838124031">
      <ele>38.59</ele>
      <time>2013-03-29T10:56:59Z</time>
    </trkpt>
    <trkpt lat="57.804253036" lon="11.838126965">
      <ele>36.19</ele>
      <time>2013-03-29T10:57:10Z</time>
    </trkpt>
    <trkpt lat="57.804245995" lon="11.838127971">
      <ele>36.19</ele>
      <time>2013-03-29T10:57:19Z</time>
    </trkpt>
    <trkpt lat="57.804245995" lon="11.838127971">
      <ele>36.19</ele>
      <time>2013-03-29T10:57:43Z</time>
    </trkpt>
    <trkpt lat="57.804236021" lon="11.838141968">
      <ele>37.15</ele>
      <time>2013-03-29T10:58:44Z</time>
    </trkpt>
    <trkpt lat="57.804236021" lon="11.838141968">
      <ele>36.67</ele>
      <time>2013-03-29T10:58:45Z</time>
    </trkpt>
    <trkpt lat="57.804245995" lon="11.838141968">
      <ele>40.03</ele>
      <time>2013-03-29T10:58:54Z</time>
    </trkpt>
    <trkpt lat="57.804249013" lon="11.838131994">
      <ele>39.55</ele>
      <time>2013-03-29T10:59:06Z</time>
    </trkpt>
    <trkpt lat="57.804251024" lon="11.838127971">
      <ele>40.99</ele>
      <time>2013-03-29T10:59:18Z</time>
    </trkpt>
    <trkpt lat="57.80429" lon="11.838146998">
      <ele>40.99</ele>
      <time>2013-03-29T10:59:45Z</time>
    </trkpt>
    <trkpt lat="57.804297963" lon="11.838158984">
      <ele>40.99</ele>
      <time>2013-03-29T11:00:10Z</time>
    </trkpt>
    <trkpt lat="57.804305004" lon="11.838155966">
      <ele>40.51</ele>
      <time>2013-03-29T11:00:33Z</time>
    </trkpt>
    <trkpt lat="57.80430601" lon="11.838138029">
      <ele>40.51</ele>
      <time>2013-03-29T11:00:39Z</time>
    </trkpt>
    <trkpt lat="57.804274997" lon="11.838097963">
      <ele>39.07</ele>
      <time>2013-03-29T11:00:45Z</time>
    </trkpt>
    <trkpt lat="57.804251024" lon="11.838154038">
      <ele>37.15</ele>
      <time>2013-03-29T11:00:53Z</time>
    </trkpt>
    <trkpt lat="57.804254964" lon="11.83816703">
      <ele>36.19</ele>
      <time>2013-03-29T11:01:13Z</time>
    </trkpt>
    <trkpt lat="57.804265022" lon="11.838168036">
      <ele>36.67</ele>
      <time>2013-03-29T11:01:23Z</time>
    </trkpt>
    <trkpt lat="57.804257981" lon="11.838162001">
      <ele>35.71</ele>
      <time>2013-03-29T11:01:35Z</time>
    </trkpt>
    <trkpt lat="57.804262005" lon="11.838197038">
      <ele>36.19</ele>
      <time>2013-03-29T11:01:48Z</time>
    </trkpt>
    <trkpt lat="57.804265022" lon="11.838208018">
      <ele>37.15</ele>
      <time>2013-03-29T11:01:56Z</time>
    </trkpt>
    <trkpt lat="57.804265022" lon="11.838208018">
      <ele>36.19</ele>
      <time>2013-03-29T11:02:08Z</time>
    </trkpt>
    <trkpt lat="57.804264016" lon="11.838206006">
      <ele>35.71</ele>
      <time>2013-03-29T11:03:05Z</time>
    </trkpt>
    <trkpt lat="57.804267034" lon="11.838199971">
      <ele>35.71</ele>
      <time>2013-03-29T11:03:25Z</time>
    </trkpt>
    <trkpt lat="57.80425597" lon="11.838224027">
      <ele>36.67</ele>
      <time>2013-03-29T11:03:43Z</time>
    </trkpt>
    <trkpt lat="57.804184975" lon="11.83818304">
      <ele>36.67</ele>
      <time>2013-03-29T11:03:47Z</time>
    </trkpt>
    <trkpt lat="57.804124961" lon="11.838091007">
      <ele>35.71</ele>
      <time>2013-03-29T11:03:50Z</time>
    </trkpt>
    <trkpt lat="57.80405296" lon="11.837751959">
      <ele>35.23</ele>
      <time>2013-03-29T11:03:59Z</time>
    </trkpt>
    <trkpt lat="57.803908959" lon="11.837562025">
      <ele>37.15</ele>
      <time>2013-03-29T11:04:06Z</time>
    </trkpt>
    <trkpt lat="57.803841988" lon="11.837444007">
      <ele>37.63</ele>
      <time>2013-03-29T11:04:09Z</time>
    </trkpt>
    <trkpt lat="57.803717013" lon="11.837402014">
      <ele>38.59</ele>
      <time>2013-03-29T11:04:17Z</time>
    </trkpt>
    <trkpt lat="57.803532025" lon="11.837274022">
      <ele>40.03</ele>
      <time>2013-03-29T11:04:26Z</time>
    </trkpt>
    <trkpt lat="57.803490032" lon="11.837225994">
      <ele>40.03</ele>
      <time>2013-03-29T11:04:28Z</time>
    </trkpt>
    <trkpt lat="57.803424988" lon="11.837129015">
      <ele>39.55</ele>
      <time>2013-03-29T11:04:31Z</time>
    </trkpt>
    <trkpt lat="57.803307977" lon="11.83704704">
      <ele>39.07</ele>
      <time>2013-03-29T11:04:36Z</time>
    </trkpt>
    <trkpt lat="57.803241005" lon="11.836973028">
      <ele>38.59</ele>
      <time>2013-03-29T11:04:39Z</time>
    </trkpt>
    <trkpt lat="57.803174034" lon="11.836925">
      <ele>38.11</ele>
      <time>2013-03-29T11:04:42Z</time>
    </trkpt>
    <trkpt lat="57.803140003" lon="11.83677597">
      <ele>38.11</ele>
      <time>2013-03-29T11:04:47Z</time>
    </trkpt>
    <trkpt lat="57.803149978" lon="11.836632974">
      <ele>36.19</ele>
      <time>2013-03-29T11:04:53Z</time>
    </trkpt>
    <trkpt lat="57.803141009" lon="11.836624006">
      <ele>36.19</ele>
      <time>2013-03-29T11:05:05Z</time>
    </trkpt>
    <trkpt lat="57.803144027" lon="11.836602967">
      <ele>36.67</ele>
      <time>2013-03-29T11:05:17Z</time>
    </trkpt>
    <trkpt lat="57.803166993" lon="11.83647003">
      <ele>36.19</ele>
      <time>2013-03-29T11:05:23Z</time>
    </trkpt>
    <trkpt lat="57.803187026" lon="11.83644698">
      <ele>35.71</ele>
      <time>2013-03-29T11:05:25Z</time>
    </trkpt>
    <trkpt lat="57.803424988" lon="11.83635897">
      <ele>36.67</ele>
      <time>2013-03-29T11:05:36Z</time>
    </trkpt>
    <trkpt lat="57.803445021" lon="11.836338015">
      <ele>36.19</ele>
      <time>2013-03-29T11:05:37Z</time>
    </trkpt>
    <trkpt lat="57.803637972" lon="11.836059988">
      <ele>35.71</ele>
      <time>2013-03-29T11:05:46Z</time>
    </trkpt>
    <trkpt lat="57.803762024" lon="11.835907018">
      <ele>35.23</ele>
      <time>2013-03-29T11:05:52Z</time>
    </trkpt>
    <trkpt lat="57.803906025" lon="11.83585899">
      <ele>36.19</ele>
      <time>2013-03-29T11:05:59Z</time>
    </trkpt>
    <trkpt lat="57.803949025" lon="11.835841974">
      <ele>35.71</ele>
      <time>2013-03-29T11:06:01Z</time>
    </trkpt>
    <trkpt lat="57.804009039" lon="11.835765028">
      <ele>37.15</ele>
      <time>2013-03-29T11:06:06Z</time>
    </trkpt>
    <trkpt lat="57.804155974" lon="11.835765028">
      <ele>38.11</ele>
      <time>2013-03-29T11:06:14Z</time>
    </trkpt>
    <trkpt lat="57.804213976" lon="11.835832">
      <ele>37.63</ele>
      <time>2013-03-29T11:06:18Z</time>
    </trkpt>
    <trkpt lat="57.804253036" lon="11.835870976">
      <ele>38.59</ele>
      <time>2013-03-29T11:06:21Z</time>
    </trkpt>
    <trkpt lat="57.804267034" lon="11.835899977">
      <ele>38.59</ele>
      <time>2013-03-29T11:06:23Z</time>
    </trkpt>
    <trkpt lat="57.804336017" lon="11.836005002">
      <ele>39.55</ele>
      <time>2013-03-29T11:06:28Z</time>
    </trkpt>
    <trkpt lat="57.804398965" lon="11.836075997">
      <ele>38.59</ele>
      <time>2013-03-29T11:06:33Z</time>
    </trkpt>
    <trkpt lat="57.804541038" lon="11.836113967">
      <ele>37.63</ele>
      <time>2013-03-29T11:06:38Z</time>
    </trkpt>
    <trkpt lat="57.804657966" lon="11.836157972">
      <ele>37.63</ele>
      <time>2013-03-29T11:06:46Z</time>
    </trkpt>
    <trkpt lat="57.804679004" lon="11.836157972">
      <ele>37.63</ele>
      <time>2013-03-29T11:06:47Z</time>
    </trkpt>
    <trkpt lat="57.804814959" lon="11.836087983">
      <ele>36.67</ele>
      <time>2013-03-29T11:06:54Z</time>
    </trkpt>
    <trkpt lat="57.804858964" lon="11.836040961">
      <ele>36.67</ele>
      <time>2013-03-29T11:06:57Z</time>
    </trkpt>
    <trkpt lat="57.805016963" lon="11.835952029">
      <ele>39.07</ele>
      <time>2013-03-29T11:07:06Z</time>
    </trkpt>
    <trkpt lat="57.805179991" lon="11.836002991">
      <ele>40.03</ele>
      <time>2013-03-29T11:07:14Z</time>
    </trkpt>
    <trkpt lat="57.805294991" lon="11.835945994">
      <ele>40.99</ele>
      <time>2013-03-29T11:07:25Z</time>
    </trkpt>
    <trkpt lat="57.805309994" lon="11.835956974">
      <ele>41.95</ele>
      <time>2013-03-29T11:07:27Z</time>
    </trkpt>
    <trkpt lat="57.805421976" lon="11.835993016">
      <ele>42.92</ele>
      <time>2013-03-29T11:07:34Z</time>
    </trkpt>
    <trkpt lat="57.805543011" lon="11.836037021">
      <ele>43.4</ele>
      <time>2013-03-29T11:07:42Z</time>
    </trkpt>
    <trkpt lat="57.805768987" lon="11.836123019">
      <ele>43.4</ele>
      <time>2013-03-29T11:07:52Z</time>
    </trkpt>
    <trkpt lat="57.805792037" lon="11.836160989">
      <ele>43.4</ele>
      <time>2013-03-29T11:07:54Z</time>
    </trkpt>
    <trkpt lat="57.805833025" lon="11.836223016">
      <ele>43.4</ele>
      <time>2013-03-29T11:07:57Z</time>
    </trkpt>
    <trkpt lat="57.805939978" lon="11.836325023">
      <ele>45.32</ele>
      <time>2013-03-29T11:08:06Z</time>
    </trkpt>
    <trkpt lat="57.805973003" lon="11.836467013">
      <ele>46.28</ele>
      <time>2013-03-29T11:08:15Z</time>
    </trkpt>
    <trkpt lat="57.806008961" lon="11.836519986">
      <ele>45.32</ele>
      <time>2013-03-29T11:08:25Z</time>
    </trkpt>
    <trkpt lat="57.806031005" lon="11.836532978">
      <ele>46.28</ele>
      <time>2013-03-29T11:08:35Z</time>
    </trkpt>
    <trkpt lat="57.806045003" lon="11.836568015">
      <ele>45.32</ele>
      <time>2013-03-29T11:08:49Z</time>
    </trkpt>
    <trkpt lat="57.806083979" lon="11.836599028">
      <ele>46.76</ele>
      <time>2013-03-29T11:09:00Z</time>
    </trkpt>
    <trkpt lat="57.806126978" lon="11.836641021">
      <ele>47.24</ele>
      <time>2013-03-29T11:09:11Z</time>
    </trkpt>
    <trkpt lat="57.806205014" lon="11.836658036">
      <ele>46.76</ele>
      <time>2013-03-29T11:09:17Z</time>
    </trkpt>
    <trkpt lat="57.806384973" lon="11.836835984">
      <ele>47.72</ele>
      <time>2013-03-29T11:09:26Z</time>
    </trkpt>
    <trkpt lat="57.806530986" lon="11.836972022">
      <ele>48.2</ele>
      <time>2013-03-29T11:09:34Z</time>
    </trkpt>
    <trkpt lat="57.806599969" lon="11.837044023">
      <ele>48.2</ele>
      <time>2013-03-29T11:09:43Z</time>
    </trkpt>
    <trkpt lat="57.806625031" lon="11.837087022">
      <ele>48.68</ele>
      <time>2013-03-29T11:09:58Z</time>
    </trkpt>
    <trkpt lat="57.806696026" lon="11.837214008">
      <ele>50.61</ele>
      <time>2013-03-29T11:10:05Z</time>
    </trkpt>
    <trkpt lat="57.806707006" lon="11.837233035">
      <ele>50.13</ele>
      <time>2013-03-29T11:10:08Z</time>
    </trkpt>
    <trkpt lat="57.806797028" lon="11.837360021">
      <ele>51.57</ele>
      <time>2013-03-29T11:10:16Z</time>
    </trkpt>
    <trkpt lat="57.806939017" lon="11.837439984">
      <ele>50.13</ele>
      <time>2013-03-29T11:10:23Z</time>
    </trkpt>
    <trkpt lat="57.806958966" lon="11.837449959">
      <ele>49.16</ele>
      <time>2013-03-29T11:10:24Z</time>
    </trkpt>
    <trkpt lat="57.807059968" lon="11.837533023">
      <ele>49.65</ele>
      <time>2013-03-29T11:10:29Z</time>
    </trkpt>
    <trkpt lat="57.807162981" lon="11.837458005">
      <ele>48.2</ele>
      <time>2013-03-29T11:10:33Z</time>
    </trkpt>
    <trkpt lat="57.807345958" lon="11.837417018">
      <ele>46.28</ele>
      <time>2013-03-29T11:10:37Z</time>
    </trkpt>
    <trkpt lat="57.807563972" lon="11.837411989">
      <ele>44.36</ele>
      <time>2013-03-29T11:10:41Z</time>
    </trkpt>
    <trkpt lat="57.807853986" lon="11.837607035">
      <ele>44.36</ele>
      <time>2013-03-29T11:10:48Z</time>
    </trkpt>
    <trkpt lat="57.808099994" lon="11.837855978">
      <ele>41.95</ele>
      <time>2013-03-29T11:10:55Z</time>
    </trkpt>
    <trkpt lat="57.808131007" lon="11.837876011">
      <ele>41.95</ele>
      <time>2013-03-29T11:10:56Z</time>
    </trkpt>
    <trkpt lat="57.80822698" lon="11.837863019">
      <ele>41.95</ele>
      <time>2013-03-29T11:10:59Z</time>
    </trkpt>
    <trkpt lat="57.808376011" lon="11.837738967">
      <ele>40.51</ele>
      <time>2013-03-29T11:11:07Z</time>
    </trkpt>
    <trkpt lat="57.808504002" lon="11.837720023">
      <ele>38.11</ele>
      <time>2013-03-29T11:11:13Z</time>
    </trkpt>
    <trkpt lat="57.80857902" lon="11.837664032">
      <ele>37.15</ele>
      <time>2013-03-29T11:11:17Z</time>
    </trkpt>
    <trkpt lat="57.808642974" lon="11.83755096">
      <ele>37.15</ele>
      <time>2013-03-29T11:11:21Z</time>
    </trkpt>
    <trkpt lat="57.808708018" lon="11.837483989">
      <ele>35.23</ele>
      <time>2013-03-29T11:11:23Z</time>
    </trkpt>
    <trkpt lat="57.808735007" lon="11.837448031">
      <ele>34.26</ele>
      <time>2013-03-29T11:11:25Z</time>
    </trkpt>
    <trkpt lat="57.808714975" lon="11.837386005">
      <ele>34.26</ele>
      <time>2013-03-29T11:11:30Z</time>
    </trkpt>
    <trkpt lat="57.808692008" lon="11.837300006">
      <ele>34.74</ele>
      <time>2013-03-29T11:11:34Z</time>
    </trkpt>
    <trkpt lat="57.808665019" lon="11.837248961">
      <ele>34.74</ele>
      <time>2013-03-29T11:11:37Z</time>
    </trkpt>
    <trkpt lat="57.808623025" lon="11.836966993">
      <ele>34.74</ele>
      <time>2013-03-29T11:11:46Z</time>
    </trkpt>
    <trkpt lat="57.808482964" lon="11.836476987">
      <ele>35.23</ele>
      <time>2013-03-29T11:11:56Z</time>
    </trkpt>
    <trkpt lat="57.80826604" lon="11.836040961">
      <ele>35.71</ele>
      <time>2013-03-29T11:12:06Z</time>
    </trkpt>
    <trkpt lat="57.808116004" lon="11.835762011">
      <ele>36.67</ele>
      <time>2013-03-29T11:12:13Z</time>
    </trkpt>
    <trkpt lat="57.807929004" lon="11.835403014">
      <ele>38.11</ele>
      <time>2013-03-29T11:12:22Z</time>
    </trkpt>
    <trkpt lat="57.807651982" lon="11.834893981">
      <ele>38.11</ele>
      <time>2013-03-29T11:12:33Z</time>
    </trkpt>
    <trkpt lat="57.807411002" lon="11.834567003">
      <ele>39.55</ele>
      <time>2013-03-29T11:12:41Z</time>
    </trkpt>
    <trkpt lat="57.807300026" lon="11.834299034">
      <ele>40.99</ele>
      <time>2013-03-29T11:12:47Z</time>
    </trkpt>
    <trkpt lat="57.807288039" lon="11.834266009">
      <ele>40.03</ele>
      <time>2013-03-29T11:12:48Z</time>
    </trkpt>
    <trkpt lat="57.807230959" lon="11.834143968">
      <ele>40.51</ele>
      <time>2013-03-29T11:12:52Z</time>
    </trkpt>
    <trkpt lat="57.807088969" lon="11.833932996">
      <ele>41.47</ele>
      <time>2013-03-29T11:12:58Z</time>
    </trkpt>
    <trkpt lat="57.807058962" lon="11.833869964">
      <ele>40.99</ele>
      <time>2013-03-29T11:12:59Z</time>
    </trkpt>
    <trkpt lat="57.807029039" lon="11.83379503">
      <ele>40.51</ele>
      <time>2013-03-29T11:13:00Z</time>
    </trkpt>
    <trkpt lat="57.806956032" lon="11.833642982">
      <ele>39.07</ele>
      <time>2013-03-29T11:13:02Z</time>
    </trkpt>
    <trkpt lat="57.806911021" lon="11.833578022">
      <ele>39.07</ele>
      <time>2013-03-29T11:13:03Z</time>
    </trkpt>
    <trkpt lat="57.806870034" lon="11.833515996">
      <ele>39.07</ele>
      <time>2013-03-29T11:13:04Z</time>
    </trkpt>
    <trkpt lat="57.806656966" lon="11.833220031">
      <ele>38.59</ele>
      <time>2013-03-29T11:13:09Z</time>
    </trkpt>
    <trkpt lat="57.80659603" lon="11.833186001">
      <ele>37.15</ele>
      <time>2013-03-29T11:13:10Z</time>
    </trkpt>
    <trkpt lat="57.806535009" lon="11.833160017">
      <ele>38.11</ele>
      <time>2013-03-29T11:13:11Z</time>
    </trkpt>
    <trkpt lat="57.80648103" lon="11.833134033">
      <ele>38.11</ele>
      <time>2013-03-29T11:13:12Z</time>
    </trkpt>
    <trkpt lat="57.806436019" lon="11.833091034">
      <ele>37.15</ele>
      <time>2013-03-29T11:13:13Z</time>
    </trkpt>
    <trkpt lat="57.806395032" lon="11.833032025">
      <ele>37.15</ele>
      <time>2013-03-29T11:13:14Z</time>
    </trkpt>
    <trkpt lat="57.806355972" lon="11.832968993">
      <ele>36.67</ele>
      <time>2013-03-29T11:13:15Z</time>
    </trkpt>
    <trkpt lat="57.806250025" lon="11.832807977">
      <ele>38.11</ele>
      <time>2013-03-29T11:13:18Z</time>
    </trkpt>
    <trkpt lat="57.806181042" lon="11.83272399">
      <ele>37.15</ele>
      <time>2013-03-29T11:13:20Z</time>
    </trkpt>
    <trkpt lat="57.80613997" lon="11.83268996">
      <ele>37.63</ele>
      <time>2013-03-29T11:13:21Z</time>
    </trkpt>
    <trkpt lat="57.806098983" lon="11.832665987">
      <ele>37.63</ele>
      <time>2013-03-29T11:13:22Z</time>
    </trkpt>
    <trkpt lat="57.806010973" lon="11.832612008">
      <ele>37.63</ele>
      <time>2013-03-29T11:13:24Z</time>
    </trkpt>
    <trkpt lat="57.805842999" lon="11.832385026">
      <ele>38.59</ele>
      <time>2013-03-29T11:13:32Z</time>
    </trkpt>
    <trkpt lat="57.805664968" lon="11.832248988">
      <ele>39.07</ele>
      <time>2013-03-29T11:13:41Z</time>
    </trkpt>
    <trkpt lat="57.805646025" lon="11.832228033">
      <ele>38.59</ele>
      <time>2013-03-29T11:13:42Z</time>
    </trkpt>
    <trkpt lat="57.805631021" lon="11.832200959">
      <ele>38.11</ele>
      <time>2013-03-29T11:13:43Z</time>
    </trkpt>
    <trkpt lat="57.805620041" lon="11.832163995">
      <ele>38.11</ele>
      <time>2013-03-29T11:13:44Z</time>
    </trkpt>
    <trkpt lat="57.805610988" lon="11.832124013">
      <ele>38.11</ele>
      <time>2013-03-29T11:13:45Z</time>
    </trkpt>
    <trkpt lat="57.805565977" lon="11.832001973">
      <ele>37.15</ele>
      <time>2013-03-29T11:13:49Z</time>
    </trkpt>
    <trkpt lat="57.805552986" lon="11.831984036">
      <ele>38.11</ele>
      <time>2013-03-29T11:13:50Z</time>
    </trkpt>
    <trkpt lat="57.805540999" lon="11.83195998">
      <ele>38.11</ele>
      <time>2013-03-29T11:13:51Z</time>
    </trkpt>
    <trkpt lat="57.805530019" lon="11.831940031">
      <ele>37.63</ele>
      <time>2013-03-29T11:13:52Z</time>
    </trkpt>
    <trkpt lat="57.805518033" lon="11.83191698">
      <ele>38.11</ele>
      <time>2013-03-29T11:13:53Z</time>
    </trkpt>
    <trkpt lat="57.805505963" lon="11.831894014">
      <ele>38.59</ele>
      <time>2013-03-29T11:13:54Z</time>
    </trkpt>
    <trkpt lat="57.805427006" lon="11.831739033">
      <ele>39.55</ele>
      <time>2013-03-29T11:14:00Z</time>
    </trkpt>
    <trkpt lat="57.805418959" lon="11.831706008">
      <ele>39.07</ele>
      <time>2013-03-29T11:14:01Z</time>
    </trkpt>
    <trkpt lat="57.80540999" lon="11.831677007">
      <ele>38.59</ele>
      <time>2013-03-29T11:14:02Z</time>
    </trkpt>
    <trkpt lat="57.805403033" lon="11.831648005">
      <ele>39.07</ele>
      <time>2013-03-29T11:14:03Z</time>
    </trkpt>
    <trkpt lat="57.805395992" lon="11.831610035">
      <ele>38.59</ele>
      <time>2013-03-29T11:14:04Z</time>
    </trkpt>
    <trkpt lat="57.805383001" lon="11.831580028">
      <ele>39.55</ele>
      <time>2013-03-29T11:14:05Z</time>
    </trkpt>
    <trkpt lat="57.805364979" lon="11.831553038">
      <ele>39.55</ele>
      <time>2013-03-29T11:14:06Z</time>
    </trkpt>
    <trkpt lat="57.805343019" lon="11.831525965">
      <ele>40.03</ele>
      <time>2013-03-29T11:14:07Z</time>
    </trkpt>
    <trkpt lat="57.805323992" lon="11.831498975">
      <ele>38.11</ele>
      <time>2013-03-29T11:14:08Z</time>
    </trkpt>
    <trkpt lat="57.805315023" lon="11.831462011">
      <ele>38.11</ele>
      <time>2013-03-29T11:14:09Z</time>
    </trkpt>
    <trkpt lat="57.805306977" lon="11.831426974">
      <ele>38.59</ele>
      <time>2013-03-29T11:14:10Z</time>
    </trkpt>
    <trkpt lat="57.805298008" lon="11.831395961">
      <ele>38.59</ele>
      <time>2013-03-29T11:14:11Z</time>
    </trkpt>
    <trkpt lat="57.805286022" lon="11.83136696">
      <ele>38.59</ele>
      <time>2013-03-29T11:14:12Z</time>
    </trkpt>
    <trkpt lat="57.805274036" lon="11.831343994">
      <ele>39.07</ele>
      <time>2013-03-29T11:14:13Z</time>
    </trkpt>
    <trkpt lat="57.805257021" lon="11.831324967">
      <ele>39.07</ele>
      <time>2013-03-29T11:14:14Z</time>
    </trkpt>
    <trkpt lat="57.805240005" lon="11.831306024">
      <ele>38.59</ele>
      <time>2013-03-29T11:14:15Z</time>
    </trkpt>
    <trkpt lat="57.805228019" lon="11.831288002">
      <ele>39.07</ele>
      <time>2013-03-29T11:14:16Z</time>
    </trkpt>
    <trkpt lat="57.805213016" lon="11.831272999">
      <ele>40.03</ele>
      <time>2013-03-29T11:14:17Z</time>
    </trkpt>
    <trkpt lat="57.805190971" lon="11.831242992">
      <ele>40.03</ele>
      <time>2013-03-29T11:14:18Z</time>
    </trkpt>
    <trkpt lat="57.805168005" lon="11.831233017">
      <ele>40.03</ele>
      <time>2013-03-29T11:14:19Z</time>
    </trkpt>
    <trkpt lat="57.805151995" lon="11.831208961">
      <ele>40.99</ele>
      <time>2013-03-29T11:14:20Z</time>
    </trkpt>
    <trkpt lat="57.805136992" lon="11.831193035">
      <ele>40.51</ele>
      <time>2013-03-29T11:14:21Z</time>
    </trkpt>
    <trkpt lat="57.805121988" lon="11.831167974">
      <ele>40.99</ele>
      <time>2013-03-29T11:14:22Z</time>
    </trkpt>
    <trkpt lat="57.805108996" lon="11.831139978">
      <ele>40.51</ele>
      <time>2013-03-29T11:14:23Z</time>
    </trkpt>
    <trkpt lat="57.805099022" lon="11.831120029">
      <ele>40.99</ele>
      <time>2013-03-29T11:14:24Z</time>
    </trkpt>
    <trkpt lat="57.805087036" lon="11.831108965">
      <ele>41.47</ele>
      <time>2013-03-29T11:14:25Z</time>
    </trkpt>
    <trkpt lat="57.805075971" lon="11.831105025">
      <ele>40.51</ele>
      <time>2013-03-29T11:14:26Z</time>
    </trkpt>
    <trkpt lat="57.805062979" lon="11.831096979">
      <ele>40.99</ele>
      <time>2013-03-29T11:14:27Z</time>
    </trkpt>
    <trkpt lat="57.805044958" lon="11.831079042">
      <ele>41.95</ele>
      <time>2013-03-29T11:14:28Z</time>
    </trkpt>
    <trkpt lat="57.805027021" lon="11.831055991">
      <ele>42.44</ele>
      <time>2013-03-29T11:14:29Z</time>
    </trkpt>
    <trkpt lat="57.805007994" lon="11.831039982">
      <ele>41.47</ele>
      <time>2013-03-29T11:14:30Z</time>
    </trkpt>
    <trkpt lat="57.804997014" lon="11.831021961">
      <ele>41.95</ele>
      <time>2013-03-29T11:14:31Z</time>
    </trkpt>
    <trkpt lat="57.804988967" lon="11.831007041">
      <ele>42.44</ele>
      <time>2013-03-29T11:14:32Z</time>
    </trkpt>
    <trkpt lat="57.804987961" lon="11.83098902">
      <ele>41.95</ele>
      <time>2013-03-29T11:14:33Z</time>
    </trkpt>
    <trkpt lat="57.804983016" lon="11.830960019">
      <ele>42.92</ele>
      <time>2013-03-29T11:14:35Z</time>
    </trkpt>
    <trkpt lat="57.804950997" lon="11.830777042">
      <ele>43.4</ele>
      <time>2013-03-29T11:14:44Z</time>
    </trkpt>
    <trkpt lat="57.804950997" lon="11.830777042">
      <ele>43.4</ele>
      <time>2013-03-29T11:14:48Z</time>
    </trkpt>
    <trkpt lat="57.804940017" lon="11.830670005">
      <ele>42.44</ele>
      <time>2013-03-29T11:14:51Z</time>
    </trkpt>
    <trkpt lat="57.804855024" lon="11.830461966">
      <ele>42.92</ele>
      <time>2013-03-29T11:14:59Z</time>
    </trkpt>
    <trkpt lat="57.804781012" lon="11.830321988">
      <ele>41.95</ele>
      <time>2013-03-29T11:15:06Z</time>
    </trkpt>
    <trkpt lat="57.804752011" lon="11.830152003">
      <ele>42.92</ele>
      <time>2013-03-29T11:15:11Z</time>
    </trkpt>
    <trkpt lat="57.804670036" lon="11.829937007">
      <ele>40.51</ele>
      <time>2013-03-29T11:15:16Z</time>
    </trkpt>
    <trkpt lat="57.804501979" lon="11.829644982">
      <ele>39.07</ele>
      <time>2013-03-29T11:15:24Z</time>
    </trkpt>
    <trkpt lat="57.804395026" lon="11.829322027">
      <ele>38.59</ele>
      <time>2013-03-29T11:15:33Z</time>
    </trkpt>
    <trkpt lat="57.804373987" lon="11.829249021">
      <ele>38.11</ele>
      <time>2013-03-29T11:15:35Z</time>
    </trkpt>
    <trkpt lat="57.804274997" lon="11.828948027">
      <ele>39.55</ele>
      <time>2013-03-29T11:15:44Z</time>
    </trkpt>
    <trkpt lat="57.804225041" lon="11.828680979">
      <ele>39.55</ele>
      <time>2013-03-29T11:15:51Z</time>
    </trkpt>
    <trkpt lat="57.804184975" lon="11.828502025">
      <ele>37.63</ele>
      <time>2013-03-29T11:15:55Z</time>
    </trkpt>
    <trkpt lat="57.804245995" lon="11.828344027">
      <ele>36.19</ele>
      <time>2013-03-29T11:16:00Z</time>
    </trkpt>
    <trkpt lat="57.804257981" lon="11.828317037">
      <ele>35.71</ele>
      <time>2013-03-29T11:16:01Z</time>
    </trkpt>
    <trkpt lat="57.804295029" lon="11.828160966">
      <ele>36.67</ele>
      <time>2013-03-29T11:16:06Z</time>
    </trkpt>
    <trkpt lat="57.804295029" lon="11.828007996">
      <ele>37.63</ele>
      <time>2013-03-29T11:16:09Z</time>
    </trkpt>
    <trkpt lat="57.804286983" lon="11.827967009">
      <ele>37.15</ele>
      <time>2013-03-29T11:16:10Z</time>
    </trkpt>
    <trkpt lat="57.804248007" lon="11.827869024">
      <ele>37.15</ele>
      <time>2013-03-29T11:16:13Z</time>
    </trkpt>
    <trkpt lat="57.804186987" lon="11.827526959">
      <ele>37.15</ele>
      <time>2013-03-29T11:16:21Z</time>
    </trkpt>
    <trkpt lat="57.804166032" lon="11.827464011">
      <ele>37.15</ele>
      <time>2013-03-29T11:16:23Z</time>
    </trkpt>
    <trkpt lat="57.80405296" lon="11.827308023">
      <ele>36.67</ele>
      <time>2013-03-29T11:16:32Z</time>
    </trkpt>
    <trkpt lat="57.804034017" lon="11.82729302">
      <ele>36.19</ele>
      <time>2013-03-29T11:16:33Z</time>
    </trkpt>
    <trkpt lat="57.803885993" lon="11.826909967">
      <ele>36.19</ele>
      <time>2013-03-29T11:16:42Z</time>
    </trkpt>
    <trkpt lat="57.803879036" lon="11.826838972">
      <ele>36.67</ele>
      <time>2013-03-29T11:16:43Z</time>
    </trkpt>
    <trkpt lat="57.803690024" lon="11.82641401">
      <ele>37.15</ele>
      <time>2013-03-29T11:16:52Z</time>
    </trkpt>
    <trkpt lat="57.803649958" lon="11.826228015">
      <ele>37.15</ele>
      <time>2013-03-29T11:16:55Z</time>
    </trkpt>
    <trkpt lat="57.803654987" lon="11.826071022">
      <ele>37.15</ele>
      <time>2013-03-29T11:17:00Z</time>
    </trkpt>
    <trkpt lat="57.803770993" lon="11.825838005">
      <ele>38.59</ele>
      <time>2013-03-29T11:17:09Z</time>
    </trkpt>
    <trkpt lat="57.803779962" lon="11.82581001">
      <ele>40.03</ele>
      <time>2013-03-29T11:17:10Z</time>
    </trkpt>
    <trkpt lat="57.803880041" lon="11.825669026">
      <ele>40.51</ele>
      <time>2013-03-29T11:17:19Z</time>
    </trkpt>
    <trkpt lat="57.803935027" lon="11.825626027">
      <ele>41.47</ele>
      <time>2013-03-29T11:17:27Z</time>
    </trkpt>
    <trkpt lat="57.803935027" lon="11.825626027">
      <ele>40.03</ele>
      <time>2013-03-29T11:18:04Z</time>
    </trkpt>
    <trkpt lat="57.80406897" lon="11.82558001">
      <ele>41.95</ele>
      <time>2013-03-29T11:18:12Z</time>
    </trkpt>
    <trkpt lat="57.80408104" lon="11.825574981">
      <ele>42.44</ele>
      <time>2013-03-29T11:18:13Z</time>
    </trkpt>
    <trkpt lat="57.804101994" lon="11.825351017">
      <ele>41.47</ele>
      <time>2013-03-29T11:18:19Z</time>
    </trkpt>
    <trkpt lat="57.804116998" lon="11.825182959">
      <ele>40.51</ele>
      <time>2013-03-29T11:18:23Z</time>
    </trkpt>
    <trkpt lat="57.804282038" lon="11.825241968">
      <ele>39.07</ele>
      <time>2013-03-29T11:18:30Z</time>
    </trkpt>
    <trkpt lat="57.804312967" lon="11.825256972">
      <ele>39.55</ele>
      <time>2013-03-29T11:18:31Z</time>
    </trkpt>
    <trkpt lat="57.804480018" lon="11.825194024">
      <ele>41.47</ele>
      <time>2013-03-29T11:18:39Z</time>
    </trkpt>
    <trkpt lat="57.804622008" lon="11.825197041">
      <ele>41.47</ele>
      <time>2013-03-29T11:18:45Z</time>
    </trkpt>
    <trkpt lat="57.804814037" lon="11.824858999">
      <ele>42.44</ele>
      <time>2013-03-29T11:18:54Z</time>
    </trkpt>
    <trkpt lat="57.804972036" lon="11.82438802">
      <ele>41.47</ele>
      <time>2013-03-29T11:19:03Z</time>
    </trkpt>
    <trkpt lat="57.805017969" lon="11.824295986">
      <ele>40.99</ele>
      <time>2013-03-29T11:19:06Z</time>
    </trkpt>
    <trkpt lat="57.805013023" lon="11.824218035">
      <ele>39.07</ele>
      <time>2013-03-29T11:19:16Z</time>
    </trkpt>
    <trkpt lat="57.805016963" lon="11.824166989">
      <ele>40.03</ele>
      <time>2013-03-29T11:19:31Z</time>
    </trkpt>
    <trkpt lat="57.805011012" lon="11.824122984">
      <ele>40.03</ele>
      <time>2013-03-29T11:19:42Z</time>
    </trkpt>
    <trkpt lat="57.804988967" lon="11.823942019">
      <ele>40.99</ele>
      <time>2013-03-29T11:19:52Z</time>
    </trkpt>
    <trkpt lat="57.804941023" lon="11.823786031">
      <ele>42.44</ele>
      <time>2013-03-29T11:19:57Z</time>
    </trkpt>
    <trkpt lat="57.804929037" lon="11.823719982">
      <ele>42.44</ele>
      <time>2013-03-29T11:19:59Z</time>
    </trkpt>
    <trkpt lat="57.804814959" lon="11.823385963">
      <ele>42.44</ele>
      <time>2013-03-29T11:20:09Z</time>
    </trkpt>
    <trkpt lat="57.804700965" lon="11.823089998">
      <ele>41.47</ele>
      <time>2013-03-29T11:20:16Z</time>
    </trkpt>
    <trkpt lat="57.804651009" lon="11.823044987">
      <ele>41.47</ele>
      <time>2013-03-29T11:20:18Z</time>
    </trkpt>
    <trkpt lat="57.804570962" lon="11.822794033">
      <ele>42.44</ele>
      <time>2013-03-29T11:20:25Z</time>
    </trkpt>
    <trkpt lat="57.804553024" lon="11.822696971">
      <ele>41.95</ele>
      <time>2013-03-29T11:20:28Z</time>
    </trkpt>
    <trkpt lat="57.804514971" lon="11.822596975">
      <ele>40.99</ele>
      <time>2013-03-29T11:20:31Z</time>
    </trkpt>
    <trkpt lat="57.80443199" lon="11.82206003">
      <ele>40.03</ele>
      <time>2013-03-29T11:20:40Z</time>
    </trkpt>
    <trkpt lat="57.804441964" lon="11.821969002">
      <ele>39.07</ele>
      <time>2013-03-29T11:20:41Z</time>
    </trkpt>
    <trkpt lat="57.804450011" lon="11.821870012">
      <ele>39.55</ele>
      <time>2013-03-29T11:20:42Z</time>
    </trkpt>
    <trkpt lat="57.80445504" lon="11.821777979">
      <ele>39.07</ele>
      <time>2013-03-29T11:20:43Z</time>
    </trkpt>
    <trkpt lat="57.804455962" lon="11.821712013">
      <ele>39.55</ele>
      <time>2013-03-29T11:20:44Z</time>
    </trkpt>
    <trkpt lat="57.804455962" lon="11.821665997">
      <ele>40.03</ele>
      <time>2013-03-29T11:20:45Z</time>
    </trkpt>
    <trkpt lat="57.804452023" lon="11.821630038">
      <ele>40.51</ele>
      <time>2013-03-29T11:20:46Z</time>
    </trkpt>
    <trkpt lat="57.804451017" lon="11.821583016">
      <ele>40.51</ele>
      <time>2013-03-29T11:20:47Z</time>
    </trkpt>
    <trkpt lat="57.80445504" lon="11.821538005">
      <ele>41.47</ele>
      <time>2013-03-29T11:20:48Z</time>
    </trkpt>
    <trkpt lat="57.804428972" lon="11.821383024">
      <ele>41.47</ele>
      <time>2013-03-29T11:20:53Z</time>
    </trkpt>
    <trkpt lat="57.804305004" lon="11.821142966">
      <ele>40.51</ele>
      <time>2013-03-29T11:20:59Z</time>
    </trkpt>
    <trkpt lat="57.804222023" lon="11.820940962">
      <ele>39.55</ele>
      <time>2013-03-29T11:21:04Z</time>
    </trkpt>
    <trkpt lat="57.804138036" lon="11.820654972">
      <ele>40.03</ele>
      <time>2013-03-29T11:21:12Z</time>
    </trkpt>
    <trkpt lat="57.804051032" lon="11.820391025">
      <ele>40.99</ele>
      <time>2013-03-29T11:21:19Z</time>
    </trkpt>
    <trkpt lat="57.803990012" lon="11.820273008">
      <ele>40.51</ele>
      <time>2013-03-29T11:21:23Z</time>
    </trkpt>
    <trkpt lat="57.803961011" lon="11.820245013">
      <ele>40.51</ele>
      <time>2013-03-29T11:21:25Z</time>
    </trkpt>
    <trkpt lat="57.803837964" lon="11.819904037">
      <ele>40.99</ele>
      <time>2013-03-29T11:21:34Z</time>
    </trkpt>
    <trkpt lat="57.803789014" lon="11.819740003">
      <ele>40.03</ele>
      <time>2013-03-29T11:21:38Z</time>
    </trkpt>
    <trkpt lat="57.803686" lon="11.819633972">
      <ele>40.03</ele>
      <time>2013-03-29T11:21:46Z</time>
    </trkpt>
    <trkpt lat="57.803676026" lon="11.819630032">
      <ele>40.03</ele>
      <time>2013-03-29T11:21:47Z</time>
    </trkpt>
    <trkpt lat="57.803592961" lon="11.81955996">
      <ele>41.47</ele>
      <time>2013-03-29T11:21:54Z</time>
    </trkpt>
    <trkpt lat="57.803579969" lon="11.819550991">
      <ele>41.47</ele>
      <time>2013-03-29T11:21:55Z</time>
    </trkpt>
    <trkpt lat="57.80341099" lon="11.819310011">
      <ele>42.44</ele>
      <time>2013-03-29T11:22:04Z</time>
    </trkpt>
    <trkpt lat="57.803343013" lon="11.819251003">
      <ele>44.36</ele>
      <time>2013-03-29T11:22:09Z</time>
    </trkpt>
    <trkpt lat="57.803313006" lon="11.819235999">
      <ele>43.4</ele>
      <time>2013-03-29T11:22:11Z</time>
    </trkpt>
    <trkpt lat="57.803243017" lon="11.819146983">
      <ele>46.28</ele>
      <time>2013-03-29T11:22:17Z</time>
    </trkpt>
    <trkpt lat="57.803202029" lon="11.818947997">
      <ele>45.8</ele>
      <time>2013-03-29T11:22:25Z</time>
    </trkpt>
    <trkpt lat="57.803179985" lon="11.818848001">
      <ele>45.8</ele>
      <time>2013-03-29T11:22:29Z</time>
    </trkpt>
    <trkpt lat="57.803161042" lon="11.818800978">
      <ele>46.76</ele>
      <time>2013-03-29T11:22:31Z</time>
    </trkpt>
    <trkpt lat="57.803138997" lon="11.818728978">
      <ele>47.24</ele>
      <time>2013-03-29T11:22:35Z</time>
    </trkpt>
    <trkpt lat="57.803101027" lon="11.81867701">
      <ele>48.2</ele>
      <time>2013-03-29T11:22:39Z</time>
    </trkpt>
    <trkpt lat="57.803082" lon="11.818642979">
      <ele>48.2</ele>
      <time>2013-03-29T11:22:50Z</time>
    </trkpt>
    <trkpt lat="57.803082" lon="11.818642979">
      <ele>47.24</ele>
      <time>2013-03-29T11:22:55Z</time>
    </trkpt>
    <trkpt lat="57.803080995" lon="11.818596963">
      <ele>46.76</ele>
      <time>2013-03-29T11:22:58Z</time>
    </trkpt>
    <trkpt lat="57.803005977" lon="11.818380961">
      <ele>47.72</ele>
      <time>2013-03-29T11:23:06Z</time>
    </trkpt>
    <trkpt lat="57.802847978" lon="11.81808902">
      <ele>49.16</ele>
      <time>2013-03-29T11:23:16Z</time>
    </trkpt>
    <trkpt lat="57.802799027" lon="11.81781996">
      <ele>47.24</ele>
      <time>2013-03-29T11:23:24Z</time>
    </trkpt>
    <trkpt lat="57.802772038" lon="11.817507986">
      <ele>48.68</ele>
      <time>2013-03-29T11:23:32Z</time>
    </trkpt>
    <trkpt lat="57.802762985" lon="11.817441015">
      <ele>47.72</ele>
      <time>2013-03-29T11:23:35Z</time>
    </trkpt>
    <trkpt lat="57.802795004" lon="11.81735904">
      <ele>47.24</ele>
      <time>2013-03-29T11:23:39Z</time>
    </trkpt>
    <trkpt lat="57.802855019" lon="11.817234987">
      <ele>48.68</ele>
      <time>2013-03-29T11:23:49Z</time>
    </trkpt>
    <trkpt lat="57.802855019" lon="11.817234987">
      <ele>49.16</ele>
      <time>2013-03-29T11:24:01Z</time>
    </trkpt>
    <trkpt lat="57.802855019" lon="11.817234987">
      <ele>51.57</ele>
      <time>2013-03-29T11:24:13Z</time>
    </trkpt>
    <trkpt lat="57.802874967" lon="11.817144966">
      <ele>53.01</ele>
      <time>2013-03-29T11:24:21Z</time>
    </trkpt>
    <trkpt lat="57.802882008" lon="11.817131974">
      <ele>52.53</ele>
      <time>2013-03-29T11:24:23Z</time>
    </trkpt>
    <trkpt lat="57.802883014" lon="11.816964">
      <ele>52.53</ele>
      <time>2013-03-29T11:24:30Z</time>
    </trkpt>
    <trkpt lat="57.802944034" lon="11.816710029">
      <ele>53.01</ele>
      <time>2013-03-29T11:24:35Z</time>
    </trkpt>
    <trkpt lat="57.802989967" lon="11.816560999">
      <ele>52.05</ele>
      <time>2013-03-29T11:24:42Z</time>
    </trkpt>
    <trkpt lat="57.802988039" lon="11.816542977">
      <ele>53.49</ele>
      <time>2013-03-29T11:25:04Z</time>
    </trkpt>
    <trkpt lat="57.802988039" lon="11.816542977">
      <ele>51.57</ele>
      <time>2013-03-29T11:25:08Z</time>
    </trkpt>
    <trkpt lat="57.803037995" lon="11.816366035">
      <ele>53.49</ele>
      <time>2013-03-29T11:25:16Z</time>
    </trkpt>
    <trkpt lat="57.803057022" lon="11.81633804">
      <ele>53.49</ele>
      <time>2013-03-29T11:25:19Z</time>
    </trkpt>
    <trkpt lat="57.803080995" lon="11.816339968">
      <ele>54.45</ele>
      <time>2013-03-29T11:25:24Z</time>
    </trkpt>
    <trkpt lat="57.80310899" lon="11.816378022">
      <ele>55.41</ele>
      <time>2013-03-29T11:25:32Z</time>
    </trkpt>
    <trkpt lat="57.803122988" lon="11.816439964">
      <ele>57.34</ele>
      <time>2013-03-29T11:25:35Z</time>
    </trkpt>
    <trkpt lat="57.803202029" lon="11.816543983">
      <ele>57.82</ele>
      <time>2013-03-29T11:25:43Z</time>
    </trkpt>
    <trkpt lat="57.80325802" lon="11.816697037">
      <ele>58.78</ele>
      <time>2013-03-29T11:25:52Z</time>
    </trkpt>
    <trkpt lat="57.803302025" lon="11.816794015">
      <ele>59.26</ele>
      <time>2013-03-29T11:25:57Z</time>
    </trkpt>
    <trkpt lat="57.803411996" lon="11.816940028">
      <ele>58.78</ele>
      <time>2013-03-29T11:26:06Z</time>
    </trkpt>
    <trkpt lat="57.803530013" lon="11.816946985">
      <ele>59.74</ele>
      <time>2013-03-29T11:26:14Z</time>
    </trkpt>
    <trkpt lat="57.803578041" lon="11.816909015">
      <ele>59.26</ele>
      <time>2013-03-29T11:26:18Z</time>
    </trkpt>
    <trkpt lat="57.803592961" lon="11.816883031">
      <ele>61.66</ele>
      <time>2013-03-29T11:26:20Z</time>
    </trkpt>
    <trkpt lat="57.803665968" lon="11.81688102">
      <ele>62.14</ele>
      <time>2013-03-29T11:26:25Z</time>
    </trkpt>
    <trkpt lat="57.803687006" lon="11.816867022">
      <ele>60.7</ele>
      <time>2013-03-29T11:26:27Z</time>
    </trkpt>
    <trkpt lat="57.803765042" lon="11.816850007">
      <ele>61.66</ele>
      <time>2013-03-29T11:26:35Z</time>
    </trkpt>
    <trkpt lat="57.803849028" lon="11.816869034">
      <ele>61.66</ele>
      <time>2013-03-29T11:26:43Z</time>
    </trkpt>
    <trkpt lat="57.803948019" lon="11.816746993">
      <ele>61.66</ele>
      <time>2013-03-29T11:26:50Z</time>
    </trkpt>
    <trkpt lat="57.803966962" lon="11.816723021">
      <ele>62.14</ele>
      <time>2013-03-29T11:26:51Z</time>
    </trkpt>
    <trkpt lat="57.804079028" lon="11.816484975">
      <ele>61.66</ele>
      <time>2013-03-29T11:27:01Z</time>
    </trkpt>
    <trkpt lat="57.80412999" lon="11.816408029">
      <ele>62.14</ele>
      <time>2013-03-29T11:27:05Z</time>
    </trkpt>
    <trkpt lat="57.804193022" lon="11.81629898">
      <ele>62.14</ele>
      <time>2013-03-29T11:27:14Z</time>
    </trkpt>
    <trkpt lat="57.804198973" lon="11.816286994">
      <ele>61.18</ele>
      <time>2013-03-29T11:27:25Z</time>
    </trkpt>
    <trkpt lat="57.804272985" lon="11.816143999">
      <ele>60.22</ele>
      <time>2013-03-29T11:27:31Z</time>
    </trkpt>
    <trkpt lat="57.804330988" lon="11.815999998">
      <ele>58.78</ele>
      <time>2013-03-29T11:27:34Z</time>
    </trkpt>
    <trkpt lat="57.804366024" lon="11.815951969">
      <ele>57.82</ele>
      <time>2013-03-29T11:27:35Z</time>
    </trkpt>
    <trkpt lat="57.804425033" lon="11.815823978">
      <ele>55.89</ele>
      <time>2013-03-29T11:27:37Z</time>
    </trkpt>
    <trkpt lat="57.804594012" lon="11.815282004">
      <ele>52.53</ele>
      <time>2013-03-29T11:27:45Z</time>
    </trkpt>
    <trkpt lat="57.804613039" lon="11.815235987">
      <ele>52.53</ele>
      <time>2013-03-29T11:27:46Z</time>
    </trkpt>
    <trkpt lat="57.804633994" lon="11.815198017">
      <ele>52.53</ele>
      <time>2013-03-29T11:27:47Z</time>
    </trkpt>
    <trkpt lat="57.804616978" lon="11.814874979">
      <ele>50.13</ele>
      <time>2013-03-29T11:27:53Z</time>
    </trkpt>
    <trkpt lat="57.804456968" lon="11.814571973">
      <ele>51.09</ele>
      <time>2013-03-29T11:27:59Z</time>
    </trkpt>
    <trkpt lat="57.80443199" lon="11.814527968">
      <ele>50.61</ele>
      <time>2013-03-29T11:28:00Z</time>
    </trkpt>
    <trkpt lat="57.804339034" lon="11.814074004">
      <ele>51.09</ele>
      <time>2013-03-29T11:28:09Z</time>
    </trkpt>
    <trkpt lat="57.804249013" lon="11.813938972">
      <ele>53.49</ele>
      <time>2013-03-29T11:28:16Z</time>
    </trkpt>
    <trkpt lat="57.804196039" lon="11.813895972">
      <ele>55.41</ele>
      <time>2013-03-29T11:28:26Z</time>
    </trkpt>
    <trkpt lat="57.80414097" lon="11.813791031">
      <ele>54.93</ele>
      <time>2013-03-29T11:28:31Z</time>
    </trkpt>
    <trkpt lat="57.803999986" lon="11.813706961">
      <ele>55.89</ele>
      <time>2013-03-29T11:28:40Z</time>
    </trkpt>
    <trkpt lat="57.803861015" lon="11.813573018">
      <ele>57.82</ele>
      <time>2013-03-29T11:28:50Z</time>
    </trkpt>
    <trkpt lat="57.803793037" lon="11.813366991">
      <ele>58.78</ele>
      <time>2013-03-29T11:28:58Z</time>
    </trkpt>
    <trkpt lat="57.803785997" lon="11.813351987">
      <ele>58.78</ele>
      <time>2013-03-29T11:28:59Z</time>
    </trkpt>
    <trkpt lat="57.803717013" lon="11.813205974">
      <ele>59.74</ele>
      <time>2013-03-29T11:29:08Z</time>
    </trkpt>
    <trkpt lat="57.803668985" lon="11.813229024">
      <ele>60.22</ele>
      <time>2013-03-29T11:29:12Z</time>
    </trkpt>
    <trkpt lat="57.803574018" lon="11.813153001">
      <ele>60.22</ele>
      <time>2013-03-29T11:29:21Z</time>
    </trkpt>
    <trkpt lat="57.803476034" lon="11.813065996">
      <ele>60.22</ele>
      <time>2013-03-29T11:29:29Z</time>
    </trkpt>
    <trkpt lat="57.803352987" lon="11.812890982">
      <ele>60.22</ele>
      <time>2013-03-29T11:29:37Z</time>
    </trkpt>
    <trkpt lat="57.803152995" lon="11.812819988">
      <ele>59.74</ele>
      <time>2013-03-29T11:29:44Z</time>
    </trkpt>
    <trkpt lat="57.803031961" lon="11.812640028">
      <ele>60.7</ele>
      <time>2013-03-29T11:29:51Z</time>
    </trkpt>
    <trkpt lat="57.802826017" lon="11.81256501">
      <ele>61.18</ele>
      <time>2013-03-29T11:29:57Z</time>
    </trkpt>
    <trkpt lat="57.802749993" lon="11.812552018">
      <ele>59.74</ele>
      <time>2013-03-29T11:29:59Z</time>
    </trkpt>
    <trkpt lat="57.80247096" lon="11.812489992">
      <ele>57.82</ele>
      <time>2013-03-29T11:30:04Z</time>
    </trkpt>
    <trkpt lat="57.802412035" lon="11.812483035">
      <ele>56.86</ele>
      <time>2013-03-29T11:30:05Z</time>
    </trkpt>
    <trkpt lat="57.802287983" lon="11.812451016">
      <ele>56.37</ele>
      <time>2013-03-29T11:30:07Z</time>
    </trkpt>
    <trkpt lat="57.801953964" lon="11.812504996">
      <ele>54.45</ele>
      <time>2013-03-29T11:30:13Z</time>
    </trkpt>
    <trkpt lat="57.801626986" lon="11.812451016">
      <ele>52.53</ele>
      <time>2013-03-29T11:30:18Z</time>
    </trkpt>
    <trkpt lat="57.801487008" lon="11.812259993">
      <ele>52.05</ele>
      <time>2013-03-29T11:30:21Z</time>
    </trkpt>
    <trkpt lat="57.801360022" lon="11.811942989">
      <ele>50.13</ele>
      <time>2013-03-29T11:30:25Z</time>
    </trkpt>
    <trkpt lat="57.801177967" lon="11.81149397">
      <ele>50.13</ele>
      <time>2013-03-29T11:30:30Z</time>
    </trkpt>
    <trkpt lat="57.801052993" lon="11.811252991">
      <ele>48.68</ele>
      <time>2013-03-29T11:30:33Z</time>
    </trkpt>
    <trkpt lat="57.800951991" lon="11.810996002">
      <ele>49.16</ele>
      <time>2013-03-29T11:30:36Z</time>
    </trkpt>
    <trkpt lat="57.800768008" lon="11.810569027">
      <ele>47.24</ele>
      <time>2013-03-29T11:30:41Z</time>
    </trkpt>
    <trkpt lat="57.800639011" lon="11.81023702">
      <ele>46.28</ele>
      <time>2013-03-29T11:30:45Z</time>
    </trkpt>
    <trkpt lat="57.800535997" lon="11.810084973">
      <ele>46.28</ele>
      <time>2013-03-29T11:30:48Z</time>
    </trkpt>
    <trkpt lat="57.800430972" lon="11.809815997">
      <ele>45.8</ele>
      <time>2013-03-29T11:30:52Z</time>
    </trkpt>
    <trkpt lat="57.800196027" lon="11.809220966">
      <ele>44.84</ele>
      <time>2013-03-29T11:31:01Z</time>
    </trkpt>
    <trkpt lat="57.800106006" lon="11.808973029">
      <ele>45.32</ele>
      <time>2013-03-29T11:31:07Z</time>
    </trkpt>
    <trkpt lat="57.79996804" lon="11.808685027">
      <ele>44.36</ele>
      <time>2013-03-29T11:31:13Z</time>
    </trkpt>
    <trkpt lat="57.79973804" lon="11.808304992">
      <ele>43.4</ele>
      <time>2013-03-29T11:31:22Z</time>
    </trkpt>
    <trkpt lat="57.799680959" lon="11.808131989">
      <ele>43.4</ele>
      <time>2013-03-29T11:31:29Z</time>
    </trkpt>
    <trkpt lat="57.799672997" lon="11.808107011">
      <ele>42.92</ele>
      <time>2013-03-29T11:31:53Z</time>
    </trkpt>
    <trkpt lat="57.799656987" lon="11.808075998">
      <ele>43.88</ele>
      <time>2013-03-29T11:31:58Z</time>
    </trkpt>
    <trkpt lat="57.799648019" lon="11.808029981">
      <ele>43.4</ele>
      <time>2013-03-29T11:32:00Z</time>
    </trkpt>
    <trkpt lat="57.799604014" lon="11.807921017">
      <ele>42.92</ele>
      <time>2013-03-29T11:32:05Z</time>
    </trkpt>
    <trkpt lat="57.799403016" lon="11.807478033">
      <ele>42.92</ele>
      <time>2013-03-29T11:32:15Z</time>
    </trkpt>
    <trkpt lat="57.799320035" lon="11.807247028">
      <ele>42.44</ele>
      <time>2013-03-29T11:32:20Z</time>
    </trkpt>
    <trkpt lat="57.799160024" lon="11.80717201">
      <ele>41.47</ele>
      <time>2013-03-29T11:32:26Z</time>
    </trkpt>
    <trkpt lat="57.799075032" lon="11.807131022">
      <ele>40.99</ele>
      <time>2013-03-29T11:32:29Z</time>
    </trkpt>
    <trkpt lat="57.798935976" lon="11.80681997">
      <ele>40.03</ele>
      <time>2013-03-29T11:32:35Z</time>
    </trkpt>
    <trkpt lat="57.798820976" lon="11.806648979">
      <ele>39.55</ele>
      <time>2013-03-29T11:32:40Z</time>
    </trkpt>
    <trkpt lat="57.798778983" lon="11.806617966">
      <ele>38.59</ele>
      <time>2013-03-29T11:32:42Z</time>
    </trkpt>
    <trkpt lat="57.798721986" lon="11.806584019">
      <ele>38.11</ele>
      <time>2013-03-29T11:32:52Z</time>
    </trkpt>
    <trkpt lat="57.798721986" lon="11.806584019">
      <ele>38.11</ele>
      <time>2013-03-29T11:32:53Z</time>
    </trkpt>
    <trkpt lat="57.798698014" lon="11.806575973">
      <ele>37.63</ele>
      <time>2013-03-29T11:32:58Z</time>
    </trkpt>
    <trkpt lat="57.798651997" lon="11.806531968">
      <ele>38.59</ele>
      <time>2013-03-29T11:33:05Z</time>
    </trkpt>
    <trkpt lat="57.798531968" lon="11.806491986">
      <ele>40.51</ele>
      <time>2013-03-29T11:33:15Z</time>
    </trkpt>
    <trkpt lat="57.798468014" lon="11.806396013">
      <ele>41.95</ele>
      <time>2013-03-29T11:33:21Z</time>
    </trkpt>
    <trkpt lat="57.798423003" lon="11.806329042">
      <ele>42.92</ele>
      <time>2013-03-29T11:33:25Z</time>
    </trkpt>
    <trkpt lat="57.798369024" lon="11.80627699">
      <ele>41.95</ele>
      <time>2013-03-29T11:33:29Z</time>
    </trkpt>
    <trkpt lat="57.798302975" lon="11.806142041">
      <ele>43.4</ele>
      <time>2013-03-29T11:33:40Z</time>
    </trkpt>
    <trkpt lat="57.798285959" lon="11.806023018">
      <ele>44.36</ele>
      <time>2013-03-29T11:33:47Z</time>
    </trkpt>
    <trkpt lat="57.798285959" lon="11.805970967">
      <ele>43.88</ele>
      <time>2013-03-29T11:33:49Z</time>
    </trkpt>
    <trkpt lat="57.798217982" lon="11.805833001">
      <ele>44.84</ele>
      <time>2013-03-29T11:33:54Z</time>
    </trkpt>
    <trkpt lat="57.798090996" lon="11.805396974">
      <ele>45.8</ele>
      <time>2013-03-29T11:34:06Z</time>
    </trkpt>
    <trkpt lat="57.798008015" lon="11.805164041">
      <ele>44.84</ele>
      <time>2013-03-29T11:34:14Z</time>
    </trkpt>
    <trkpt lat="57.797971973" lon="11.805028003">
      <ele>45.8</ele>
      <time>2013-03-29T11:34:18Z</time>
    </trkpt>
    <trkpt lat="57.797957975" lon="11.804985004">
      <ele>46.76</ele>
      <time>2013-03-29T11:34:19Z</time>
    </trkpt>
    <trkpt lat="57.797914976" lon="11.80474503">
      <ele>46.28</ele>
      <time>2013-03-29T11:34:26Z</time>
    </trkpt>
    <trkpt lat="57.797879018" lon="11.804535985">
      <ele>48.2</ele>
      <time>2013-03-29T11:34:33Z</time>
    </trkpt>
    <trkpt lat="57.797812968" lon="11.804359965">
      <ele>47.72</ele>
      <time>2013-03-29T11:34:42Z</time>
    </trkpt>
    <trkpt lat="57.797797965" lon="11.804303974">
      <ele>48.68</ele>
      <time>2013-03-29T11:34:51Z</time>
    </trkpt>
    <trkpt lat="57.797792014" lon="11.804262986">
      <ele>48.2</ele>
      <time>2013-03-29T11:34:55Z</time>
    </trkpt>
    <trkpt lat="57.797773993" lon="11.804089984">
      <ele>49.16</ele>
      <time>2013-03-29T11:35:02Z</time>
    </trkpt>
    <trkpt lat="57.797778016" lon="11.80401396">
      <ele>49.65</ele>
      <time>2013-03-29T11:35:05Z</time>
    </trkpt>
    <trkpt lat="57.797739962" lon="11.803865014">
      <ele>48.68</ele>
      <time>2013-03-29T11:35:10Z</time>
    </trkpt>
    <trkpt lat="57.797680032" lon="11.803731993">
      <ele>49.16</ele>
      <time>2013-03-29T11:35:15Z</time>
    </trkpt>
    <trkpt lat="57.797609959" lon="11.80354801">
      <ele>48.68</ele>
      <time>2013-03-29T11:35:21Z</time>
    </trkpt>
    <trkpt lat="57.797529995" lon="11.803292027">
      <ele>50.13</ele>
      <time>2013-03-29T11:35:30Z</time>
    </trkpt>
    <trkpt lat="57.797390018" lon="11.802971">
      <ele>49.65</ele>
      <time>2013-03-29T11:35:39Z</time>
    </trkpt>
    <trkpt lat="57.797355987" lon="11.802896988">
      <ele>50.13</ele>
      <time>2013-03-29T11:35:42Z</time>
    </trkpt>
    <trkpt lat="57.79726102" lon="11.802588031">
      <ele>48.68</ele>
      <time>2013-03-29T11:35:50Z</time>
    </trkpt>
    <trkpt lat="57.797242999" lon="11.802478982">
      <ele>49.65</ele>
      <time>2013-03-29T11:35:52Z</time>
    </trkpt>
    <trkpt lat="57.797175022" lon="11.802158039">
      <ele>46.28</ele>
      <time>2013-03-29T11:36:00Z</time>
    </trkpt>
    <trkpt lat="57.797135962" lon="11.801856961">
      <ele>45.32</ele>
      <time>2013-03-29T11:36:09Z</time>
    </trkpt>
    <trkpt lat="57.797132023" lon="11.801821003">
      <ele>45.8</ele>
      <time>2013-03-29T11:36:10Z</time>
    </trkpt>
    <trkpt lat="57.797063962" lon="11.801621011">
      <ele>45.8</ele>
      <time>2013-03-29T11:36:16Z</time>
    </trkpt>
    <trkpt lat="57.796922978" lon="11.801350024">
      <ele>40.99</ele>
      <time>2013-03-29T11:54:10Z</time>
    </trkpt>
    <trkpt lat="57.797003025" lon="11.801391011">
      <ele>40.51</ele>
      <time>2013-03-29T11:58:26Z</time>
    </trkpt>
    <trkpt lat="57.79705801" lon="11.801556973">
      <ele>40.99</ele>
      <time>2013-03-29T11:58:33Z</time>
    </trkpt>
    <trkpt lat="57.797071002" lon="11.801792001">
      <ele>41.47</ele>
      <time>2013-03-29T11:58:41Z</time>
    </trkpt>
    <trkpt lat="57.797088018" lon="11.801954024">
      <ele>42.44</ele>
      <time>2013-03-29T11:58:47Z</time>
    </trkpt>
    <trkpt lat="57.797090029" lon="11.802105987">
      <ele>43.4</ele>
      <time>2013-03-29T11:58:53Z</time>
    </trkpt>
    <trkpt lat="57.797131017" lon="11.80219098">
      <ele>42.92</ele>
      <time>2013-03-29T11:58:58Z</time>
    </trkpt>
    <trkpt lat="57.797149038" lon="11.802239008">
      <ele>44.36</ele>
      <time>2013-03-29T11:59:02Z</time>
    </trkpt>
    <trkpt lat="57.797170999" lon="11.80242802">
      <ele>45.32</ele>
      <time>2013-03-29T11:59:10Z</time>
    </trkpt>
    <trkpt lat="57.797187008" lon="11.802503038">
      <ele>45.32</ele>
      <time>2013-03-29T11:59:12Z</time>
    </trkpt>
    <trkpt lat="57.797206035" lon="11.80257001">
      <ele>46.28</ele>
      <time>2013-03-29T11:59:14Z</time>
    </trkpt>
    <trkpt lat="57.797241993" lon="11.802647039">
      <ele>45.8</ele>
      <time>2013-03-29T11:59:17Z</time>
    </trkpt>
    <trkpt lat="57.797273006" lon="11.802770002">
      <ele>45.32</ele>
      <time>2013-03-29T11:59:21Z</time>
    </trkpt>
    <trkpt lat="57.797318017" lon="11.802880978">
      <ele>45.8</ele>
      <time>2013-03-29T11:59:24Z</time>
    </trkpt>
    <trkpt lat="57.797422959" lon="11.803049035">
      <ele>44.84</ele>
      <time>2013-03-29T11:59:31Z</time>
    </trkpt>
    <trkpt lat="57.797544999" lon="11.803271994">
      <ele>45.8</ele>
      <time>2013-03-29T11:59:38Z</time>
    </trkpt>
    <trkpt lat="57.797610965" lon="11.803396968">
      <ele>45.8</ele>
      <time>2013-03-29T11:59:41Z</time>
    </trkpt>
    <trkpt lat="57.797639966" lon="11.803643983">
      <ele>45.8</ele>
      <time>2013-03-29T11:59:46Z</time>
    </trkpt>
    <trkpt lat="57.797647007" lon="11.803949">
      <ele>44.36</ele>
      <time>2013-03-29T11:59:53Z</time>
    </trkpt>
    <trkpt lat="57.797700986" lon="11.804157039">
      <ele>44.36</ele>
      <time>2013-03-29T11:59:59Z</time>
    </trkpt>
    <trkpt lat="57.797716996" lon="11.80421303">
      <ele>42.92</ele>
      <time>2013-03-29T12:00:01Z</time>
    </trkpt>
    <trkpt lat="57.797745997" lon="11.804268016">
      <ele>42.92</ele>
      <time>2013-03-29T12:00:03Z</time>
    </trkpt>
    <trkpt lat="57.797813974" lon="11.804522993">
      <ele>41.47</ele>
      <time>2013-03-29T12:00:09Z</time>
    </trkpt>
    <trkpt lat="57.797871977" lon="11.80467898">
      <ele>40.99</ele>
      <time>2013-03-29T12:00:12Z</time>
    </trkpt>
    <trkpt lat="57.797975997" lon="11.805029009">
      <ele>41.95</ele>
      <time>2013-03-29T12:00:19Z</time>
    </trkpt>
    <trkpt lat="57.798094014" lon="11.805307036">
      <ele>40.03</ele>
      <time>2013-03-29T12:00:25Z</time>
    </trkpt>
    <trkpt lat="57.798175989" lon="11.805625968">
      <ele>40.51</ele>
      <time>2013-03-29T12:00:33Z</time>
    </trkpt>
    <trkpt lat="57.798176995" lon="11.80582202">
      <ele>39.07</ele>
      <time>2013-03-29T12:00:36Z</time>
    </trkpt>
    <trkpt lat="57.798240026" lon="11.80602897">
      <ele>38.11</ele>
      <time>2013-03-29T12:00:41Z</time>
    </trkpt>
    <trkpt lat="57.798315967" lon="11.80618898">
      <ele>35.71</ele>
      <time>2013-03-29T12:00:50Z</time>
    </trkpt>
    <trkpt lat="57.79839199" lon="11.806296017">
      <ele>35.23</ele>
      <time>2013-03-29T12:01:00Z</time>
    </trkpt>
    <trkpt lat="57.798459968" lon="11.806323007">
      <ele>35.71</ele>
      <time>2013-03-29T12:01:03Z</time>
    </trkpt>
    <trkpt lat="57.798561975" lon="11.80640297">
      <ele>36.67</ele>
      <time>2013-03-29T12:01:10Z</time>
    </trkpt>
    <trkpt lat="57.798610004" lon="11.806452004">
      <ele>36.67</ele>
      <time>2013-03-29T12:01:14Z</time>
    </trkpt>
    <trkpt lat="57.798754005" lon="11.806626013">
      <ele>37.63</ele>
      <time>2013-03-29T12:01:21Z</time>
    </trkpt>
    <trkpt lat="57.79880899" lon="11.806723997">
      <ele>38.11</ele>
      <time>2013-03-29T12:01:26Z</time>
    </trkpt>
    <trkpt lat="57.798910998" lon="11.806815024">
      <ele>38.59</ele>
      <time>2013-03-29T12:01:35Z</time>
    </trkpt>
    <trkpt lat="57.79896196" lon="11.806838997">
      <ele>39.07</ele>
      <time>2013-03-29T12:01:37Z</time>
    </trkpt>
    <trkpt lat="57.799123982" lon="11.807074025">
      <ele>40.51</ele>
      <time>2013-03-29T12:01:46Z</time>
    </trkpt>
    <trkpt lat="57.799139991" lon="11.80710596">
      <ele>40.03</ele>
      <time>2013-03-29T12:01:47Z</time>
    </trkpt>
    <trkpt lat="57.799238982" lon="11.807306036">
      <ele>40.51</ele>
      <time>2013-03-29T12:01:55Z</time>
    </trkpt>
    <trkpt lat="57.799288016" lon="11.807426987">
      <ele>40.99</ele>
      <time>2013-03-29T12:01:58Z</time>
    </trkpt>
    <trkpt lat="57.799339984" lon="11.807551961">
      <ele>41.95</ele>
      <time>2013-03-29T12:02:02Z</time>
    </trkpt>
    <trkpt lat="57.799362028" lon="11.807608036">
      <ele>41.95</ele>
      <time>2013-03-29T12:02:05Z</time>
    </trkpt>
    <trkpt lat="57.79953503" lon="11.807985976">
      <ele>43.4</ele>
      <time>2013-03-29T12:02:15Z</time>
    </trkpt>
    <trkpt lat="57.799709961" lon="11.808295017">
      <ele>43.88</ele>
      <time>2013-03-29T12:02:23Z</time>
    </trkpt>
    <trkpt lat="57.799790008" lon="11.808440024">
      <ele>43.88</ele>
      <time>2013-03-29T12:02:28Z</time>
    </trkpt>
    <trkpt lat="57.799870977" lon="11.80871998">
      <ele>43.88</ele>
      <time>2013-03-29T12:02:37Z</time>
    </trkpt>
    <trkpt lat="57.800054038" lon="11.809058022">
      <ele>44.84</ele>
      <time>2013-03-29T12:02:43Z</time>
    </trkpt>
    <trkpt lat="57.800267022" lon="11.809420958">
      <ele>44.36</ele>
      <time>2013-03-29T12:02:51Z</time>
    </trkpt>
    <trkpt lat="57.800411023" lon="11.80979697">
      <ele>45.32</ele>
      <time>2013-03-29T12:02:59Z</time>
    </trkpt>
    <trkpt lat="57.80047196" lon="11.809937032">
      <ele>45.32</ele>
      <time>2013-03-29T12:03:02Z</time>
    </trkpt>
    <trkpt lat="57.800619984" lon="11.810268033">
      <ele>45.32</ele>
      <time>2013-03-29T12:03:10Z</time>
    </trkpt>
    <trkpt lat="57.800701037" lon="11.81041698">
      <ele>46.28</ele>
      <time>2013-03-29T12:03:15Z</time>
    </trkpt>
    <trkpt lat="57.800740013" lon="11.810496021">
      <ele>46.28</ele>
      <time>2013-03-29T12:03:18Z</time>
    </trkpt>
    <trkpt lat="57.800849983" lon="11.810744964">
      <ele>47.24</ele>
      <time>2013-03-29T12:03:27Z</time>
    </trkpt>
    <trkpt lat="57.800948974" lon="11.81095602">
      <ele>48.68</ele>
      <time>2013-03-29T12:03:35Z</time>
    </trkpt>
    <trkpt lat="57.801114013" lon="11.811256008">
      <ele>49.16</ele>
      <time>2013-03-29T12:03:44Z</time>
    </trkpt>
    <trkpt lat="57.80112097" lon="11.811299007">
      <ele>50.61</ele>
      <time>2013-03-29T12:03:46Z</time>
    </trkpt>
    <trkpt lat="57.801219039" lon="11.81158198">
      <ele>50.61</ele>
      <time>2013-03-29T12:03:53Z</time>
    </trkpt>
    <trkpt lat="57.801357005" lon="11.811845005">
      <ele>51.57</ele>
      <time>2013-03-29T12:04:00Z</time>
    </trkpt>
    <trkpt lat="57.80140101" lon="11.811915999">
      <ele>51.57</ele>
      <time>2013-03-29T12:04:13Z</time>
    </trkpt>
    <trkpt lat="57.801546017" lon="11.81209797">
      <ele>53.01</ele>
      <time>2013-03-29T12:04:19Z</time>
    </trkpt>
    <trkpt lat="57.801582981" lon="11.812125966">
      <ele>53.49</ele>
      <time>2013-03-29T12:04:20Z</time>
    </trkpt>
    <trkpt lat="57.801756989" lon="11.812166031">
      <ele>54.93</ele>
      <time>2013-03-29T12:04:28Z</time>
    </trkpt>
    <trkpt lat="57.801809963" lon="11.812145999">
      <ele>55.41</ele>
      <time>2013-03-29T12:04:30Z</time>
    </trkpt>
    <trkpt lat="57.801883975" lon="11.812145999">
      <ele>55.41</ele>
      <time>2013-03-29T12:04:33Z</time>
    </trkpt>
    <trkpt lat="57.802035017" lon="11.812196961">
      <ele>56.37</ele>
      <time>2013-03-29T12:04:42Z</time>
    </trkpt>
    <trkpt lat="57.802078016" lon="11.812213976">
      <ele>56.86</ele>
      <time>2013-03-29T12:04:45Z</time>
    </trkpt>
    <trkpt lat="57.802207014" lon="11.812293017">
      <ele>57.82</ele>
      <time>2013-03-29T12:04:54Z</time>
    </trkpt>
    <trkpt lat="57.80234104" lon="11.812314978">
      <ele>59.26</ele>
      <time>2013-03-29T12:05:04Z</time>
    </trkpt>
    <trkpt lat="57.802427961" lon="11.812317995">
      <ele>60.22</ele>
      <time>2013-03-29T12:05:13Z</time>
    </trkpt>
    <trkpt lat="57.802472971" lon="11.812294023">
      <ele>61.18</ele>
      <time>2013-03-29T12:05:17Z</time>
    </trkpt>
    <trkpt lat="57.802551007" lon="11.812302992">
      <ele>62.14</ele>
      <time>2013-03-29T12:05:28Z</time>
    </trkpt>
    <trkpt lat="57.802633988" lon="11.812357977">
      <ele>62.62</ele>
      <time>2013-03-29T12:05:33Z</time>
    </trkpt>
    <trkpt lat="57.802687967" lon="11.812386978">
      <ele>62.62</ele>
      <time>2013-03-29T12:05:35Z</time>
    </trkpt>
    <trkpt lat="57.802749993" lon="11.812472977">
      <ele>61.66</ele>
      <time>2013-03-29T12:05:39Z</time>
    </trkpt>
    <trkpt lat="57.802819982" lon="11.81253802">
      <ele>62.14</ele>
      <time>2013-03-29T12:05:44Z</time>
    </trkpt>
    <trkpt lat="57.803017041" lon="11.812609015">
      <ele>62.62</ele>
      <time>2013-03-29T12:05:53Z</time>
    </trkpt>
    <trkpt lat="57.80317001" lon="11.812743964">
      <ele>63.58</ele>
      <time>2013-03-29T12:06:01Z</time>
    </trkpt>
    <trkpt lat="57.803192977" lon="11.812756034">
      <ele>63.1</ele>
      <time>2013-03-29T12:06:15Z</time>
    </trkpt>
    <trkpt lat="57.803194989" lon="11.812765002">
      <ele>64.07</ele>
      <time>2013-03-29T12:07:06Z</time>
    </trkpt>
    <trkpt lat="57.803318035" lon="11.812890982">
      <ele>64.07</ele>
      <time>2013-03-29T12:07:19Z</time>
    </trkpt>
    <trkpt lat="57.803415013" lon="11.812987039">
      <ele>63.58</ele>
      <time>2013-03-29T12:07:23Z</time>
    </trkpt>
    <trkpt lat="57.803479973" lon="11.812954014">
      <ele>63.1</ele>
      <time>2013-03-29T12:07:26Z</time>
    </trkpt>
    <trkpt lat="57.803549962" lon="11.813068008">
      <ele>63.58</ele>
      <time>2013-03-29T12:07:29Z</time>
    </trkpt>
    <trkpt lat="57.80377904" lon="11.813290967">
      <ele>60.22</ele>
      <time>2013-03-29T12:07:37Z</time>
    </trkpt>
    <trkpt lat="57.803809969" lon="11.813379982">
      <ele>59.74</ele>
      <time>2013-03-29T12:07:39Z</time>
    </trkpt>
    <trkpt lat="57.803968973" lon="11.813580981">
      <ele>58.3</ele>
      <time>2013-03-29T12:07:46Z</time>
    </trkpt>
    <trkpt lat="57.804015996" lon="11.813691035">
      <ele>57.82</ele>
      <time>2013-03-29T12:07:49Z</time>
    </trkpt>
    <trkpt lat="57.804069975" lon="11.813807962">
      <ele>56.86</ele>
      <time>2013-03-29T12:07:53Z</time>
    </trkpt>
    <trkpt lat="57.804209031" lon="11.81396001">
      <ele>54.93</ele>
      <time>2013-03-29T12:07:57Z</time>
    </trkpt>
    <trkpt lat="57.80450399" lon="11.81427802">
      <ele>54.45</ele>
      <time>2013-03-29T12:08:04Z</time>
    </trkpt>
    <trkpt lat="57.804644974" lon="11.814638022">
      <ele>55.41</ele>
      <time>2013-03-29T12:08:11Z</time>
    </trkpt>
    <trkpt lat="57.804661989" lon="11.814704994">
      <ele>55.89</ele>
      <time>2013-03-29T12:08:13Z</time>
    </trkpt>
    <trkpt lat="57.804662995" lon="11.814799961">
      <ele>57.34</ele>
      <time>2013-03-29T12:08:16Z</time>
    </trkpt>
    <trkpt lat="57.804664001" lon="11.814982016">
      <ele>57.82</ele>
      <time>2013-03-29T12:08:20Z</time>
    </trkpt>
    <trkpt lat="57.804657966" lon="11.815006994">
      <ele>57.34</ele>
      <time>2013-03-29T12:08:21Z</time>
    </trkpt>
    <trkpt lat="57.804641034" lon="11.815082012">
      <ele>57.82</ele>
      <time>2013-03-29T12:08:24Z</time>
    </trkpt>
    <trkpt lat="57.80462997" lon="11.815159041">
      <ele>59.26</ele>
      <time>2013-03-29T12:08:27Z</time>
    </trkpt>
    <trkpt lat="57.804627959" lon="11.81539298">
      <ele>59.74</ele>
      <time>2013-03-29T12:08:36Z</time>
    </trkpt>
    <trkpt lat="57.804622008" lon="11.815547962">
      <ele>61.66</ele>
      <time>2013-03-29T12:08:45Z</time>
    </trkpt>
    <trkpt lat="57.804473983" lon="11.81582096">
      <ele>62.62</ele>
      <time>2013-03-29T12:08:54Z</time>
    </trkpt>
    <trkpt lat="57.804369042" lon="11.816035034">
      <ele>64.07</ele>
      <time>2013-03-29T12:09:04Z</time>
    </trkpt>
    <trkpt lat="57.804297041" lon="11.816123966">
      <ele>65.03</ele>
      <time>2013-03-29T12:09:13Z</time>
    </trkpt>
    <trkpt lat="57.80429" lon="11.81613503">
      <ele>65.03</ele>
      <time>2013-03-29T12:09:14Z</time>
    </trkpt>
    <trkpt lat="57.804155974" lon="11.816313984">
      <ele>64.55</ele>
      <time>2013-03-29T12:09:23Z</time>
    </trkpt>
    <trkpt lat="57.804130996" lon="11.816344997">
      <ele>65.03</ele>
      <time>2013-03-29T12:09:39Z</time>
    </trkpt>
    <trkpt lat="57.804062013" lon="11.81652504">
      <ele>65.99</ele>
      <time>2013-03-29T12:09:47Z</time>
    </trkpt>
    <trkpt lat="57.803971991" lon="11.816679016">
      <ele>65.03</ele>
      <time>2013-03-29T12:09:55Z</time>
    </trkpt>
    <trkpt lat="57.803894961" lon="11.816808013">
      <ele>65.03</ele>
      <time>2013-03-29T12:09:59Z</time>
    </trkpt>
    <trkpt lat="57.803832013" lon="11.816812037">
      <ele>63.58</ele>
      <time>2013-03-29T12:10:02Z</time>
    </trkpt>
    <trkpt lat="57.803741992" lon="11.816800972">
      <ele>63.1</ele>
      <time>2013-03-29T12:10:06Z</time>
    </trkpt>
    <trkpt lat="57.803676026" lon="11.816792004">
      <ele>63.1</ele>
      <time>2013-03-29T12:10:08Z</time>
    </trkpt>
    <trkpt lat="57.803566977" lon="11.816645991">
      <ele>62.14</ele>
      <time>2013-03-29T12:10:12Z</time>
    </trkpt>
    <trkpt lat="57.803368997" lon="11.816551024">
      <ele>59.74</ele>
      <time>2013-03-29T12:10:17Z</time>
    </trkpt>
    <trkpt lat="57.803227007" lon="11.816354971">
      <ele>57.82</ele>
      <time>2013-03-29T12:10:22Z</time>
    </trkpt>
    <trkpt lat="57.803093987" lon="11.816344997">
      <ele>54.93</ele>
      <time>2013-03-29T12:10:28Z</time>
    </trkpt>
    <trkpt lat="57.802998014" lon="11.816559993">
      <ele>56.86</ele>
      <time>2013-03-29T12:10:37Z</time>
    </trkpt>
    <trkpt lat="57.802988039" lon="11.816583965">
      <ele>57.34</ele>
      <time>2013-03-29T12:10:39Z</time>
    </trkpt>
    <trkpt lat="57.802968007" lon="11.816773983">
      <ele>54.93</ele>
      <time>2013-03-29T12:10:44Z</time>
    </trkpt>
    <trkpt lat="57.802935988" lon="11.816874985">
      <ele>53.97</ele>
      <time>2013-03-29T12:10:47Z</time>
    </trkpt>
    <trkpt lat="57.802897012" lon="11.816983027">
      <ele>52.53</ele>
      <time>2013-03-29T12:10:50Z</time>
    </trkpt>
    <trkpt lat="57.802856024" lon="11.817074977">
      <ele>51.09</ele>
      <time>2013-03-29T12:10:52Z</time>
    </trkpt>
    <trkpt lat="57.802795004" lon="11.817189977">
      <ele>51.09</ele>
      <time>2013-03-29T12:10:55Z</time>
    </trkpt>
    <trkpt lat="57.802793998" lon="11.817574035">
      <ele>51.09</ele>
      <time>2013-03-29T12:11:02Z</time>
    </trkpt>
    <trkpt lat="57.802829035" lon="11.817819038">
      <ele>51.57</ele>
      <time>2013-03-29T12:11:09Z</time>
    </trkpt>
    <trkpt lat="57.802846972" lon="11.817903025">
      <ele>52.05</ele>
      <time>2013-03-29T12:11:11Z</time>
    </trkpt>
    <trkpt lat="57.80299399" lon="11.818212988">
      <ele>51.09</ele>
      <time>2013-03-29T12:11:21Z</time>
    </trkpt>
    <trkpt lat="57.80307496" lon="11.818405017">
      <ele>49.65</ele>
      <time>2013-03-29T12:11:27Z</time>
    </trkpt>
    <trkpt lat="57.803093987" lon="11.818443993">
      <ele>49.65</ele>
      <time>2013-03-29T12:11:28Z</time>
    </trkpt>
    <trkpt lat="57.803161964" lon="11.818791004">
      <ele>49.65</ele>
      <time>2013-03-29T12:11:35Z</time>
    </trkpt>
    <trkpt lat="57.803180991" lon="11.818877002">
      <ele>48.68</ele>
      <time>2013-03-29T12:11:37Z</time>
    </trkpt>
    <trkpt lat="57.803248968" lon="11.819006">
      <ele>47.24</ele>
      <time>2013-03-29T12:11:41Z</time>
    </trkpt>
    <trkpt lat="57.803271012" lon="11.819039024">
      <ele>47.24</ele>
      <time>2013-03-29T12:11:43Z</time>
    </trkpt>
    <trkpt lat="57.803302025" lon="11.819107002">
      <ele>46.28</ele>
      <time>2013-03-29T12:11:55Z</time>
    </trkpt>
    <trkpt lat="57.803339995" lon="11.819243962">
      <ele>45.8</ele>
      <time>2013-03-29T12:12:56Z</time>
    </trkpt>
    <trkpt lat="57.803350976" lon="11.819271035">
      <ele>45.8</ele>
      <time>2013-03-29T12:12:57Z</time>
    </trkpt>
    <trkpt lat="57.803445021" lon="11.81938">
      <ele>43.88</ele>
      <time>2013-03-29T12:13:05Z</time>
    </trkpt>
    <trkpt lat="57.803458013" lon="11.819393998">
      <ele>44.36</ele>
      <time>2013-03-29T12:13:06Z</time>
    </trkpt>
    <trkpt lat="57.803610982" lon="11.819467004">
      <ele>44.36</ele>
      <time>2013-03-29T12:13:14Z</time>
    </trkpt>
    <trkpt lat="57.803778034" lon="11.819695998">
      <ele>43.4</ele>
      <time>2013-03-29T12:13:21Z</time>
    </trkpt>
    <trkpt lat="57.803917006" lon="11.819905965">
      <ele>44.84</ele>
      <time>2013-03-29T12:13:29Z</time>
    </trkpt>
    <trkpt lat="57.804000992" lon="11.820107969">
      <ele>44.36</ele>
      <time>2013-03-29T12:13:35Z</time>
    </trkpt>
    <trkpt lat="57.804039968" lon="11.820204025">
      <ele>44.36</ele>
      <time>2013-03-29T12:13:38Z</time>
    </trkpt>
    <trkpt lat="57.804096965" lon="11.820340985">
      <ele>44.84</ele>
      <time>2013-03-29T12:13:42Z</time>
    </trkpt>
    <trkpt lat="57.804138036" lon="11.820477024">
      <ele>44.36</ele>
      <time>2013-03-29T12:13:45Z</time>
    </trkpt>
    <trkpt lat="57.804305004" lon="11.820859993">
      <ele>44.84</ele>
      <time>2013-03-29T12:13:53Z</time>
    </trkpt>
    <trkpt lat="57.804427966" lon="11.821192">
      <ele>45.32</ele>
      <time>2013-03-29T12:14:03Z</time>
    </trkpt>
    <trkpt lat="57.804428972" lon="11.821283028">
      <ele>45.32</ele>
      <time>2013-03-29T12:14:04Z</time>
    </trkpt>
    <trkpt lat="57.804420004" lon="11.821386963">
      <ele>44.36</ele>
      <time>2013-03-29T12:14:05Z</time>
    </trkpt>
    <trkpt lat="57.804398965" lon="11.821494">
      <ele>44.84</ele>
      <time>2013-03-29T12:14:06Z</time>
    </trkpt>
    <trkpt lat="57.804382034" lon="11.82158201">
      <ele>44.84</ele>
      <time>2013-03-29T12:14:07Z</time>
    </trkpt>
    <trkpt lat="57.804384967" lon="11.821655016">
      <ele>44.36</ele>
      <time>2013-03-29T12:14:08Z</time>
    </trkpt>
    <trkpt lat="57.804398965" lon="11.821716959">
      <ele>44.84</ele>
      <time>2013-03-29T12:14:09Z</time>
    </trkpt>
    <trkpt lat="57.804410029" lon="11.821768004">
      <ele>45.32</ele>
      <time>2013-03-29T12:14:10Z</time>
    </trkpt>
    <trkpt lat="57.804469038" lon="11.82207101">
      <ele>46.28</ele>
      <time>2013-03-29T12:14:16Z</time>
    </trkpt>
    <trkpt lat="57.804523017" lon="11.822190033">
      <ele>46.76</ele>
      <time>2013-03-29T12:14:19Z</time>
    </trkpt>
    <trkpt lat="57.804567022" lon="11.82234602">
      <ele>47.72</ele>
      <time>2013-03-29T12:14:23Z</time>
    </trkpt>
    <trkpt lat="57.804699037" lon="11.822720021">
      <ele>46.28</ele>
      <time>2013-03-29T12:14:33Z</time>
    </trkpt>
    <trkpt lat="57.804751005" lon="11.822781963">
      <ele>45.8</ele>
      <time>2013-03-29T12:14:37Z</time>
    </trkpt>
    <trkpt lat="57.804857036" lon="11.823167028">
      <ele>47.72</ele>
      <time>2013-03-29T12:14:47Z</time>
    </trkpt>
    <trkpt lat="57.804907998" lon="11.823273981">
      <ele>47.72</ele>
      <time>2013-03-29T12:14:51Z</time>
    </trkpt>
    <trkpt lat="57.804992991" lon="11.823555026">
      <ele>46.76</ele>
      <time>2013-03-29T12:14:59Z</time>
    </trkpt>
    <trkpt lat="57.80499802" lon="11.823681006">
      <ele>45.32</ele>
      <time>2013-03-29T12:15:02Z</time>
    </trkpt>
    <trkpt lat="57.805022998" lon="11.823825007">
      <ele>44.84</ele>
      <time>2013-03-29T12:15:10Z</time>
    </trkpt>
    <trkpt lat="57.805043031" lon="11.823917963">
      <ele>45.32</ele>
      <time>2013-03-29T12:15:23Z</time>
    </trkpt>
    <trkpt lat="57.805041019" lon="11.824036986">
      <ele>44.36</ele>
      <time>2013-03-29T12:15:31Z</time>
    </trkpt>
    <trkpt lat="57.80504697" lon="11.824104963">
      <ele>44.36</ele>
      <time>2013-03-29T12:15:39Z</time>
    </trkpt>
    <trkpt lat="57.805001037" lon="11.824302021">
      <ele>46.28</ele>
      <time>2013-03-29T12:15:46Z</time>
    </trkpt>
    <trkpt lat="57.804973964" lon="11.824406041">
      <ele>45.8</ele>
      <time>2013-03-29T12:15:49Z</time>
    </trkpt>
    <trkpt lat="57.804827029" lon="11.824652972">
      <ele>46.76</ele>
      <time>2013-03-29T12:15:57Z</time>
    </trkpt>
    <trkpt lat="57.804796016" lon="11.824766966">
      <ele>46.28</ele>
      <time>2013-03-29T12:15:59Z</time>
    </trkpt>
    <trkpt lat="57.804775983" lon="11.824823963">
      <ele>46.28</ele>
      <time>2013-03-29T12:16:00Z</time>
    </trkpt>
    <trkpt lat="57.804762991" lon="11.824880037">
      <ele>45.8</ele>
      <time>2013-03-29T12:16:01Z</time>
    </trkpt>
    <trkpt lat="57.804742958" lon="11.824934017">
      <ele>46.28</ele>
      <time>2013-03-29T12:16:02Z</time>
    </trkpt>
    <trkpt lat="57.804697026" lon="11.825168962">
      <ele>46.76</ele>
      <time>2013-03-29T12:16:06Z</time>
    </trkpt>
    <trkpt lat="57.804710018" lon="11.825225037">
      <ele>47.24</ele>
      <time>2013-03-29T12:16:07Z</time>
    </trkpt>
    <trkpt lat="57.80480599" lon="11.825619992">
      <ele>46.76</ele>
      <time>2013-03-29T12:16:15Z</time>
    </trkpt>
    <trkpt lat="57.804829041" lon="11.825849991">
      <ele>46.76</ele>
      <time>2013-03-29T12:16:19Z</time>
    </trkpt>
    <trkpt lat="57.804726027" lon="11.826185016">
      <ele>46.28</ele>
      <time>2013-03-29T12:16:25Z</time>
    </trkpt>
    <trkpt lat="57.80455797" lon="11.826218963">
      <ele>45.32</ele>
      <time>2013-03-29T12:16:31Z</time>
    </trkpt>
    <trkpt lat="57.804549001" lon="11.826185016">
      <ele>45.8</ele>
      <time>2013-03-29T12:16:32Z</time>
    </trkpt>
    <trkpt lat="57.804474989" lon="11.825845968">
      <ele>46.28</ele>
      <time>2013-03-29T12:16:42Z</time>
    </trkpt>
    <trkpt lat="57.804382034" lon="11.825738009">
      <ele>48.68</ele>
      <time>2013-03-29T12:16:52Z</time>
    </trkpt>
    <trkpt lat="57.804341968" lon="11.825704984">
      <ele>47.24</ele>
      <time>2013-03-29T12:17:03Z</time>
    </trkpt>
    <trkpt lat="57.804341968" lon="11.825704984">
      <ele>47.72</ele>
      <time>2013-03-29T12:17:13Z</time>
    </trkpt>
    <trkpt lat="57.804179024" lon="11.825658968">
      <ele>46.28</ele>
      <time>2013-03-29T12:17:20Z</time>
    </trkpt>
    <trkpt lat="57.803996969" lon="11.825706996">
      <ele>45.32</ele>
      <time>2013-03-29T12:17:27Z</time>
    </trkpt>
    <trkpt lat="57.803895967" lon="11.825782014">
      <ele>42.92</ele>
      <time>2013-03-29T12:17:32Z</time>
    </trkpt>
    <trkpt lat="57.803704021" lon="11.825757036">
      <ele>41.95</ele>
      <time>2013-03-29T12:17:39Z</time>
    </trkpt>
    <trkpt lat="57.803474022" lon="11.825801963">
      <ele>42.44</ele>
      <time>2013-03-29T12:17:47Z</time>
    </trkpt>
  </trkseg>
</trk>
</gpx>
